<?xml version="1.0" encoding="UTF-8" standalone="no" ?>
<gpx xmlns="http://www.topografix.com/GPX/1/1" xmlns:xsi="http://www.w3.org/2001/XMLSchema-instance" xsi:schemaLocation="http://www.topografix.com/GPX/1/1 http://www.topografix.com/GPX/1/1/gpx.xsd" version="1.1" creator="VisuGPX - https://www.visugpx.com">
  <metadata>
    <name>Chalon-sur-Saône / Lyon à vélo</name>
    <desc><![CDATA[Chalon-sur-Saône / Lyon à vélo]]></desc>
  </metadata>
  <trk>
    <name><![CDATA[05-SEP-12 17:51:59]]></name>
    <trkseg>
      <trkpt lat="45.76052" lon="4.85893">
        <ele>176.06</ele>
        <time>2012-09-05T12:48:09Z</time>
      </trkpt>
      <trkpt lat="45.76051" lon="4.85877">
        <ele>176.06</ele>
        <time>2012-09-05T12:48:30Z</time>
      </trkpt>
      <trkpt lat="45.7605" lon="4.85884">
        <ele>174.62</ele>
        <time>2012-09-05T12:48:51Z</time>
      </trkpt>
      <trkpt lat="45.76053" lon="4.85884">
        <ele>176.54</ele>
        <time>2012-09-05T12:49:13Z</time>
      </trkpt>
      <trkpt lat="45.76052" lon="4.85889">
        <ele>176.06</ele>
        <time>2012-09-05T12:49:38Z</time>
      </trkpt>
      <trkpt lat="45.76051" lon="4.85901">
        <ele>177.02</ele>
        <time>2012-09-05T12:50:01Z</time>
      </trkpt>
      <trkpt lat="45.76051" lon="4.85888">
        <ele>177.02</ele>
        <time>2012-09-05T12:50:13Z</time>
      </trkpt>
      <trkpt lat="45.76052" lon="4.85885">
        <ele>177.98</ele>
        <time>2012-09-05T12:50:34Z</time>
      </trkpt>
      <trkpt lat="45.76051" lon="4.85887">
        <ele>179.9</ele>
        <time>2012-09-05T12:51:00Z</time>
      </trkpt>
      <trkpt lat="45.76051" lon="4.85889">
        <ele>180.87</ele>
        <time>2012-09-05T12:51:25Z</time>
      </trkpt>
      <trkpt lat="45.76051" lon="4.85888">
        <ele>181.35</ele>
        <time>2012-09-05T12:51:36Z</time>
      </trkpt>
      <trkpt lat="45.7605" lon="4.85884">
        <ele>181.83</ele>
        <time>2012-09-05T12:51:40Z</time>
      </trkpt>
      <trkpt lat="45.76051" lon="4.85874">
        <ele>182.31</ele>
        <time>2012-09-05T12:51:52Z</time>
      </trkpt>
      <trkpt lat="45.76051" lon="4.85874">
        <ele>182.79</ele>
        <time>2012-09-05T12:51:57Z</time>
      </trkpt>
      <trkpt lat="45.76054" lon="4.85873">
        <ele>182.79</ele>
        <time>2012-09-05T12:52:00Z</time>
      </trkpt>
      <trkpt lat="45.76069" lon="4.85864">
        <ele>183.75</ele>
        <time>2012-09-05T12:52:10Z</time>
      </trkpt>
      <trkpt lat="45.76072" lon="4.85862">
        <ele>184.23</ele>
        <time>2012-09-05T12:52:12Z</time>
      </trkpt>
      <trkpt lat="45.76081" lon="4.85858">
        <ele>184.71</ele>
        <time>2012-09-05T12:52:18Z</time>
      </trkpt>
      <trkpt lat="45.76087" lon="4.85856">
        <ele>185.19</ele>
        <time>2012-09-05T12:52:21Z</time>
      </trkpt>
      <trkpt lat="45.76092" lon="4.8584">
        <ele>185.67</ele>
        <time>2012-09-05T12:52:27Z</time>
      </trkpt>
      <trkpt lat="45.76092" lon="4.85824">
        <ele>185.67</ele>
        <time>2012-09-05T12:52:33Z</time>
      </trkpt>
      <trkpt lat="45.76095" lon="4.85818">
        <ele>186.15</ele>
        <time>2012-09-05T12:52:48Z</time>
      </trkpt>
      <trkpt lat="45.761" lon="4.85816">
        <ele>186.63</ele>
        <time>2012-09-05T12:53:10Z</time>
      </trkpt>
      <trkpt lat="45.761" lon="4.85817">
        <ele>186.63</ele>
        <time>2012-09-05T12:53:19Z</time>
      </trkpt>
      <trkpt lat="45.76108" lon="4.85808">
        <ele>186.63</ele>
        <time>2012-09-05T12:53:26Z</time>
      </trkpt>
      <trkpt lat="45.76122" lon="4.85795">
        <ele>187.11</ele>
        <time>2012-09-05T12:53:36Z</time>
      </trkpt>
      <trkpt lat="45.76159" lon="4.85781">
        <ele>187.11</ele>
        <time>2012-09-05T12:53:45Z</time>
      </trkpt>
      <trkpt lat="45.76174" lon="4.85783">
        <ele>187.11</ele>
        <time>2012-09-05T12:53:50Z</time>
      </trkpt>
      <trkpt lat="45.76182" lon="4.85788">
        <ele>187.11</ele>
        <time>2012-09-05T12:53:52Z</time>
      </trkpt>
      <trkpt lat="45.76194" lon="4.85784">
        <ele>187.11</ele>
        <time>2012-09-05T12:53:56Z</time>
      </trkpt>
      <trkpt lat="45.76227" lon="4.85786">
        <ele>187.59</ele>
        <time>2012-09-05T12:54:06Z</time>
      </trkpt>
      <trkpt lat="45.76231" lon="4.85798">
        <ele>187.59</ele>
        <time>2012-09-05T12:54:12Z</time>
      </trkpt>
      <trkpt lat="45.76237" lon="4.85812">
        <ele>187.59</ele>
        <time>2012-09-05T12:54:17Z</time>
      </trkpt>
      <trkpt lat="45.76258" lon="4.85814">
        <ele>187.59</ele>
        <time>2012-09-05T12:54:29Z</time>
      </trkpt>
      <trkpt lat="45.7627" lon="4.85812">
        <ele>188.08</ele>
        <time>2012-09-05T12:54:35Z</time>
      </trkpt>
      <trkpt lat="45.76291" lon="4.85803">
        <ele>188.08</ele>
        <time>2012-09-05T12:54:44Z</time>
      </trkpt>
      <trkpt lat="45.76302" lon="4.85803">
        <ele>187.59</ele>
        <time>2012-09-05T12:54:48Z</time>
      </trkpt>
      <trkpt lat="45.76313" lon="4.85804">
        <ele>187.59</ele>
        <time>2012-09-05T12:54:52Z</time>
      </trkpt>
      <trkpt lat="45.7634" lon="4.85818">
        <ele>188.08</ele>
        <time>2012-09-05T12:55:03Z</time>
      </trkpt>
      <trkpt lat="45.76351" lon="4.85823">
        <ele>188.08</ele>
        <time>2012-09-05T12:55:18Z</time>
      </trkpt>
      <trkpt lat="45.76353" lon="4.85824">
        <ele>188.08</ele>
        <time>2012-09-05T12:55:20Z</time>
      </trkpt>
      <trkpt lat="45.7636" lon="4.85833">
        <ele>188.08</ele>
        <time>2012-09-05T12:55:28Z</time>
      </trkpt>
      <trkpt lat="45.76376" lon="4.85822">
        <ele>188.56</ele>
        <time>2012-09-05T12:55:37Z</time>
      </trkpt>
      <trkpt lat="45.76409" lon="4.8583">
        <ele>188.08</ele>
        <time>2012-09-05T12:55:50Z</time>
      </trkpt>
      <trkpt lat="45.76444" lon="4.85849">
        <ele>188.08</ele>
        <time>2012-09-05T12:56:00Z</time>
      </trkpt>
      <trkpt lat="45.76483" lon="4.85874">
        <ele>188.56</ele>
        <time>2012-09-05T12:56:10Z</time>
      </trkpt>
      <trkpt lat="45.76514" lon="4.85892">
        <ele>189.52</ele>
        <time>2012-09-05T12:56:21Z</time>
      </trkpt>
      <trkpt lat="45.76518" lon="4.85895">
        <ele>188.08</ele>
        <time>2012-09-05T12:56:43Z</time>
      </trkpt>
      <trkpt lat="45.76519" lon="4.85897">
        <ele>188.56</ele>
        <time>2012-09-05T12:56:44Z</time>
      </trkpt>
      <trkpt lat="45.76521" lon="4.85898">
        <ele>188.56</ele>
        <time>2012-09-05T12:56:45Z</time>
      </trkpt>
      <trkpt lat="45.76523" lon="4.85899">
        <ele>188.56</ele>
        <time>2012-09-05T12:56:46Z</time>
      </trkpt>
      <trkpt lat="45.76525" lon="4.859">
        <ele>188.56</ele>
        <time>2012-09-05T12:56:47Z</time>
      </trkpt>
      <trkpt lat="45.76528" lon="4.85901">
        <ele>188.56</ele>
        <time>2012-09-05T12:56:48Z</time>
      </trkpt>
      <trkpt lat="45.7653" lon="4.85901">
        <ele>188.56</ele>
        <time>2012-09-05T12:56:49Z</time>
      </trkpt>
      <trkpt lat="45.76533" lon="4.85901">
        <ele>188.56</ele>
        <time>2012-09-05T12:56:50Z</time>
      </trkpt>
      <trkpt lat="45.76535" lon="4.85901">
        <ele>188.08</ele>
        <time>2012-09-05T12:56:51Z</time>
      </trkpt>
      <trkpt lat="45.76539" lon="4.85903">
        <ele>188.08</ele>
        <time>2012-09-05T12:56:52Z</time>
      </trkpt>
      <trkpt lat="45.76543" lon="4.85904">
        <ele>188.08</ele>
        <time>2012-09-05T12:56:53Z</time>
      </trkpt>
      <trkpt lat="45.7659" lon="4.85924">
        <ele>188.08</ele>
        <time>2012-09-05T12:57:05Z</time>
      </trkpt>
      <trkpt lat="45.76629" lon="4.85928">
        <ele>188.08</ele>
        <time>2012-09-05T12:57:19Z</time>
      </trkpt>
      <trkpt lat="45.76632" lon="4.85923">
        <ele>188.56</ele>
        <time>2012-09-05T12:57:31Z</time>
      </trkpt>
      <trkpt lat="45.76632" lon="4.85919">
        <ele>188.08</ele>
        <time>2012-09-05T12:57:32Z</time>
      </trkpt>
      <trkpt lat="45.76633" lon="4.85915">
        <ele>188.56</ele>
        <time>2012-09-05T12:57:33Z</time>
      </trkpt>
      <trkpt lat="45.76633" lon="4.85913">
        <ele>188.08</ele>
        <time>2012-09-05T12:57:34Z</time>
      </trkpt>
      <trkpt lat="45.76632" lon="4.85907">
        <ele>188.08</ele>
        <time>2012-09-05T12:57:37Z</time>
      </trkpt>
      <trkpt lat="45.7663" lon="4.85906">
        <ele>188.08</ele>
        <time>2012-09-05T12:57:38Z</time>
      </trkpt>
      <trkpt lat="45.76628" lon="4.85904">
        <ele>188.08</ele>
        <time>2012-09-05T12:57:39Z</time>
      </trkpt>
      <trkpt lat="45.76626" lon="4.859">
        <ele>188.08</ele>
        <time>2012-09-05T12:57:41Z</time>
      </trkpt>
      <trkpt lat="45.76625" lon="4.85897">
        <ele>188.08</ele>
        <time>2012-09-05T12:57:42Z</time>
      </trkpt>
      <trkpt lat="45.76624" lon="4.85836">
        <ele>188.08</ele>
        <time>2012-09-05T12:57:52Z</time>
      </trkpt>
      <trkpt lat="45.7662" lon="4.858">
        <ele>188.08</ele>
        <time>2012-09-05T12:57:58Z</time>
      </trkpt>
      <trkpt lat="45.76613" lon="4.85751">
        <ele>187.59</ele>
        <time>2012-09-05T12:58:06Z</time>
      </trkpt>
      <trkpt lat="45.76613" lon="4.85744">
        <ele>187.59</ele>
        <time>2012-09-05T12:58:07Z</time>
      </trkpt>
      <trkpt lat="45.76614" lon="4.85716">
        <ele>187.11</ele>
        <time>2012-09-05T12:58:17Z</time>
      </trkpt>
      <trkpt lat="45.76612" lon="4.85711">
        <ele>187.59</ele>
        <time>2012-09-05T12:58:38Z</time>
      </trkpt>
      <trkpt lat="45.76612" lon="4.85709">
        <ele>187.11</ele>
        <time>2012-09-05T12:58:39Z</time>
      </trkpt>
      <trkpt lat="45.76611" lon="4.85706">
        <ele>187.59</ele>
        <time>2012-09-05T12:58:40Z</time>
      </trkpt>
      <trkpt lat="45.76611" lon="4.85702">
        <ele>187.11</ele>
        <time>2012-09-05T12:58:41Z</time>
      </trkpt>
      <trkpt lat="45.76611" lon="4.85697">
        <ele>187.59</ele>
        <time>2012-09-05T12:58:42Z</time>
      </trkpt>
      <trkpt lat="45.76614" lon="4.85654">
        <ele>187.11</ele>
        <time>2012-09-05T12:58:52Z</time>
      </trkpt>
      <trkpt lat="45.76607" lon="4.85602">
        <ele>187.11</ele>
        <time>2012-09-05T12:59:02Z</time>
      </trkpt>
      <trkpt lat="45.76603" lon="4.85549">
        <ele>187.11</ele>
        <time>2012-09-05T12:59:13Z</time>
      </trkpt>
      <trkpt lat="45.76598" lon="4.85477">
        <ele>186.63</ele>
        <time>2012-09-05T12:59:27Z</time>
      </trkpt>
      <trkpt lat="45.76596" lon="4.85412">
        <ele>186.15</ele>
        <time>2012-09-05T12:59:39Z</time>
      </trkpt>
      <trkpt lat="45.76591" lon="4.85366">
        <ele>186.63</ele>
        <time>2012-09-05T12:59:49Z</time>
      </trkpt>
      <trkpt lat="45.76581" lon="4.85328">
        <ele>186.15</ele>
        <time>2012-09-05T13:00:02Z</time>
      </trkpt>
      <trkpt lat="45.76579" lon="4.85326">
        <ele>186.15</ele>
        <time>2012-09-05T13:00:10Z</time>
      </trkpt>
      <trkpt lat="45.76579" lon="4.85323">
        <ele>185.67</ele>
        <time>2012-09-05T13:00:11Z</time>
      </trkpt>
      <trkpt lat="45.7658" lon="4.85321">
        <ele>186.15</ele>
        <time>2012-09-05T13:00:12Z</time>
      </trkpt>
      <trkpt lat="45.76583" lon="4.85312">
        <ele>186.15</ele>
        <time>2012-09-05T13:00:15Z</time>
      </trkpt>
      <trkpt lat="45.76586" lon="4.85303">
        <ele>186.15</ele>
        <time>2012-09-05T13:00:17Z</time>
      </trkpt>
      <trkpt lat="45.76581" lon="4.85276">
        <ele>185.67</ele>
        <time>2012-09-05T13:00:21Z</time>
      </trkpt>
      <trkpt lat="45.76579" lon="4.85255">
        <ele>186.15</ele>
        <time>2012-09-05T13:00:24Z</time>
      </trkpt>
      <trkpt lat="45.76578" lon="4.85248">
        <ele>186.15</ele>
        <time>2012-09-05T13:00:25Z</time>
      </trkpt>
      <trkpt lat="45.76576" lon="4.85206">
        <ele>186.15</ele>
        <time>2012-09-05T13:00:32Z</time>
      </trkpt>
      <trkpt lat="45.76565" lon="4.85135">
        <ele>185.19</ele>
        <time>2012-09-05T13:00:46Z</time>
      </trkpt>
      <trkpt lat="45.76558" lon="4.85079">
        <ele>185.19</ele>
        <time>2012-09-05T13:00:55Z</time>
      </trkpt>
      <trkpt lat="45.76556" lon="4.85066">
        <ele>185.19</ele>
        <time>2012-09-05T13:00:57Z</time>
      </trkpt>
      <trkpt lat="45.76555" lon="4.85061">
        <ele>185.19</ele>
        <time>2012-09-05T13:00:58Z</time>
      </trkpt>
      <trkpt lat="45.76551" lon="4.85003">
        <ele>184.71</ele>
        <time>2012-09-05T13:01:08Z</time>
      </trkpt>
      <trkpt lat="45.76549" lon="4.84952">
        <ele>184.71</ele>
        <time>2012-09-05T13:01:18Z</time>
      </trkpt>
      <trkpt lat="45.76546" lon="4.84886">
        <ele>184.23</ele>
        <time>2012-09-05T13:01:29Z</time>
      </trkpt>
      <trkpt lat="45.76538" lon="4.84829">
        <ele>183.75</ele>
        <time>2012-09-05T13:01:41Z</time>
      </trkpt>
      <trkpt lat="45.76535" lon="4.84823">
        <ele>183.75</ele>
        <time>2012-09-05T13:01:46Z</time>
      </trkpt>
      <trkpt lat="45.76539" lon="4.8479">
        <ele>184.23</ele>
        <time>2012-09-05T13:01:55Z</time>
      </trkpt>
      <trkpt lat="45.76538" lon="4.84775">
        <ele>183.75</ele>
        <time>2012-09-05T13:01:58Z</time>
      </trkpt>
      <trkpt lat="45.76537" lon="4.84769">
        <ele>184.23</ele>
        <time>2012-09-05T13:01:59Z</time>
      </trkpt>
      <trkpt lat="45.76528" lon="4.84709">
        <ele>184.23</ele>
        <time>2012-09-05T13:02:09Z</time>
      </trkpt>
      <trkpt lat="45.76525" lon="4.84701">
        <ele>184.71</ele>
        <time>2012-09-05T13:02:10Z</time>
      </trkpt>
      <trkpt lat="45.76526" lon="4.84696">
        <ele>184.23</ele>
        <time>2012-09-05T13:02:11Z</time>
      </trkpt>
      <trkpt lat="45.76527" lon="4.84691">
        <ele>184.23</ele>
        <time>2012-09-05T13:02:12Z</time>
      </trkpt>
      <trkpt lat="45.76527" lon="4.84685">
        <ele>184.71</ele>
        <time>2012-09-05T13:02:13Z</time>
      </trkpt>
      <trkpt lat="45.76529" lon="4.84682">
        <ele>184.23</ele>
        <time>2012-09-05T13:02:14Z</time>
      </trkpt>
      <trkpt lat="45.76531" lon="4.84678">
        <ele>184.23</ele>
        <time>2012-09-05T13:02:15Z</time>
      </trkpt>
      <trkpt lat="45.76532" lon="4.84674">
        <ele>184.23</ele>
        <time>2012-09-05T13:02:16Z</time>
      </trkpt>
      <trkpt lat="45.76532" lon="4.84669">
        <ele>184.23</ele>
        <time>2012-09-05T13:02:17Z</time>
      </trkpt>
      <trkpt lat="45.76533" lon="4.84665">
        <ele>184.23</ele>
        <time>2012-09-05T13:02:18Z</time>
      </trkpt>
      <trkpt lat="45.76532" lon="4.84659">
        <ele>184.23</ele>
        <time>2012-09-05T13:02:19Z</time>
      </trkpt>
      <trkpt lat="45.7653" lon="4.84635">
        <ele>183.75</ele>
        <time>2012-09-05T13:02:23Z</time>
      </trkpt>
      <trkpt lat="45.76526" lon="4.84626">
        <ele>185.19</ele>
        <time>2012-09-05T13:02:24Z</time>
      </trkpt>
      <trkpt lat="45.76521" lon="4.84618">
        <ele>184.23</ele>
        <time>2012-09-05T13:02:25Z</time>
      </trkpt>
      <trkpt lat="45.76518" lon="4.84611">
        <ele>183.75</ele>
        <time>2012-09-05T13:02:26Z</time>
      </trkpt>
      <trkpt lat="45.76516" lon="4.84605">
        <ele>183.75</ele>
        <time>2012-09-05T13:02:27Z</time>
      </trkpt>
      <trkpt lat="45.76515" lon="4.846">
        <ele>183.75</ele>
        <time>2012-09-05T13:02:28Z</time>
      </trkpt>
      <trkpt lat="45.76513" lon="4.84594">
        <ele>183.75</ele>
        <time>2012-09-05T13:02:29Z</time>
      </trkpt>
      <trkpt lat="45.76511" lon="4.84587">
        <ele>183.75</ele>
        <time>2012-09-05T13:02:30Z</time>
      </trkpt>
      <trkpt lat="45.76507" lon="4.84567">
        <ele>183.75</ele>
        <time>2012-09-05T13:02:33Z</time>
      </trkpt>
      <trkpt lat="45.76506" lon="4.84561">
        <ele>183.75</ele>
        <time>2012-09-05T13:02:34Z</time>
      </trkpt>
      <trkpt lat="45.765" lon="4.84493">
        <ele>182.79</ele>
        <time>2012-09-05T13:02:48Z</time>
      </trkpt>
      <trkpt lat="45.76502" lon="4.84489">
        <ele>182.79</ele>
        <time>2012-09-05T13:03:12Z</time>
      </trkpt>
      <trkpt lat="45.76502" lon="4.84485">
        <ele>182.31</ele>
        <time>2012-09-05T13:03:44Z</time>
      </trkpt>
      <trkpt lat="45.76502" lon="4.84484">
        <ele>182.31</ele>
        <time>2012-09-05T13:03:46Z</time>
      </trkpt>
      <trkpt lat="45.76502" lon="4.84483">
        <ele>182.31</ele>
        <time>2012-09-05T13:03:47Z</time>
      </trkpt>
      <trkpt lat="45.76502" lon="4.8448">
        <ele>182.31</ele>
        <time>2012-09-05T13:03:48Z</time>
      </trkpt>
      <trkpt lat="45.76503" lon="4.84477">
        <ele>182.31</ele>
        <time>2012-09-05T13:03:49Z</time>
      </trkpt>
      <trkpt lat="45.76505" lon="4.84474">
        <ele>182.31</ele>
        <time>2012-09-05T13:03:50Z</time>
      </trkpt>
      <trkpt lat="45.76507" lon="4.84471">
        <ele>182.31</ele>
        <time>2012-09-05T13:03:51Z</time>
      </trkpt>
      <trkpt lat="45.76508" lon="4.84468">
        <ele>182.31</ele>
        <time>2012-09-05T13:03:52Z</time>
      </trkpt>
      <trkpt lat="45.7651" lon="4.84465">
        <ele>182.31</ele>
        <time>2012-09-05T13:03:53Z</time>
      </trkpt>
      <trkpt lat="45.76508" lon="4.84405">
        <ele>182.79</ele>
        <time>2012-09-05T13:04:06Z</time>
      </trkpt>
      <trkpt lat="45.76506" lon="4.84344">
        <ele>182.31</ele>
        <time>2012-09-05T13:04:17Z</time>
      </trkpt>
      <trkpt lat="45.76513" lon="4.84293">
        <ele>181.83</ele>
        <time>2012-09-05T13:04:28Z</time>
      </trkpt>
      <trkpt lat="45.76523" lon="4.84267">
        <ele>181.35</ele>
        <time>2012-09-05T13:04:37Z</time>
      </trkpt>
      <trkpt lat="45.76486" lon="4.842">
        <ele>181.35</ele>
        <time>2012-09-05T13:04:47Z</time>
      </trkpt>
      <trkpt lat="45.76484" lon="4.84181">
        <ele>181.83</ele>
        <time>2012-09-05T13:04:50Z</time>
      </trkpt>
      <trkpt lat="45.76484" lon="4.84177">
        <ele>181.83</ele>
        <time>2012-09-05T13:04:51Z</time>
      </trkpt>
      <trkpt lat="45.76485" lon="4.84174">
        <ele>181.83</ele>
        <time>2012-09-05T13:04:52Z</time>
      </trkpt>
      <trkpt lat="45.76486" lon="4.84174">
        <ele>181.83</ele>
        <time>2012-09-05T13:04:53Z</time>
      </trkpt>
      <trkpt lat="45.76508" lon="4.84171">
        <ele>182.31</ele>
        <time>2012-09-05T13:05:01Z</time>
      </trkpt>
      <trkpt lat="45.76548" lon="4.84167">
        <ele>182.31</ele>
        <time>2012-09-05T13:05:13Z</time>
      </trkpt>
      <trkpt lat="45.76572" lon="4.84148">
        <ele>181.83</ele>
        <time>2012-09-05T13:05:21Z</time>
      </trkpt>
      <trkpt lat="45.76572" lon="4.84145">
        <ele>181.83</ele>
        <time>2012-09-05T13:05:22Z</time>
      </trkpt>
      <trkpt lat="45.76572" lon="4.84141">
        <ele>182.31</ele>
        <time>2012-09-05T13:05:23Z</time>
      </trkpt>
      <trkpt lat="45.76565" lon="4.84085">
        <ele>183.27</ele>
        <time>2012-09-05T13:05:35Z</time>
      </trkpt>
      <trkpt lat="45.76564" lon="4.84074">
        <ele>183.75</ele>
        <time>2012-09-05T13:05:40Z</time>
      </trkpt>
      <trkpt lat="45.76565" lon="4.84071">
        <ele>184.23</ele>
        <time>2012-09-05T13:05:41Z</time>
      </trkpt>
      <trkpt lat="45.76564" lon="4.84068">
        <ele>184.23</ele>
        <time>2012-09-05T13:05:42Z</time>
      </trkpt>
      <trkpt lat="45.76564" lon="4.84064">
        <ele>183.75</ele>
        <time>2012-09-05T13:05:43Z</time>
      </trkpt>
      <trkpt lat="45.76563" lon="4.8406">
        <ele>184.23</ele>
        <time>2012-09-05T13:05:44Z</time>
      </trkpt>
      <trkpt lat="45.76562" lon="4.84056">
        <ele>184.23</ele>
        <time>2012-09-05T13:05:45Z</time>
      </trkpt>
      <trkpt lat="45.76558" lon="4.84008">
        <ele>184.23</ele>
        <time>2012-09-05T13:05:55Z</time>
      </trkpt>
      <trkpt lat="45.76555" lon="4.83952">
        <ele>184.23</ele>
        <time>2012-09-05T13:06:06Z</time>
      </trkpt>
      <trkpt lat="45.76551" lon="4.839">
        <ele>183.75</ele>
        <time>2012-09-05T13:06:16Z</time>
      </trkpt>
      <trkpt lat="45.76547" lon="4.83852">
        <ele>182.31</ele>
        <time>2012-09-05T13:06:27Z</time>
      </trkpt>
      <trkpt lat="45.76548" lon="4.83837">
        <ele>181.35</ele>
        <time>2012-09-05T13:06:36Z</time>
      </trkpt>
      <trkpt lat="45.76547" lon="4.83834">
        <ele>180.87</ele>
        <time>2012-09-05T13:06:37Z</time>
      </trkpt>
      <trkpt lat="45.76547" lon="4.83831">
        <ele>181.35</ele>
        <time>2012-09-05T13:06:38Z</time>
      </trkpt>
      <trkpt lat="45.76546" lon="4.83828">
        <ele>180.87</ele>
        <time>2012-09-05T13:06:39Z</time>
      </trkpt>
      <trkpt lat="45.76547" lon="4.83826">
        <ele>180.87</ele>
        <time>2012-09-05T13:06:40Z</time>
      </trkpt>
      <trkpt lat="45.76547" lon="4.83824">
        <ele>180.87</ele>
        <time>2012-09-05T13:06:41Z</time>
      </trkpt>
      <trkpt lat="45.76548" lon="4.83822">
        <ele>180.87</ele>
        <time>2012-09-05T13:06:42Z</time>
      </trkpt>
      <trkpt lat="45.76548" lon="4.8382">
        <ele>180.87</ele>
        <time>2012-09-05T13:06:43Z</time>
      </trkpt>
      <trkpt lat="45.76548" lon="4.83818">
        <ele>180.87</ele>
        <time>2012-09-05T13:06:44Z</time>
      </trkpt>
      <trkpt lat="45.76547" lon="4.83816">
        <ele>180.87</ele>
        <time>2012-09-05T13:06:45Z</time>
      </trkpt>
      <trkpt lat="45.76545" lon="4.83813">
        <ele>180.87</ele>
        <time>2012-09-05T13:06:48Z</time>
      </trkpt>
      <trkpt lat="45.76546" lon="4.83811">
        <ele>180.38</ele>
        <time>2012-09-05T13:06:49Z</time>
      </trkpt>
      <trkpt lat="45.76546" lon="4.83809">
        <ele>180.38</ele>
        <time>2012-09-05T13:06:50Z</time>
      </trkpt>
      <trkpt lat="45.76545" lon="4.83807">
        <ele>180.38</ele>
        <time>2012-09-05T13:06:51Z</time>
      </trkpt>
      <trkpt lat="45.76544" lon="4.83806">
        <ele>180.38</ele>
        <time>2012-09-05T13:06:52Z</time>
      </trkpt>
      <trkpt lat="45.76516" lon="4.83803">
        <ele>179.9</ele>
        <time>2012-09-05T13:07:02Z</time>
      </trkpt>
      <trkpt lat="45.76506" lon="4.838">
        <ele>179.9</ele>
        <time>2012-09-05T13:07:06Z</time>
      </trkpt>
      <trkpt lat="45.76505" lon="4.83797">
        <ele>179.9</ele>
        <time>2012-09-05T13:07:07Z</time>
      </trkpt>
      <trkpt lat="45.76505" lon="4.83793">
        <ele>179.9</ele>
        <time>2012-09-05T13:07:08Z</time>
      </trkpt>
      <trkpt lat="45.76509" lon="4.83758">
        <ele>179.9</ele>
        <time>2012-09-05T13:07:16Z</time>
      </trkpt>
      <trkpt lat="45.76508" lon="4.83753">
        <ele>179.9</ele>
        <time>2012-09-05T13:07:17Z</time>
      </trkpt>
      <trkpt lat="45.76506" lon="4.83712">
        <ele>179.42</ele>
        <time>2012-09-05T13:07:26Z</time>
      </trkpt>
      <trkpt lat="45.76503" lon="4.83707">
        <ele>179.42</ele>
        <time>2012-09-05T13:07:27Z</time>
      </trkpt>
      <trkpt lat="45.76502" lon="4.83704">
        <ele>179.42</ele>
        <time>2012-09-05T13:07:28Z</time>
      </trkpt>
      <trkpt lat="45.76501" lon="4.83697">
        <ele>179.42</ele>
        <time>2012-09-05T13:07:31Z</time>
      </trkpt>
      <trkpt lat="45.76502" lon="4.83695">
        <ele>179.42</ele>
        <time>2012-09-05T13:07:32Z</time>
      </trkpt>
      <trkpt lat="45.76504" lon="4.8369">
        <ele>179.42</ele>
        <time>2012-09-05T13:07:36Z</time>
      </trkpt>
      <trkpt lat="45.76505" lon="4.83687">
        <ele>179.42</ele>
        <time>2012-09-05T13:07:37Z</time>
      </trkpt>
      <trkpt lat="45.76505" lon="4.83684">
        <ele>179.42</ele>
        <time>2012-09-05T13:07:38Z</time>
      </trkpt>
      <trkpt lat="45.76506" lon="4.83681">
        <ele>179.42</ele>
        <time>2012-09-05T13:07:39Z</time>
      </trkpt>
      <trkpt lat="45.76507" lon="4.83678">
        <ele>179.42</ele>
        <time>2012-09-05T13:07:40Z</time>
      </trkpt>
      <trkpt lat="45.76507" lon="4.83675">
        <ele>178.94</ele>
        <time>2012-09-05T13:07:41Z</time>
      </trkpt>
      <trkpt lat="45.76508" lon="4.83672">
        <ele>178.94</ele>
        <time>2012-09-05T13:07:42Z</time>
      </trkpt>
      <trkpt lat="45.76498" lon="4.83612">
        <ele>178.94</ele>
        <time>2012-09-05T13:07:54Z</time>
      </trkpt>
      <trkpt lat="45.76498" lon="4.83609">
        <ele>178.94</ele>
        <time>2012-09-05T13:07:55Z</time>
      </trkpt>
      <trkpt lat="45.76498" lon="4.83607">
        <ele>178.94</ele>
        <time>2012-09-05T13:07:56Z</time>
      </trkpt>
      <trkpt lat="45.76497" lon="4.83603">
        <ele>178.94</ele>
        <time>2012-09-05T13:08:00Z</time>
      </trkpt>
      <trkpt lat="45.76497" lon="4.83601">
        <ele>178.46</ele>
        <time>2012-09-05T13:08:01Z</time>
      </trkpt>
      <trkpt lat="45.76497" lon="4.83591">
        <ele>178.94</ele>
        <time>2012-09-05T13:08:04Z</time>
      </trkpt>
      <trkpt lat="45.76498" lon="4.83589">
        <ele>178.94</ele>
        <time>2012-09-05T13:08:05Z</time>
      </trkpt>
      <trkpt lat="45.765" lon="4.83588">
        <ele>178.94</ele>
        <time>2012-09-05T13:08:06Z</time>
      </trkpt>
      <trkpt lat="45.76501" lon="4.83585">
        <ele>178.94</ele>
        <time>2012-09-05T13:08:07Z</time>
      </trkpt>
      <trkpt lat="45.76502" lon="4.83583">
        <ele>179.42</ele>
        <time>2012-09-05T13:08:08Z</time>
      </trkpt>
      <trkpt lat="45.76502" lon="4.8358">
        <ele>179.42</ele>
        <time>2012-09-05T13:08:09Z</time>
      </trkpt>
      <trkpt lat="45.76503" lon="4.83576">
        <ele>179.42</ele>
        <time>2012-09-05T13:08:10Z</time>
      </trkpt>
      <trkpt lat="45.76502" lon="4.83523">
        <ele>179.42</ele>
        <time>2012-09-05T13:08:21Z</time>
      </trkpt>
      <trkpt lat="45.76508" lon="4.83493">
        <ele>180.87</ele>
        <time>2012-09-05T13:08:28Z</time>
      </trkpt>
      <trkpt lat="45.76494" lon="4.83444">
        <ele>179.9</ele>
        <time>2012-09-05T13:08:40Z</time>
      </trkpt>
      <trkpt lat="45.76496" lon="4.83437">
        <ele>179.9</ele>
        <time>2012-09-05T13:08:42Z</time>
      </trkpt>
      <trkpt lat="45.76512" lon="4.83403">
        <ele>180.87</ele>
        <time>2012-09-05T13:08:55Z</time>
      </trkpt>
      <trkpt lat="45.76513" lon="4.8338">
        <ele>178.94</ele>
        <time>2012-09-05T13:09:08Z</time>
      </trkpt>
      <trkpt lat="45.76508" lon="4.83369">
        <ele>179.42</ele>
        <time>2012-09-05T13:09:11Z</time>
      </trkpt>
      <trkpt lat="45.76501" lon="4.8336">
        <ele>179.42</ele>
        <time>2012-09-05T13:09:28Z</time>
      </trkpt>
      <trkpt lat="45.76499" lon="4.83357">
        <ele>179.42</ele>
        <time>2012-09-05T13:09:56Z</time>
      </trkpt>
      <trkpt lat="45.765" lon="4.83348">
        <ele>179.42</ele>
        <time>2012-09-05T13:09:58Z</time>
      </trkpt>
      <trkpt lat="45.765" lon="4.83345">
        <ele>179.42</ele>
        <time>2012-09-05T13:09:59Z</time>
      </trkpt>
      <trkpt lat="45.76477" lon="4.83301">
        <ele>179.9</ele>
        <time>2012-09-05T13:10:09Z</time>
      </trkpt>
      <trkpt lat="45.76473" lon="4.83251">
        <ele>179.42</ele>
        <time>2012-09-05T13:10:19Z</time>
      </trkpt>
      <trkpt lat="45.76464" lon="4.83209">
        <ele>179.42</ele>
        <time>2012-09-05T13:10:30Z</time>
      </trkpt>
      <trkpt lat="45.76463" lon="4.83205">
        <ele>178.94</ele>
        <time>2012-09-05T13:10:49Z</time>
      </trkpt>
      <trkpt lat="45.76458" lon="4.83201">
        <ele>178.94</ele>
        <time>2012-09-05T13:11:13Z</time>
      </trkpt>
      <trkpt lat="45.76457" lon="4.83199">
        <ele>178.94</ele>
        <time>2012-09-05T13:11:14Z</time>
      </trkpt>
      <trkpt lat="45.76457" lon="4.83193">
        <ele>178.94</ele>
        <time>2012-09-05T13:11:16Z</time>
      </trkpt>
      <trkpt lat="45.7646" lon="4.83182">
        <ele>179.42</ele>
        <time>2012-09-05T13:11:19Z</time>
      </trkpt>
      <trkpt lat="45.76477" lon="4.83165">
        <ele>179.9</ele>
        <time>2012-09-05T13:11:28Z</time>
      </trkpt>
      <trkpt lat="45.76478" lon="4.83165">
        <ele>179.9</ele>
        <time>2012-09-05T13:11:29Z</time>
      </trkpt>
      <trkpt lat="45.7648" lon="4.83165">
        <ele>179.42</ele>
        <time>2012-09-05T13:11:30Z</time>
      </trkpt>
      <trkpt lat="45.7649" lon="4.83153">
        <ele>179.9</ele>
        <time>2012-09-05T13:11:36Z</time>
      </trkpt>
      <trkpt lat="45.7649" lon="4.83149">
        <ele>179.9</ele>
        <time>2012-09-05T13:11:37Z</time>
      </trkpt>
      <trkpt lat="45.76491" lon="4.83146">
        <ele>179.9</ele>
        <time>2012-09-05T13:11:49Z</time>
      </trkpt>
      <trkpt lat="45.76491" lon="4.83144">
        <ele>179.9</ele>
        <time>2012-09-05T13:12:18Z</time>
      </trkpt>
      <trkpt lat="45.76491" lon="4.83144">
        <ele>179.9</ele>
        <time>2012-09-05T13:12:25Z</time>
      </trkpt>
      <trkpt lat="45.76493" lon="4.83143">
        <ele>179.42</ele>
        <time>2012-09-05T13:12:26Z</time>
      </trkpt>
      <trkpt lat="45.76496" lon="4.83141">
        <ele>179.42</ele>
        <time>2012-09-05T13:12:27Z</time>
      </trkpt>
      <trkpt lat="45.76499" lon="4.8314">
        <ele>179.42</ele>
        <time>2012-09-05T13:12:28Z</time>
      </trkpt>
      <trkpt lat="45.76502" lon="4.83138">
        <ele>179.42</ele>
        <time>2012-09-05T13:12:29Z</time>
      </trkpt>
      <trkpt lat="45.76505" lon="4.83136">
        <ele>180.38</ele>
        <time>2012-09-05T13:12:30Z</time>
      </trkpt>
      <trkpt lat="45.76508" lon="4.83135">
        <ele>179.42</ele>
        <time>2012-09-05T13:12:31Z</time>
      </trkpt>
      <trkpt lat="45.76511" lon="4.83133">
        <ele>178.94</ele>
        <time>2012-09-05T13:12:32Z</time>
      </trkpt>
      <trkpt lat="45.76562" lon="4.83102">
        <ele>178.46</ele>
        <time>2012-09-05T13:12:46Z</time>
      </trkpt>
      <trkpt lat="45.76577" lon="4.83096">
        <ele>177.98</ele>
        <time>2012-09-05T13:12:55Z</time>
      </trkpt>
      <trkpt lat="45.76579" lon="4.83094">
        <ele>177.98</ele>
        <time>2012-09-05T13:12:58Z</time>
      </trkpt>
      <trkpt lat="45.76584" lon="4.8309">
        <ele>177.98</ele>
        <time>2012-09-05T13:13:00Z</time>
      </trkpt>
      <trkpt lat="45.76586" lon="4.83088">
        <ele>177.98</ele>
        <time>2012-09-05T13:13:01Z</time>
      </trkpt>
      <trkpt lat="45.7661" lon="4.83066">
        <ele>178.46</ele>
        <time>2012-09-05T13:13:12Z</time>
      </trkpt>
      <trkpt lat="45.76641" lon="4.83042">
        <ele>178.94</ele>
        <time>2012-09-05T13:13:22Z</time>
      </trkpt>
      <trkpt lat="45.76659" lon="4.83025">
        <ele>179.42</ele>
        <time>2012-09-05T13:13:29Z</time>
      </trkpt>
      <trkpt lat="45.76661" lon="4.83021">
        <ele>179.42</ele>
        <time>2012-09-05T13:13:30Z</time>
      </trkpt>
      <trkpt lat="45.76662" lon="4.83017">
        <ele>179.42</ele>
        <time>2012-09-05T13:13:31Z</time>
      </trkpt>
      <trkpt lat="45.76662" lon="4.83009">
        <ele>179.9</ele>
        <time>2012-09-05T13:13:33Z</time>
      </trkpt>
      <trkpt lat="45.76663" lon="4.83007">
        <ele>179.9</ele>
        <time>2012-09-05T13:13:41Z</time>
      </trkpt>
      <trkpt lat="45.76664" lon="4.83006">
        <ele>179.9</ele>
        <time>2012-09-05T13:13:42Z</time>
      </trkpt>
      <trkpt lat="45.76666" lon="4.83004">
        <ele>179.9</ele>
        <time>2012-09-05T13:13:43Z</time>
      </trkpt>
      <trkpt lat="45.76667" lon="4.83001">
        <ele>179.9</ele>
        <time>2012-09-05T13:13:44Z</time>
      </trkpt>
      <trkpt lat="45.76668" lon="4.82997">
        <ele>179.9</ele>
        <time>2012-09-05T13:13:45Z</time>
      </trkpt>
      <trkpt lat="45.76667" lon="4.82993">
        <ele>180.38</ele>
        <time>2012-09-05T13:13:46Z</time>
      </trkpt>
      <trkpt lat="45.76666" lon="4.8299">
        <ele>180.38</ele>
        <time>2012-09-05T13:13:47Z</time>
      </trkpt>
      <trkpt lat="45.76664" lon="4.82985">
        <ele>180.38</ele>
        <time>2012-09-05T13:13:48Z</time>
      </trkpt>
      <trkpt lat="45.76663" lon="4.8298">
        <ele>180.38</ele>
        <time>2012-09-05T13:13:49Z</time>
      </trkpt>
      <trkpt lat="45.76634" lon="4.82894">
        <ele>180.87</ele>
        <time>2012-09-05T13:14:06Z</time>
      </trkpt>
      <trkpt lat="45.76637" lon="4.82868">
        <ele>179.9</ele>
        <time>2012-09-05T13:14:12Z</time>
      </trkpt>
      <trkpt lat="45.7664" lon="4.82864">
        <ele>179.9</ele>
        <time>2012-09-05T13:14:13Z</time>
      </trkpt>
      <trkpt lat="45.76664" lon="4.82833">
        <ele>178.94</ele>
        <time>2012-09-05T13:14:24Z</time>
      </trkpt>
      <trkpt lat="45.76679" lon="4.82809">
        <ele>178.46</ele>
        <time>2012-09-05T13:14:32Z</time>
      </trkpt>
      <trkpt lat="45.76722" lon="4.82748">
        <ele>177.98</ele>
        <time>2012-09-05T13:14:48Z</time>
      </trkpt>
      <trkpt lat="45.76738" lon="4.82699">
        <ele>177.98</ele>
        <time>2012-09-05T13:14:58Z</time>
      </trkpt>
      <trkpt lat="45.76754" lon="4.82616">
        <ele>178.46</ele>
        <time>2012-09-05T13:15:14Z</time>
      </trkpt>
      <trkpt lat="45.76754" lon="4.82531">
        <ele>178.46</ele>
        <time>2012-09-05T13:15:29Z</time>
      </trkpt>
      <trkpt lat="45.76752" lon="4.8248">
        <ele>178.46</ele>
        <time>2012-09-05T13:15:38Z</time>
      </trkpt>
      <trkpt lat="45.7675" lon="4.82474">
        <ele>178.46</ele>
        <time>2012-09-05T13:15:48Z</time>
      </trkpt>
      <trkpt lat="45.76748" lon="4.82473">
        <ele>178.46</ele>
        <time>2012-09-05T13:16:14Z</time>
      </trkpt>
      <trkpt lat="45.76748" lon="4.82473">
        <ele>178.46</ele>
        <time>2012-09-05T13:16:15Z</time>
      </trkpt>
      <trkpt lat="45.76748" lon="4.82472">
        <ele>178.46</ele>
        <time>2012-09-05T13:16:16Z</time>
      </trkpt>
      <trkpt lat="45.76748" lon="4.8247">
        <ele>178.46</ele>
        <time>2012-09-05T13:16:17Z</time>
      </trkpt>
      <trkpt lat="45.76747" lon="4.82467">
        <ele>178.46</ele>
        <time>2012-09-05T13:16:18Z</time>
      </trkpt>
      <trkpt lat="45.76746" lon="4.82463">
        <ele>178.46</ele>
        <time>2012-09-05T13:16:19Z</time>
      </trkpt>
      <trkpt lat="45.76741" lon="4.82399">
        <ele>179.9</ele>
        <time>2012-09-05T13:16:32Z</time>
      </trkpt>
      <trkpt lat="45.76741" lon="4.82328">
        <ele>178.46</ele>
        <time>2012-09-05T13:16:46Z</time>
      </trkpt>
      <trkpt lat="45.7674" lon="4.82255">
        <ele>178.46</ele>
        <time>2012-09-05T13:17:01Z</time>
      </trkpt>
      <trkpt lat="45.76737" lon="4.82238">
        <ele>178.46</ele>
        <time>2012-09-05T13:17:04Z</time>
      </trkpt>
      <trkpt lat="45.76716" lon="4.8217">
        <ele>177.98</ele>
        <time>2012-09-05T13:17:17Z</time>
      </trkpt>
      <trkpt lat="45.76686" lon="4.82079">
        <ele>177.98</ele>
        <time>2012-09-05T13:17:33Z</time>
      </trkpt>
      <trkpt lat="45.7668" lon="4.82055">
        <ele>177.98</ele>
        <time>2012-09-05T13:17:37Z</time>
      </trkpt>
      <trkpt lat="45.76669" lon="4.82009">
        <ele>178.46</ele>
        <time>2012-09-05T13:17:45Z</time>
      </trkpt>
      <trkpt lat="45.76667" lon="4.82003">
        <ele>178.46</ele>
        <time>2012-09-05T13:17:46Z</time>
      </trkpt>
      <trkpt lat="45.76666" lon="4.81997">
        <ele>177.98</ele>
        <time>2012-09-05T13:17:47Z</time>
      </trkpt>
      <trkpt lat="45.76664" lon="4.81992">
        <ele>178.46</ele>
        <time>2012-09-05T13:17:48Z</time>
      </trkpt>
      <trkpt lat="45.76663" lon="4.81987">
        <ele>178.46</ele>
        <time>2012-09-05T13:17:49Z</time>
      </trkpt>
      <trkpt lat="45.76661" lon="4.81981">
        <ele>177.98</ele>
        <time>2012-09-05T13:17:50Z</time>
      </trkpt>
      <trkpt lat="45.76659" lon="4.8197">
        <ele>178.46</ele>
        <time>2012-09-05T13:17:52Z</time>
      </trkpt>
      <trkpt lat="45.76658" lon="4.81964">
        <ele>178.46</ele>
        <time>2012-09-05T13:17:53Z</time>
      </trkpt>
      <trkpt lat="45.76657" lon="4.81958">
        <ele>178.46</ele>
        <time>2012-09-05T13:17:54Z</time>
      </trkpt>
      <trkpt lat="45.76655" lon="4.81952">
        <ele>178.46</ele>
        <time>2012-09-05T13:17:55Z</time>
      </trkpt>
      <trkpt lat="45.76654" lon="4.81945">
        <ele>178.46</ele>
        <time>2012-09-05T13:17:56Z</time>
      </trkpt>
      <trkpt lat="45.76653" lon="4.81938">
        <ele>178.46</ele>
        <time>2012-09-05T13:17:57Z</time>
      </trkpt>
      <trkpt lat="45.76652" lon="4.81931">
        <ele>178.46</ele>
        <time>2012-09-05T13:17:58Z</time>
      </trkpt>
      <trkpt lat="45.76649" lon="4.81904">
        <ele>178.94</ele>
        <time>2012-09-05T13:18:02Z</time>
      </trkpt>
      <trkpt lat="45.76647" lon="4.81856">
        <ele>177.98</ele>
        <time>2012-09-05T13:18:09Z</time>
      </trkpt>
      <trkpt lat="45.76647" lon="4.81849">
        <ele>178.46</ele>
        <time>2012-09-05T13:18:10Z</time>
      </trkpt>
      <trkpt lat="45.76653" lon="4.8178">
        <ele>177.98</ele>
        <time>2012-09-05T13:18:21Z</time>
      </trkpt>
      <trkpt lat="45.76674" lon="4.81681">
        <ele>177.5</ele>
        <time>2012-09-05T13:18:36Z</time>
      </trkpt>
      <trkpt lat="45.76677" lon="4.81668">
        <ele>177.5</ele>
        <time>2012-09-05T13:18:38Z</time>
      </trkpt>
      <trkpt lat="45.7669" lon="4.81597">
        <ele>177.5</ele>
        <time>2012-09-05T13:18:49Z</time>
      </trkpt>
      <trkpt lat="45.76716" lon="4.81511">
        <ele>177.02</ele>
        <time>2012-09-05T13:19:05Z</time>
      </trkpt>
      <trkpt lat="45.76718" lon="4.81506">
        <ele>177.02</ele>
        <time>2012-09-05T13:19:06Z</time>
      </trkpt>
      <trkpt lat="45.76728" lon="4.81477">
        <ele>177.02</ele>
        <time>2012-09-05T13:19:12Z</time>
      </trkpt>
      <trkpt lat="45.7673" lon="4.81472">
        <ele>177.5</ele>
        <time>2012-09-05T13:19:13Z</time>
      </trkpt>
      <trkpt lat="45.76732" lon="4.81466">
        <ele>177.5</ele>
        <time>2012-09-05T13:19:14Z</time>
      </trkpt>
      <trkpt lat="45.76738" lon="4.81448">
        <ele>177.02</ele>
        <time>2012-09-05T13:19:17Z</time>
      </trkpt>
      <trkpt lat="45.76758" lon="4.81387">
        <ele>177.02</ele>
        <time>2012-09-05T13:19:27Z</time>
      </trkpt>
      <trkpt lat="45.7676" lon="4.81381">
        <ele>177.02</ele>
        <time>2012-09-05T13:19:28Z</time>
      </trkpt>
      <trkpt lat="45.76794" lon="4.8133">
        <ele>176.54</ele>
        <time>2012-09-05T13:19:43Z</time>
      </trkpt>
      <trkpt lat="45.76797" lon="4.8133">
        <ele>176.54</ele>
        <time>2012-09-05T13:20:04Z</time>
      </trkpt>
      <trkpt lat="45.76798" lon="4.8133">
        <ele>176.54</ele>
        <time>2012-09-05T13:20:39Z</time>
      </trkpt>
      <trkpt lat="45.76799" lon="4.81331">
        <ele>176.54</ele>
        <time>2012-09-05T13:21:13Z</time>
      </trkpt>
      <trkpt lat="45.76799" lon="4.81331">
        <ele>175.58</ele>
        <time>2012-09-05T13:21:44Z</time>
      </trkpt>
      <trkpt lat="45.76799" lon="4.8133">
        <ele>175.58</ele>
        <time>2012-09-05T13:22:21Z</time>
      </trkpt>
      <trkpt lat="45.76799" lon="4.8133">
        <ele>175.1</ele>
        <time>2012-09-05T13:22:53Z</time>
      </trkpt>
      <trkpt lat="45.76799" lon="4.8133">
        <ele>175.58</ele>
        <time>2012-09-05T13:23:23Z</time>
      </trkpt>
      <trkpt lat="45.768" lon="4.81331">
        <ele>175.1</ele>
        <time>2012-09-05T13:23:58Z</time>
      </trkpt>
      <trkpt lat="45.76801" lon="4.81331">
        <ele>174.62</ele>
        <time>2012-09-05T13:24:23Z</time>
      </trkpt>
      <trkpt lat="45.76801" lon="4.81332">
        <ele>175.58</ele>
        <time>2012-09-05T13:24:51Z</time>
      </trkpt>
      <trkpt lat="45.76801" lon="4.81332">
        <ele>175.1</ele>
        <time>2012-09-05T13:25:17Z</time>
      </trkpt>
      <trkpt lat="45.76798" lon="4.81331">
        <ele>174.62</ele>
        <time>2012-09-05T13:25:51Z</time>
      </trkpt>
      <trkpt lat="45.76798" lon="4.81331">
        <ele>174.62</ele>
        <time>2012-09-05T13:26:22Z</time>
      </trkpt>
      <trkpt lat="45.76799" lon="4.81329">
        <ele>175.1</ele>
        <time>2012-09-05T13:26:27Z</time>
      </trkpt>
      <trkpt lat="45.76801" lon="4.81327">
        <ele>175.1</ele>
        <time>2012-09-05T13:26:39Z</time>
      </trkpt>
      <trkpt lat="45.76801" lon="4.81325">
        <ele>174.62</ele>
        <time>2012-09-05T13:26:42Z</time>
      </trkpt>
      <trkpt lat="45.76803" lon="4.81323">
        <ele>174.62</ele>
        <time>2012-09-05T13:26:43Z</time>
      </trkpt>
      <trkpt lat="45.76804" lon="4.81322">
        <ele>174.62</ele>
        <time>2012-09-05T13:26:44Z</time>
      </trkpt>
      <trkpt lat="45.76806" lon="4.8132">
        <ele>174.62</ele>
        <time>2012-09-05T13:26:45Z</time>
      </trkpt>
      <trkpt lat="45.76808" lon="4.81318">
        <ele>174.62</ele>
        <time>2012-09-05T13:26:46Z</time>
      </trkpt>
      <trkpt lat="45.76851" lon="4.81287">
        <ele>175.1</ele>
        <time>2012-09-05T13:27:00Z</time>
      </trkpt>
      <trkpt lat="45.76884" lon="4.81277">
        <ele>175.1</ele>
        <time>2012-09-05T13:27:08Z</time>
      </trkpt>
      <trkpt lat="45.76932" lon="4.81274">
        <ele>176.06</ele>
        <time>2012-09-05T13:27:20Z</time>
      </trkpt>
      <trkpt lat="45.7699" lon="4.81262">
        <ele>177.02</ele>
        <time>2012-09-05T13:27:37Z</time>
      </trkpt>
      <trkpt lat="45.77008" lon="4.8125">
        <ele>177.02</ele>
        <time>2012-09-05T13:27:46Z</time>
      </trkpt>
      <trkpt lat="45.77049" lon="4.81227">
        <ele>175.58</ele>
        <time>2012-09-05T13:28:00Z</time>
      </trkpt>
      <trkpt lat="45.77093" lon="4.81205">
        <ele>175.58</ele>
        <time>2012-09-05T13:28:13Z</time>
      </trkpt>
      <trkpt lat="45.77146" lon="4.81184">
        <ele>176.06</ele>
        <time>2012-09-05T13:28:26Z</time>
      </trkpt>
      <trkpt lat="45.77173" lon="4.81165">
        <ele>176.06</ele>
        <time>2012-09-05T13:28:35Z</time>
      </trkpt>
      <trkpt lat="45.77204" lon="4.81139">
        <ele>176.06</ele>
        <time>2012-09-05T13:28:45Z</time>
      </trkpt>
      <trkpt lat="45.77225" lon="4.81115">
        <ele>176.06</ele>
        <time>2012-09-05T13:28:53Z</time>
      </trkpt>
      <trkpt lat="45.7726" lon="4.81069">
        <ele>176.06</ele>
        <time>2012-09-05T13:29:05Z</time>
      </trkpt>
      <trkpt lat="45.77306" lon="4.81019">
        <ele>176.06</ele>
        <time>2012-09-05T13:29:19Z</time>
      </trkpt>
      <trkpt lat="45.77349" lon="4.80974">
        <ele>176.06</ele>
        <time>2012-09-05T13:29:33Z</time>
      </trkpt>
      <trkpt lat="45.77387" lon="4.80941">
        <ele>176.06</ele>
        <time>2012-09-05T13:29:44Z</time>
      </trkpt>
      <trkpt lat="45.77397" lon="4.80935">
        <ele>175.58</ele>
        <time>2012-09-05T13:29:48Z</time>
      </trkpt>
      <trkpt lat="45.77421" lon="4.80911">
        <ele>175.58</ele>
        <time>2012-09-05T13:29:57Z</time>
      </trkpt>
      <trkpt lat="45.77453" lon="4.80882">
        <ele>176.06</ele>
        <time>2012-09-05T13:30:08Z</time>
      </trkpt>
      <trkpt lat="45.77479" lon="4.80861">
        <ele>176.54</ele>
        <time>2012-09-05T13:30:20Z</time>
      </trkpt>
      <trkpt lat="45.77486" lon="4.80858">
        <ele>176.06</ele>
        <time>2012-09-05T13:30:26Z</time>
      </trkpt>
      <trkpt lat="45.77487" lon="4.80856">
        <ele>176.06</ele>
        <time>2012-09-05T13:30:27Z</time>
      </trkpt>
      <trkpt lat="45.77488" lon="4.80854">
        <ele>176.06</ele>
        <time>2012-09-05T13:30:28Z</time>
      </trkpt>
      <trkpt lat="45.77488" lon="4.80851">
        <ele>176.06</ele>
        <time>2012-09-05T13:30:29Z</time>
      </trkpt>
      <trkpt lat="45.77489" lon="4.80848">
        <ele>176.54</ele>
        <time>2012-09-05T13:30:30Z</time>
      </trkpt>
      <trkpt lat="45.77489" lon="4.80844">
        <ele>176.54</ele>
        <time>2012-09-05T13:30:31Z</time>
      </trkpt>
      <trkpt lat="45.77489" lon="4.8084">
        <ele>176.06</ele>
        <time>2012-09-05T13:30:32Z</time>
      </trkpt>
      <trkpt lat="45.77489" lon="4.80836">
        <ele>176.06</ele>
        <time>2012-09-05T13:30:33Z</time>
      </trkpt>
      <trkpt lat="45.77489" lon="4.80832">
        <ele>175.58</ele>
        <time>2012-09-05T13:30:34Z</time>
      </trkpt>
      <trkpt lat="45.7749" lon="4.80825">
        <ele>175.58</ele>
        <time>2012-09-05T13:30:36Z</time>
      </trkpt>
      <trkpt lat="45.77491" lon="4.80822">
        <ele>175.58</ele>
        <time>2012-09-05T13:30:37Z</time>
      </trkpt>
      <trkpt lat="45.77492" lon="4.8082">
        <ele>175.1</ele>
        <time>2012-09-05T13:30:38Z</time>
      </trkpt>
      <trkpt lat="45.77493" lon="4.80818">
        <ele>176.54</ele>
        <time>2012-09-05T13:30:39Z</time>
      </trkpt>
      <trkpt lat="45.77495" lon="4.80815">
        <ele>175.58</ele>
        <time>2012-09-05T13:30:40Z</time>
      </trkpt>
      <trkpt lat="45.77498" lon="4.80813">
        <ele>175.58</ele>
        <time>2012-09-05T13:30:41Z</time>
      </trkpt>
      <trkpt lat="45.77501" lon="4.80813">
        <ele>176.06</ele>
        <time>2012-09-05T13:30:44Z</time>
      </trkpt>
      <trkpt lat="45.77504" lon="4.80812">
        <ele>176.06</ele>
        <time>2012-09-05T13:30:45Z</time>
      </trkpt>
      <trkpt lat="45.77517" lon="4.80808">
        <ele>175.58</ele>
        <time>2012-09-05T13:30:59Z</time>
      </trkpt>
      <trkpt lat="45.77531" lon="4.80809">
        <ele>175.1</ele>
        <time>2012-09-05T13:31:17Z</time>
      </trkpt>
      <trkpt lat="45.77563" lon="4.808">
        <ele>174.62</ele>
        <time>2012-09-05T13:31:26Z</time>
      </trkpt>
      <trkpt lat="45.77597" lon="4.80781">
        <ele>174.62</ele>
        <time>2012-09-05T13:31:38Z</time>
      </trkpt>
      <trkpt lat="45.7762" lon="4.8077">
        <ele>174.62</ele>
        <time>2012-09-05T13:31:49Z</time>
      </trkpt>
      <trkpt lat="45.77621" lon="4.80769">
        <ele>174.62</ele>
        <time>2012-09-05T13:31:56Z</time>
      </trkpt>
      <trkpt lat="45.77623" lon="4.80769">
        <ele>174.62</ele>
        <time>2012-09-05T13:31:57Z</time>
      </trkpt>
      <trkpt lat="45.77626" lon="4.80765">
        <ele>174.62</ele>
        <time>2012-09-05T13:31:59Z</time>
      </trkpt>
      <trkpt lat="45.77627" lon="4.80763">
        <ele>174.62</ele>
        <time>2012-09-05T13:32:00Z</time>
      </trkpt>
      <trkpt lat="45.77627" lon="4.80761">
        <ele>174.62</ele>
        <time>2012-09-05T13:32:01Z</time>
      </trkpt>
      <trkpt lat="45.77628" lon="4.80759">
        <ele>174.14</ele>
        <time>2012-09-05T13:32:02Z</time>
      </trkpt>
      <trkpt lat="45.77628" lon="4.80757">
        <ele>174.14</ele>
        <time>2012-09-05T13:32:03Z</time>
      </trkpt>
      <trkpt lat="45.77629" lon="4.80748">
        <ele>174.62</ele>
        <time>2012-09-05T13:32:06Z</time>
      </trkpt>
      <trkpt lat="45.7763" lon="4.80745">
        <ele>174.14</ele>
        <time>2012-09-05T13:32:07Z</time>
      </trkpt>
      <trkpt lat="45.77632" lon="4.80745">
        <ele>174.14</ele>
        <time>2012-09-05T13:32:08Z</time>
      </trkpt>
      <trkpt lat="45.77634" lon="4.80745">
        <ele>174.14</ele>
        <time>2012-09-05T13:32:09Z</time>
      </trkpt>
      <trkpt lat="45.77637" lon="4.80746">
        <ele>174.14</ele>
        <time>2012-09-05T13:32:10Z</time>
      </trkpt>
      <trkpt lat="45.77639" lon="4.80748">
        <ele>174.14</ele>
        <time>2012-09-05T13:32:11Z</time>
      </trkpt>
      <trkpt lat="45.77641" lon="4.8075">
        <ele>174.14</ele>
        <time>2012-09-05T13:32:12Z</time>
      </trkpt>
      <trkpt lat="45.77643" lon="4.80753">
        <ele>174.14</ele>
        <time>2012-09-05T13:32:13Z</time>
      </trkpt>
      <trkpt lat="45.77644" lon="4.80754">
        <ele>174.14</ele>
        <time>2012-09-05T13:32:14Z</time>
      </trkpt>
      <trkpt lat="45.77647" lon="4.80755">
        <ele>174.14</ele>
        <time>2012-09-05T13:32:15Z</time>
      </trkpt>
      <trkpt lat="45.7765" lon="4.80756">
        <ele>174.14</ele>
        <time>2012-09-05T13:32:16Z</time>
      </trkpt>
      <trkpt lat="45.77653" lon="4.80757">
        <ele>174.14</ele>
        <time>2012-09-05T13:32:17Z</time>
      </trkpt>
      <trkpt lat="45.77656" lon="4.80758">
        <ele>174.14</ele>
        <time>2012-09-05T13:32:18Z</time>
      </trkpt>
      <trkpt lat="45.77668" lon="4.80756">
        <ele>174.14</ele>
        <time>2012-09-05T13:32:22Z</time>
      </trkpt>
      <trkpt lat="45.77669" lon="4.80754">
        <ele>174.14</ele>
        <time>2012-09-05T13:32:23Z</time>
      </trkpt>
      <trkpt lat="45.77684" lon="4.8073">
        <ele>175.1</ele>
        <time>2012-09-05T13:32:35Z</time>
      </trkpt>
      <trkpt lat="45.77692" lon="4.80722">
        <ele>175.58</ele>
        <time>2012-09-05T13:32:41Z</time>
      </trkpt>
      <trkpt lat="45.77695" lon="4.80722">
        <ele>175.1</ele>
        <time>2012-09-05T13:32:42Z</time>
      </trkpt>
      <trkpt lat="45.77697" lon="4.80723">
        <ele>175.1</ele>
        <time>2012-09-05T13:32:43Z</time>
      </trkpt>
      <trkpt lat="45.77699" lon="4.80725">
        <ele>175.1</ele>
        <time>2012-09-05T13:32:44Z</time>
      </trkpt>
      <trkpt lat="45.77701" lon="4.80727">
        <ele>175.1</ele>
        <time>2012-09-05T13:32:45Z</time>
      </trkpt>
      <trkpt lat="45.77714" lon="4.80751">
        <ele>175.1</ele>
        <time>2012-09-05T13:32:56Z</time>
      </trkpt>
      <trkpt lat="45.77715" lon="4.80752">
        <ele>175.1</ele>
        <time>2012-09-05T13:32:57Z</time>
      </trkpt>
      <trkpt lat="45.77715" lon="4.80755">
        <ele>175.1</ele>
        <time>2012-09-05T13:32:58Z</time>
      </trkpt>
      <trkpt lat="45.77714" lon="4.80758">
        <ele>174.62</ele>
        <time>2012-09-05T13:32:59Z</time>
      </trkpt>
      <trkpt lat="45.77713" lon="4.80761">
        <ele>174.62</ele>
        <time>2012-09-05T13:33:00Z</time>
      </trkpt>
      <trkpt lat="45.77713" lon="4.80763">
        <ele>174.62</ele>
        <time>2012-09-05T13:33:01Z</time>
      </trkpt>
      <trkpt lat="45.77712" lon="4.80765">
        <ele>175.1</ele>
        <time>2012-09-05T13:33:02Z</time>
      </trkpt>
      <trkpt lat="45.77712" lon="4.80767">
        <ele>174.62</ele>
        <time>2012-09-05T13:33:03Z</time>
      </trkpt>
      <trkpt lat="45.77712" lon="4.80769">
        <ele>174.62</ele>
        <time>2012-09-05T13:33:04Z</time>
      </trkpt>
      <trkpt lat="45.77712" lon="4.80771">
        <ele>174.62</ele>
        <time>2012-09-05T13:33:05Z</time>
      </trkpt>
      <trkpt lat="45.77712" lon="4.80777">
        <ele>174.62</ele>
        <time>2012-09-05T13:33:08Z</time>
      </trkpt>
      <trkpt lat="45.77713" lon="4.80778">
        <ele>175.1</ele>
        <time>2012-09-05T13:33:09Z</time>
      </trkpt>
      <trkpt lat="45.77715" lon="4.8078">
        <ele>175.1</ele>
        <time>2012-09-05T13:33:11Z</time>
      </trkpt>
      <trkpt lat="45.77742" lon="4.80786">
        <ele>175.1</ele>
        <time>2012-09-05T13:33:22Z</time>
      </trkpt>
      <trkpt lat="45.77778" lon="4.80791">
        <ele>175.58</ele>
        <time>2012-09-05T13:33:30Z</time>
      </trkpt>
      <trkpt lat="45.77783" lon="4.80792">
        <ele>176.06</ele>
        <time>2012-09-05T13:33:31Z</time>
      </trkpt>
      <trkpt lat="45.77787" lon="4.80793">
        <ele>176.06</ele>
        <time>2012-09-05T13:33:32Z</time>
      </trkpt>
      <trkpt lat="45.77834" lon="4.808">
        <ele>176.06</ele>
        <time>2012-09-05T13:33:45Z</time>
      </trkpt>
      <trkpt lat="45.77839" lon="4.80799">
        <ele>176.06</ele>
        <time>2012-09-05T13:33:46Z</time>
      </trkpt>
      <trkpt lat="45.77841" lon="4.80799">
        <ele>176.06</ele>
        <time>2012-09-05T13:33:47Z</time>
      </trkpt>
      <trkpt lat="45.77844" lon="4.80798">
        <ele>176.06</ele>
        <time>2012-09-05T13:33:48Z</time>
      </trkpt>
      <trkpt lat="45.77846" lon="4.80798">
        <ele>176.06</ele>
        <time>2012-09-05T13:33:49Z</time>
      </trkpt>
      <trkpt lat="45.77849" lon="4.80803">
        <ele>176.06</ele>
        <time>2012-09-05T13:34:04Z</time>
      </trkpt>
      <trkpt lat="45.77851" lon="4.80804">
        <ele>176.06</ele>
        <time>2012-09-05T13:34:20Z</time>
      </trkpt>
      <trkpt lat="45.77853" lon="4.80805">
        <ele>176.06</ele>
        <time>2012-09-05T13:34:21Z</time>
      </trkpt>
      <trkpt lat="45.77854" lon="4.80806">
        <ele>176.06</ele>
        <time>2012-09-05T13:34:22Z</time>
      </trkpt>
      <trkpt lat="45.77856" lon="4.80808">
        <ele>176.06</ele>
        <time>2012-09-05T13:34:23Z</time>
      </trkpt>
      <trkpt lat="45.77859" lon="4.80809">
        <ele>176.06</ele>
        <time>2012-09-05T13:34:24Z</time>
      </trkpt>
      <trkpt lat="45.77867" lon="4.80815">
        <ele>176.06</ele>
        <time>2012-09-05T13:34:28Z</time>
      </trkpt>
      <trkpt lat="45.77887" lon="4.80824">
        <ele>176.54</ele>
        <time>2012-09-05T13:34:34Z</time>
      </trkpt>
      <trkpt lat="45.77891" lon="4.80825">
        <ele>176.06</ele>
        <time>2012-09-05T13:34:35Z</time>
      </trkpt>
      <trkpt lat="45.77895" lon="4.80827">
        <ele>176.06</ele>
        <time>2012-09-05T13:34:36Z</time>
      </trkpt>
      <trkpt lat="45.77899" lon="4.8083">
        <ele>176.06</ele>
        <time>2012-09-05T13:34:37Z</time>
      </trkpt>
      <trkpt lat="45.77903" lon="4.80832">
        <ele>176.06</ele>
        <time>2012-09-05T13:34:38Z</time>
      </trkpt>
      <trkpt lat="45.77928" lon="4.80842">
        <ele>176.06</ele>
        <time>2012-09-05T13:34:46Z</time>
      </trkpt>
      <trkpt lat="45.77971" lon="4.80865">
        <ele>176.06</ele>
        <time>2012-09-05T13:34:58Z</time>
      </trkpt>
      <trkpt lat="45.78007" lon="4.80873">
        <ele>176.06</ele>
        <time>2012-09-05T13:35:09Z</time>
      </trkpt>
      <trkpt lat="45.78036" lon="4.80876">
        <ele>176.06</ele>
        <time>2012-09-05T13:35:19Z</time>
      </trkpt>
      <trkpt lat="45.78049" lon="4.8088">
        <ele>175.58</ele>
        <time>2012-09-05T13:35:24Z</time>
      </trkpt>
      <trkpt lat="45.78051" lon="4.80883">
        <ele>175.58</ele>
        <time>2012-09-05T13:35:25Z</time>
      </trkpt>
      <trkpt lat="45.78054" lon="4.80887">
        <ele>175.58</ele>
        <time>2012-09-05T13:35:26Z</time>
      </trkpt>
      <trkpt lat="45.78065" lon="4.80909">
        <ele>176.06</ele>
        <time>2012-09-05T13:35:32Z</time>
      </trkpt>
      <trkpt lat="45.78068" lon="4.80911">
        <ele>176.06</ele>
        <time>2012-09-05T13:35:33Z</time>
      </trkpt>
      <trkpt lat="45.78098" lon="4.80936">
        <ele>176.06</ele>
        <time>2012-09-05T13:35:44Z</time>
      </trkpt>
      <trkpt lat="45.78105" lon="4.80942">
        <ele>176.06</ele>
        <time>2012-09-05T13:35:46Z</time>
      </trkpt>
      <trkpt lat="45.78113" lon="4.80949">
        <ele>175.58</ele>
        <time>2012-09-05T13:35:48Z</time>
      </trkpt>
      <trkpt lat="45.78117" lon="4.80953">
        <ele>175.58</ele>
        <time>2012-09-05T13:35:49Z</time>
      </trkpt>
      <trkpt lat="45.78145" lon="4.80974">
        <ele>175.1</ele>
        <time>2012-09-05T13:35:56Z</time>
      </trkpt>
      <trkpt lat="45.78192" lon="4.81011">
        <ele>175.1</ele>
        <time>2012-09-05T13:36:09Z</time>
      </trkpt>
      <trkpt lat="45.782" lon="4.81028">
        <ele>175.1</ele>
        <time>2012-09-05T13:36:14Z</time>
      </trkpt>
      <trkpt lat="45.78205" lon="4.81031">
        <ele>175.1</ele>
        <time>2012-09-05T13:36:15Z</time>
      </trkpt>
      <trkpt lat="45.78244" lon="4.81056">
        <ele>175.1</ele>
        <time>2012-09-05T13:36:25Z</time>
      </trkpt>
      <trkpt lat="45.78251" lon="4.81063">
        <ele>175.1</ele>
        <time>2012-09-05T13:36:36Z</time>
      </trkpt>
      <trkpt lat="45.78254" lon="4.81069">
        <ele>175.1</ele>
        <time>2012-09-05T13:36:47Z</time>
      </trkpt>
      <trkpt lat="45.78255" lon="4.81073">
        <ele>174.62</ele>
        <time>2012-09-05T13:36:56Z</time>
      </trkpt>
      <trkpt lat="45.78256" lon="4.81075">
        <ele>174.62</ele>
        <time>2012-09-05T13:36:57Z</time>
      </trkpt>
      <trkpt lat="45.78257" lon="4.81076">
        <ele>174.62</ele>
        <time>2012-09-05T13:36:58Z</time>
      </trkpt>
      <trkpt lat="45.78258" lon="4.81078">
        <ele>174.62</ele>
        <time>2012-09-05T13:36:59Z</time>
      </trkpt>
      <trkpt lat="45.78259" lon="4.8108">
        <ele>174.62</ele>
        <time>2012-09-05T13:37:00Z</time>
      </trkpt>
      <trkpt lat="45.7826" lon="4.81084">
        <ele>174.62</ele>
        <time>2012-09-05T13:37:01Z</time>
      </trkpt>
      <trkpt lat="45.78261" lon="4.81088">
        <ele>174.62</ele>
        <time>2012-09-05T13:37:02Z</time>
      </trkpt>
      <trkpt lat="45.78262" lon="4.81102">
        <ele>174.62</ele>
        <time>2012-09-05T13:37:07Z</time>
      </trkpt>
      <trkpt lat="45.78263" lon="4.81104">
        <ele>174.62</ele>
        <time>2012-09-05T13:37:08Z</time>
      </trkpt>
      <trkpt lat="45.78264" lon="4.81106">
        <ele>174.62</ele>
        <time>2012-09-05T13:37:09Z</time>
      </trkpt>
      <trkpt lat="45.78266" lon="4.81107">
        <ele>174.62</ele>
        <time>2012-09-05T13:37:10Z</time>
      </trkpt>
      <trkpt lat="45.78268" lon="4.81108">
        <ele>174.62</ele>
        <time>2012-09-05T13:37:11Z</time>
      </trkpt>
      <trkpt lat="45.78271" lon="4.8111">
        <ele>174.62</ele>
        <time>2012-09-05T13:37:12Z</time>
      </trkpt>
      <trkpt lat="45.78272" lon="4.81111">
        <ele>174.62</ele>
        <time>2012-09-05T13:37:13Z</time>
      </trkpt>
      <trkpt lat="45.78275" lon="4.81112">
        <ele>174.62</ele>
        <time>2012-09-05T13:37:14Z</time>
      </trkpt>
      <trkpt lat="45.78276" lon="4.81112">
        <ele>174.62</ele>
        <time>2012-09-05T13:37:15Z</time>
      </trkpt>
      <trkpt lat="45.78302" lon="4.81134">
        <ele>174.62</ele>
        <time>2012-09-05T13:37:24Z</time>
      </trkpt>
      <trkpt lat="45.78337" lon="4.81155">
        <ele>174.14</ele>
        <time>2012-09-05T13:37:34Z</time>
      </trkpt>
      <trkpt lat="45.7837" lon="4.8117">
        <ele>174.62</ele>
        <time>2012-09-05T13:37:44Z</time>
      </trkpt>
      <trkpt lat="45.78375" lon="4.81174">
        <ele>174.62</ele>
        <time>2012-09-05T13:37:46Z</time>
      </trkpt>
      <trkpt lat="45.784" lon="4.81203">
        <ele>174.62</ele>
        <time>2012-09-05T13:37:56Z</time>
      </trkpt>
      <trkpt lat="45.78436" lon="4.81236">
        <ele>174.62</ele>
        <time>2012-09-05T13:38:07Z</time>
      </trkpt>
      <trkpt lat="45.78502" lon="4.81287">
        <ele>174.14</ele>
        <time>2012-09-05T13:38:24Z</time>
      </trkpt>
      <trkpt lat="45.78517" lon="4.81299">
        <ele>174.14</ele>
        <time>2012-09-05T13:38:28Z</time>
      </trkpt>
      <trkpt lat="45.7852" lon="4.81302">
        <ele>173.66</ele>
        <time>2012-09-05T13:38:29Z</time>
      </trkpt>
      <trkpt lat="45.78522" lon="4.81304">
        <ele>173.66</ele>
        <time>2012-09-05T13:38:30Z</time>
      </trkpt>
      <trkpt lat="45.78523" lon="4.81307">
        <ele>173.66</ele>
        <time>2012-09-05T13:38:31Z</time>
      </trkpt>
      <trkpt lat="45.78525" lon="4.81309">
        <ele>173.66</ele>
        <time>2012-09-05T13:38:32Z</time>
      </trkpt>
      <trkpt lat="45.78528" lon="4.81311">
        <ele>173.66</ele>
        <time>2012-09-05T13:38:33Z</time>
      </trkpt>
      <trkpt lat="45.7856" lon="4.81337">
        <ele>173.66</ele>
        <time>2012-09-05T13:38:44Z</time>
      </trkpt>
      <trkpt lat="45.7858" lon="4.8135">
        <ele>173.17</ele>
        <time>2012-09-05T13:38:51Z</time>
      </trkpt>
      <trkpt lat="45.78607" lon="4.8137">
        <ele>173.17</ele>
        <time>2012-09-05T13:39:00Z</time>
      </trkpt>
      <trkpt lat="45.78632" lon="4.81387">
        <ele>173.66</ele>
        <time>2012-09-05T13:39:10Z</time>
      </trkpt>
      <trkpt lat="45.78635" lon="4.81389">
        <ele>173.17</ele>
        <time>2012-09-05T13:39:12Z</time>
      </trkpt>
      <trkpt lat="45.78637" lon="4.8139">
        <ele>173.17</ele>
        <time>2012-09-05T13:39:13Z</time>
      </trkpt>
      <trkpt lat="45.78642" lon="4.81392">
        <ele>173.17</ele>
        <time>2012-09-05T13:39:16Z</time>
      </trkpt>
      <trkpt lat="45.78652" lon="4.814">
        <ele>173.17</ele>
        <time>2012-09-05T13:39:31Z</time>
      </trkpt>
      <trkpt lat="45.78665" lon="4.8141">
        <ele>173.17</ele>
        <time>2012-09-05T13:39:43Z</time>
      </trkpt>
      <trkpt lat="45.78667" lon="4.8141">
        <ele>173.17</ele>
        <time>2012-09-05T13:39:44Z</time>
      </trkpt>
      <trkpt lat="45.7867" lon="4.81411">
        <ele>173.17</ele>
        <time>2012-09-05T13:39:45Z</time>
      </trkpt>
      <trkpt lat="45.78676" lon="4.81415">
        <ele>173.17</ele>
        <time>2012-09-05T13:39:48Z</time>
      </trkpt>
      <trkpt lat="45.78678" lon="4.81416">
        <ele>173.17</ele>
        <time>2012-09-05T13:39:49Z</time>
      </trkpt>
      <trkpt lat="45.7871" lon="4.81441">
        <ele>173.17</ele>
        <time>2012-09-05T13:40:00Z</time>
      </trkpt>
      <trkpt lat="45.78738" lon="4.81454">
        <ele>173.17</ele>
        <time>2012-09-05T13:40:08Z</time>
      </trkpt>
      <trkpt lat="45.78776" lon="4.81491">
        <ele>173.17</ele>
        <time>2012-09-05T13:40:21Z</time>
      </trkpt>
      <trkpt lat="45.78796" lon="4.81505">
        <ele>173.17</ele>
        <time>2012-09-05T13:40:26Z</time>
      </trkpt>
      <trkpt lat="45.78803" lon="4.81504">
        <ele>173.17</ele>
        <time>2012-09-05T13:40:27Z</time>
      </trkpt>
      <trkpt lat="45.78805" lon="4.81503">
        <ele>173.17</ele>
        <time>2012-09-05T13:40:28Z</time>
      </trkpt>
      <trkpt lat="45.78807" lon="4.81503">
        <ele>173.17</ele>
        <time>2012-09-05T13:40:29Z</time>
      </trkpt>
      <trkpt lat="45.78807" lon="4.81506">
        <ele>174.14</ele>
        <time>2012-09-05T13:40:44Z</time>
      </trkpt>
      <trkpt lat="45.78832" lon="4.81534">
        <ele>173.17</ele>
        <time>2012-09-05T13:40:54Z</time>
      </trkpt>
      <trkpt lat="45.78869" lon="4.81575">
        <ele>173.17</ele>
        <time>2012-09-05T13:41:05Z</time>
      </trkpt>
      <trkpt lat="45.78872" lon="4.81579">
        <ele>173.17</ele>
        <time>2012-09-05T13:41:06Z</time>
      </trkpt>
      <trkpt lat="45.78876" lon="4.81583">
        <ele>173.17</ele>
        <time>2012-09-05T13:41:07Z</time>
      </trkpt>
      <trkpt lat="45.78907" lon="4.81618">
        <ele>173.17</ele>
        <time>2012-09-05T13:41:17Z</time>
      </trkpt>
      <trkpt lat="45.78948" lon="4.81678">
        <ele>173.17</ele>
        <time>2012-09-05T13:41:29Z</time>
      </trkpt>
      <trkpt lat="45.78987" lon="4.81735">
        <ele>173.17</ele>
        <time>2012-09-05T13:41:41Z</time>
      </trkpt>
      <trkpt lat="45.79022" lon="4.81787">
        <ele>173.17</ele>
        <time>2012-09-05T13:41:53Z</time>
      </trkpt>
      <trkpt lat="45.79058" lon="4.81838">
        <ele>173.66</ele>
        <time>2012-09-05T13:42:06Z</time>
      </trkpt>
      <trkpt lat="45.7908" lon="4.8186">
        <ele>173.66</ele>
        <time>2012-09-05T13:42:12Z</time>
      </trkpt>
      <trkpt lat="45.7909" lon="4.81872">
        <ele>173.66</ele>
        <time>2012-09-05T13:42:15Z</time>
      </trkpt>
      <trkpt lat="45.79093" lon="4.81876">
        <ele>173.66</ele>
        <time>2012-09-05T13:42:16Z</time>
      </trkpt>
      <trkpt lat="45.7912" lon="4.8191">
        <ele>173.66</ele>
        <time>2012-09-05T13:42:24Z</time>
      </trkpt>
      <trkpt lat="45.79124" lon="4.81914">
        <ele>174.14</ele>
        <time>2012-09-05T13:42:25Z</time>
      </trkpt>
      <trkpt lat="45.79127" lon="4.81918">
        <ele>173.66</ele>
        <time>2012-09-05T13:42:26Z</time>
      </trkpt>
      <trkpt lat="45.79131" lon="4.81923">
        <ele>173.66</ele>
        <time>2012-09-05T13:42:27Z</time>
      </trkpt>
      <trkpt lat="45.79134" lon="4.81928">
        <ele>173.66</ele>
        <time>2012-09-05T13:42:28Z</time>
      </trkpt>
      <trkpt lat="45.79159" lon="4.8197">
        <ele>173.66</ele>
        <time>2012-09-05T13:42:39Z</time>
      </trkpt>
      <trkpt lat="45.79217" lon="4.82041">
        <ele>173.66</ele>
        <time>2012-09-05T13:42:54Z</time>
      </trkpt>
      <trkpt lat="45.7925" lon="4.82081">
        <ele>173.66</ele>
        <time>2012-09-05T13:43:06Z</time>
      </trkpt>
      <trkpt lat="45.79256" lon="4.82091">
        <ele>173.66</ele>
        <time>2012-09-05T13:43:19Z</time>
      </trkpt>
      <trkpt lat="45.79258" lon="4.82094">
        <ele>173.66</ele>
        <time>2012-09-05T13:43:33Z</time>
      </trkpt>
      <trkpt lat="45.7926" lon="4.82097">
        <ele>173.66</ele>
        <time>2012-09-05T13:43:34Z</time>
      </trkpt>
      <trkpt lat="45.79262" lon="4.82099">
        <ele>173.66</ele>
        <time>2012-09-05T13:43:35Z</time>
      </trkpt>
      <trkpt lat="45.79264" lon="4.82101">
        <ele>173.66</ele>
        <time>2012-09-05T13:43:36Z</time>
      </trkpt>
      <trkpt lat="45.79267" lon="4.82104">
        <ele>173.66</ele>
        <time>2012-09-05T13:43:37Z</time>
      </trkpt>
      <trkpt lat="45.79274" lon="4.82112">
        <ele>173.66</ele>
        <time>2012-09-05T13:43:40Z</time>
      </trkpt>
      <trkpt lat="45.79304" lon="4.82154">
        <ele>173.66</ele>
        <time>2012-09-05T13:43:53Z</time>
      </trkpt>
      <trkpt lat="45.79348" lon="4.82217">
        <ele>174.14</ele>
        <time>2012-09-05T13:44:07Z</time>
      </trkpt>
      <trkpt lat="45.79371" lon="4.82247">
        <ele>174.14</ele>
        <time>2012-09-05T13:44:14Z</time>
      </trkpt>
      <trkpt lat="45.79374" lon="4.82253">
        <ele>174.14</ele>
        <time>2012-09-05T13:44:15Z</time>
      </trkpt>
      <trkpt lat="45.79378" lon="4.82258">
        <ele>174.14</ele>
        <time>2012-09-05T13:44:16Z</time>
      </trkpt>
      <trkpt lat="45.79417" lon="4.82326">
        <ele>174.14</ele>
        <time>2012-09-05T13:44:29Z</time>
      </trkpt>
      <trkpt lat="45.79457" lon="4.8239">
        <ele>174.14</ele>
        <time>2012-09-05T13:44:42Z</time>
      </trkpt>
      <trkpt lat="45.79494" lon="4.82453">
        <ele>173.66</ele>
        <time>2012-09-05T13:44:54Z</time>
      </trkpt>
      <trkpt lat="45.79497" lon="4.82459">
        <ele>174.14</ele>
        <time>2012-09-05T13:44:55Z</time>
      </trkpt>
      <trkpt lat="45.79526" lon="4.82519">
        <ele>174.14</ele>
        <time>2012-09-05T13:45:06Z</time>
      </trkpt>
      <trkpt lat="45.79551" lon="4.82568">
        <ele>174.14</ele>
        <time>2012-09-05T13:45:16Z</time>
      </trkpt>
      <trkpt lat="45.79582" lon="4.82634">
        <ele>174.14</ele>
        <time>2012-09-05T13:45:29Z</time>
      </trkpt>
      <trkpt lat="45.79616" lon="4.82706">
        <ele>174.14</ele>
        <time>2012-09-05T13:45:43Z</time>
      </trkpt>
      <trkpt lat="45.79634" lon="4.82739">
        <ele>174.62</ele>
        <time>2012-09-05T13:45:49Z</time>
      </trkpt>
      <trkpt lat="45.79666" lon="4.82802">
        <ele>174.14</ele>
        <time>2012-09-05T13:46:02Z</time>
      </trkpt>
      <trkpt lat="45.79696" lon="4.8286">
        <ele>174.14</ele>
        <time>2012-09-05T13:46:13Z</time>
      </trkpt>
      <trkpt lat="45.79699" lon="4.82865">
        <ele>174.14</ele>
        <time>2012-09-05T13:46:14Z</time>
      </trkpt>
      <trkpt lat="45.79703" lon="4.82871">
        <ele>174.14</ele>
        <time>2012-09-05T13:46:15Z</time>
      </trkpt>
      <trkpt lat="45.79712" lon="4.82887">
        <ele>174.14</ele>
        <time>2012-09-05T13:46:18Z</time>
      </trkpt>
      <trkpt lat="45.79741" lon="4.82933">
        <ele>174.14</ele>
        <time>2012-09-05T13:46:30Z</time>
      </trkpt>
      <trkpt lat="45.79764" lon="4.82978">
        <ele>175.58</ele>
        <time>2012-09-05T13:46:42Z</time>
      </trkpt>
      <trkpt lat="45.7977" lon="4.82992">
        <ele>177.02</ele>
        <time>2012-09-05T13:46:46Z</time>
      </trkpt>
      <trkpt lat="45.79782" lon="4.83033">
        <ele>176.54</ele>
        <time>2012-09-05T13:46:59Z</time>
      </trkpt>
      <trkpt lat="45.79782" lon="4.83038">
        <ele>176.54</ele>
        <time>2012-09-05T13:47:01Z</time>
      </trkpt>
      <trkpt lat="45.79786" lon="4.83046">
        <ele>176.06</ele>
        <time>2012-09-05T13:47:05Z</time>
      </trkpt>
      <trkpt lat="45.79788" lon="4.8305">
        <ele>176.06</ele>
        <time>2012-09-05T13:47:06Z</time>
      </trkpt>
      <trkpt lat="45.79791" lon="4.83054">
        <ele>176.06</ele>
        <time>2012-09-05T13:47:07Z</time>
      </trkpt>
      <trkpt lat="45.79794" lon="4.8306">
        <ele>175.58</ele>
        <time>2012-09-05T13:47:08Z</time>
      </trkpt>
      <trkpt lat="45.79797" lon="4.83065">
        <ele>175.58</ele>
        <time>2012-09-05T13:47:09Z</time>
      </trkpt>
      <trkpt lat="45.798" lon="4.8307">
        <ele>175.1</ele>
        <time>2012-09-05T13:47:10Z</time>
      </trkpt>
      <trkpt lat="45.79803" lon="4.83075">
        <ele>174.62</ele>
        <time>2012-09-05T13:47:11Z</time>
      </trkpt>
      <trkpt lat="45.79824" lon="4.83112">
        <ele>173.66</ele>
        <time>2012-09-05T13:47:21Z</time>
      </trkpt>
      <trkpt lat="45.79837" lon="4.83148">
        <ele>173.66</ele>
        <time>2012-09-05T13:47:31Z</time>
      </trkpt>
      <trkpt lat="45.79852" lon="4.83187">
        <ele>173.66</ele>
        <time>2012-09-05T13:47:38Z</time>
      </trkpt>
      <trkpt lat="45.79857" lon="4.83198">
        <ele>173.66</ele>
        <time>2012-09-05T13:47:40Z</time>
      </trkpt>
      <trkpt lat="45.7988" lon="4.83276">
        <ele>173.66</ele>
        <time>2012-09-05T13:47:54Z</time>
      </trkpt>
      <trkpt lat="45.79894" lon="4.83325">
        <ele>173.17</ele>
        <time>2012-09-05T13:48:03Z</time>
      </trkpt>
      <trkpt lat="45.79915" lon="4.83394">
        <ele>173.17</ele>
        <time>2012-09-05T13:48:16Z</time>
      </trkpt>
      <trkpt lat="45.79931" lon="4.83435">
        <ele>173.66</ele>
        <time>2012-09-05T13:48:27Z</time>
      </trkpt>
      <trkpt lat="45.79932" lon="4.83445">
        <ele>174.62</ele>
        <time>2012-09-05T13:48:47Z</time>
      </trkpt>
      <trkpt lat="45.79933" lon="4.83448">
        <ele>173.66</ele>
        <time>2012-09-05T13:48:48Z</time>
      </trkpt>
      <trkpt lat="45.79934" lon="4.83451">
        <ele>173.66</ele>
        <time>2012-09-05T13:48:49Z</time>
      </trkpt>
      <trkpt lat="45.79935" lon="4.83455">
        <ele>173.66</ele>
        <time>2012-09-05T13:48:50Z</time>
      </trkpt>
      <trkpt lat="45.79937" lon="4.83459">
        <ele>173.17</ele>
        <time>2012-09-05T13:48:51Z</time>
      </trkpt>
      <trkpt lat="45.79938" lon="4.83463">
        <ele>173.17</ele>
        <time>2012-09-05T13:48:52Z</time>
      </trkpt>
      <trkpt lat="45.79953" lon="4.83503">
        <ele>173.66</ele>
        <time>2012-09-05T13:49:00Z</time>
      </trkpt>
      <trkpt lat="45.79955" lon="4.83509">
        <ele>173.17</ele>
        <time>2012-09-05T13:49:01Z</time>
      </trkpt>
      <trkpt lat="45.79976" lon="4.83571">
        <ele>173.66</ele>
        <time>2012-09-05T13:49:13Z</time>
      </trkpt>
      <trkpt lat="45.79996" lon="4.83612">
        <ele>173.66</ele>
        <time>2012-09-05T13:49:22Z</time>
      </trkpt>
      <trkpt lat="45.80024" lon="4.83683">
        <ele>174.62</ele>
        <time>2012-09-05T13:49:35Z</time>
      </trkpt>
      <trkpt lat="45.80059" lon="4.83747">
        <ele>175.1</ele>
        <time>2012-09-05T13:49:50Z</time>
      </trkpt>
      <trkpt lat="45.8006" lon="4.8375">
        <ele>174.62</ele>
        <time>2012-09-05T13:49:51Z</time>
      </trkpt>
      <trkpt lat="45.80061" lon="4.83752">
        <ele>175.1</ele>
        <time>2012-09-05T13:49:52Z</time>
      </trkpt>
      <trkpt lat="45.80077" lon="4.83781">
        <ele>175.58</ele>
        <time>2012-09-05T13:50:03Z</time>
      </trkpt>
      <trkpt lat="45.80105" lon="4.83816">
        <ele>176.54</ele>
        <time>2012-09-05T13:50:15Z</time>
      </trkpt>
      <trkpt lat="45.80132" lon="4.83841">
        <ele>177.98</ele>
        <time>2012-09-05T13:50:26Z</time>
      </trkpt>
      <trkpt lat="45.80157" lon="4.83861">
        <ele>179.42</ele>
        <time>2012-09-05T13:50:38Z</time>
      </trkpt>
      <trkpt lat="45.80188" lon="4.8388">
        <ele>181.83</ele>
        <time>2012-09-05T13:50:52Z</time>
      </trkpt>
      <trkpt lat="45.80221" lon="4.83894">
        <ele>184.23</ele>
        <time>2012-09-05T13:51:06Z</time>
      </trkpt>
      <trkpt lat="45.80241" lon="4.839">
        <ele>185.67</ele>
        <time>2012-09-05T13:51:19Z</time>
      </trkpt>
      <trkpt lat="45.80243" lon="4.83901">
        <ele>185.67</ele>
        <time>2012-09-05T13:51:21Z</time>
      </trkpt>
      <trkpt lat="45.80245" lon="4.83903">
        <ele>185.67</ele>
        <time>2012-09-05T13:51:37Z</time>
      </trkpt>
      <trkpt lat="45.80245" lon="4.83903">
        <ele>185.67</ele>
        <time>2012-09-05T13:52:02Z</time>
      </trkpt>
      <trkpt lat="45.80247" lon="4.83903">
        <ele>186.15</ele>
        <time>2012-09-05T13:52:03Z</time>
      </trkpt>
      <trkpt lat="45.80249" lon="4.83904">
        <ele>186.15</ele>
        <time>2012-09-05T13:52:04Z</time>
      </trkpt>
      <trkpt lat="45.80251" lon="4.83904">
        <ele>186.15</ele>
        <time>2012-09-05T13:52:05Z</time>
      </trkpt>
      <trkpt lat="45.80252" lon="4.83905">
        <ele>186.63</ele>
        <time>2012-09-05T13:52:06Z</time>
      </trkpt>
      <trkpt lat="45.80254" lon="4.83906">
        <ele>186.15</ele>
        <time>2012-09-05T13:52:07Z</time>
      </trkpt>
      <trkpt lat="45.80256" lon="4.83907">
        <ele>186.63</ele>
        <time>2012-09-05T13:52:08Z</time>
      </trkpt>
      <trkpt lat="45.80288" lon="4.83926">
        <ele>187.11</ele>
        <time>2012-09-05T13:52:21Z</time>
      </trkpt>
      <trkpt lat="45.80343" lon="4.83974">
        <ele>184.71</ele>
        <time>2012-09-05T13:52:36Z</time>
      </trkpt>
      <trkpt lat="45.80348" lon="4.83978">
        <ele>184.23</ele>
        <time>2012-09-05T13:52:37Z</time>
      </trkpt>
      <trkpt lat="45.80352" lon="4.83981">
        <ele>183.75</ele>
        <time>2012-09-05T13:52:38Z</time>
      </trkpt>
      <trkpt lat="45.80391" lon="4.84011">
        <ele>180.38</ele>
        <time>2012-09-05T13:52:47Z</time>
      </trkpt>
      <trkpt lat="45.80394" lon="4.84014">
        <ele>180.38</ele>
        <time>2012-09-05T13:52:48Z</time>
      </trkpt>
      <trkpt lat="45.80463" lon="4.84051">
        <ele>177.02</ele>
        <time>2012-09-05T13:53:03Z</time>
      </trkpt>
      <trkpt lat="45.80517" lon="4.84082">
        <ele>173.66</ele>
        <time>2012-09-05T13:53:13Z</time>
      </trkpt>
      <trkpt lat="45.80609" lon="4.8413">
        <ele>173.66</ele>
        <time>2012-09-05T13:53:29Z</time>
      </trkpt>
      <trkpt lat="45.80691" lon="4.84167">
        <ele>173.17</ele>
        <time>2012-09-05T13:53:45Z</time>
      </trkpt>
      <trkpt lat="45.80778" lon="4.8419">
        <ele>173.66</ele>
        <time>2012-09-05T13:54:02Z</time>
      </trkpt>
      <trkpt lat="45.80878" lon="4.842">
        <ele>173.66</ele>
        <time>2012-09-05T13:54:22Z</time>
      </trkpt>
      <trkpt lat="45.80955" lon="4.84202">
        <ele>173.17</ele>
        <time>2012-09-05T13:54:38Z</time>
      </trkpt>
      <trkpt lat="45.81027" lon="4.84213">
        <ele>173.17</ele>
        <time>2012-09-05T13:54:54Z</time>
      </trkpt>
      <trkpt lat="45.81085" lon="4.84231">
        <ele>173.17</ele>
        <time>2012-09-05T13:55:08Z</time>
      </trkpt>
      <trkpt lat="45.81161" lon="4.84271">
        <ele>172.69</ele>
        <time>2012-09-05T13:55:26Z</time>
      </trkpt>
      <trkpt lat="45.81165" lon="4.84274">
        <ele>172.69</ele>
        <time>2012-09-05T13:55:27Z</time>
      </trkpt>
      <trkpt lat="45.81213" lon="4.84312">
        <ele>173.17</ele>
        <time>2012-09-05T13:55:39Z</time>
      </trkpt>
      <trkpt lat="45.81244" lon="4.84341">
        <ele>173.17</ele>
        <time>2012-09-05T13:55:47Z</time>
      </trkpt>
      <trkpt lat="45.81255" lon="4.84353">
        <ele>173.17</ele>
        <time>2012-09-05T13:55:50Z</time>
      </trkpt>
      <trkpt lat="45.81259" lon="4.84357">
        <ele>173.17</ele>
        <time>2012-09-05T13:55:51Z</time>
      </trkpt>
      <trkpt lat="45.81316" lon="4.84423">
        <ele>173.66</ele>
        <time>2012-09-05T13:56:07Z</time>
      </trkpt>
      <trkpt lat="45.81368" lon="4.84488">
        <ele>173.66</ele>
        <time>2012-09-05T13:56:22Z</time>
      </trkpt>
      <trkpt lat="45.81416" lon="4.84545">
        <ele>174.14</ele>
        <time>2012-09-05T13:56:37Z</time>
      </trkpt>
      <trkpt lat="45.81447" lon="4.8458">
        <ele>175.1</ele>
        <time>2012-09-05T13:56:49Z</time>
      </trkpt>
      <trkpt lat="45.81477" lon="4.84628">
        <ele>176.54</ele>
        <time>2012-09-05T13:57:05Z</time>
      </trkpt>
      <trkpt lat="45.81497" lon="4.84651">
        <ele>176.06</ele>
        <time>2012-09-05T13:57:18Z</time>
      </trkpt>
      <trkpt lat="45.81497" lon="4.84652">
        <ele>175.58</ele>
        <time>2012-09-05T13:57:22Z</time>
      </trkpt>
      <trkpt lat="45.81497" lon="4.84654">
        <ele>175.58</ele>
        <time>2012-09-05T13:57:23Z</time>
      </trkpt>
      <trkpt lat="45.81498" lon="4.84656">
        <ele>175.58</ele>
        <time>2012-09-05T13:57:24Z</time>
      </trkpt>
      <trkpt lat="45.81499" lon="4.84659">
        <ele>175.58</ele>
        <time>2012-09-05T13:57:25Z</time>
      </trkpt>
      <trkpt lat="45.81501" lon="4.84663">
        <ele>175.58</ele>
        <time>2012-09-05T13:57:26Z</time>
      </trkpt>
      <trkpt lat="45.81516" lon="4.84712">
        <ele>174.14</ele>
        <time>2012-09-05T13:57:37Z</time>
      </trkpt>
      <trkpt lat="45.81523" lon="4.84744">
        <ele>172.69</ele>
        <time>2012-09-05T13:57:48Z</time>
      </trkpt>
      <trkpt lat="45.81522" lon="4.84749">
        <ele>173.17</ele>
        <time>2012-09-05T13:58:03Z</time>
      </trkpt>
      <trkpt lat="45.81524" lon="4.84749">
        <ele>172.69</ele>
        <time>2012-09-05T13:58:33Z</time>
      </trkpt>
      <trkpt lat="45.81526" lon="4.84754">
        <ele>174.14</ele>
        <time>2012-09-05T13:58:52Z</time>
      </trkpt>
      <trkpt lat="45.81538" lon="4.84794">
        <ele>172.69</ele>
        <time>2012-09-05T13:59:03Z</time>
      </trkpt>
      <trkpt lat="45.81566" lon="4.84862">
        <ele>172.69</ele>
        <time>2012-09-05T13:59:18Z</time>
      </trkpt>
      <trkpt lat="45.81571" lon="4.84901">
        <ele>172.21</ele>
        <time>2012-09-05T13:59:27Z</time>
      </trkpt>
      <trkpt lat="45.81572" lon="4.84903">
        <ele>172.21</ele>
        <time>2012-09-05T13:59:28Z</time>
      </trkpt>
      <trkpt lat="45.81577" lon="4.84909">
        <ele>172.21</ele>
        <time>2012-09-05T13:59:32Z</time>
      </trkpt>
      <trkpt lat="45.81578" lon="4.84911">
        <ele>172.69</ele>
        <time>2012-09-05T13:59:33Z</time>
      </trkpt>
      <trkpt lat="45.8158" lon="4.84913">
        <ele>172.69</ele>
        <time>2012-09-05T13:59:34Z</time>
      </trkpt>
      <trkpt lat="45.81582" lon="4.84915">
        <ele>172.69</ele>
        <time>2012-09-05T13:59:35Z</time>
      </trkpt>
      <trkpt lat="45.81584" lon="4.84918">
        <ele>172.69</ele>
        <time>2012-09-05T13:59:36Z</time>
      </trkpt>
      <trkpt lat="45.81585" lon="4.84922">
        <ele>172.69</ele>
        <time>2012-09-05T13:59:37Z</time>
      </trkpt>
      <trkpt lat="45.81606" lon="4.84963">
        <ele>173.17</ele>
        <time>2012-09-05T13:59:48Z</time>
      </trkpt>
      <trkpt lat="45.81633" lon="4.85036">
        <ele>172.69</ele>
        <time>2012-09-05T14:00:03Z</time>
      </trkpt>
      <trkpt lat="45.81658" lon="4.851">
        <ele>172.69</ele>
        <time>2012-09-05T14:00:15Z</time>
      </trkpt>
      <trkpt lat="45.8167" lon="4.85131">
        <ele>172.69</ele>
        <time>2012-09-05T14:00:21Z</time>
      </trkpt>
      <trkpt lat="45.81713" lon="4.85222">
        <ele>172.21</ele>
        <time>2012-09-05T14:00:38Z</time>
      </trkpt>
      <trkpt lat="45.81759" lon="4.85293">
        <ele>174.14</ele>
        <time>2012-09-05T14:00:53Z</time>
      </trkpt>
      <trkpt lat="45.81773" lon="4.85313">
        <ele>172.69</ele>
        <time>2012-09-05T14:01:04Z</time>
      </trkpt>
      <trkpt lat="45.81772" lon="4.85313">
        <ele>171.73</ele>
        <time>2012-09-05T14:01:32Z</time>
      </trkpt>
      <trkpt lat="45.81771" lon="4.85313">
        <ele>172.69</ele>
        <time>2012-09-05T14:01:38Z</time>
      </trkpt>
      <trkpt lat="45.81782" lon="4.85327">
        <ele>172.21</ele>
        <time>2012-09-05T14:01:57Z</time>
      </trkpt>
      <trkpt lat="45.81816" lon="4.85367">
        <ele>172.69</ele>
        <time>2012-09-05T14:02:11Z</time>
      </trkpt>
      <trkpt lat="45.81879" lon="4.85416">
        <ele>172.21</ele>
        <time>2012-09-05T14:02:26Z</time>
      </trkpt>
      <trkpt lat="45.81941" lon="4.85448">
        <ele>172.21</ele>
        <time>2012-09-05T14:02:40Z</time>
      </trkpt>
      <trkpt lat="45.81996" lon="4.85467">
        <ele>172.21</ele>
        <time>2012-09-05T14:02:52Z</time>
      </trkpt>
      <trkpt lat="45.82" lon="4.85468">
        <ele>172.21</ele>
        <time>2012-09-05T14:02:53Z</time>
      </trkpt>
      <trkpt lat="45.8208" lon="4.85484">
        <ele>172.21</ele>
        <time>2012-09-05T14:03:10Z</time>
      </trkpt>
      <trkpt lat="45.82154" lon="4.85488">
        <ele>172.21</ele>
        <time>2012-09-05T14:03:26Z</time>
      </trkpt>
      <trkpt lat="45.82203" lon="4.85481">
        <ele>172.21</ele>
        <time>2012-09-05T14:03:39Z</time>
      </trkpt>
      <trkpt lat="45.82263" lon="4.8547">
        <ele>172.69</ele>
        <time>2012-09-05T14:03:53Z</time>
      </trkpt>
      <trkpt lat="45.82318" lon="4.85455">
        <ele>172.69</ele>
        <time>2012-09-05T14:04:06Z</time>
      </trkpt>
      <trkpt lat="45.82372" lon="4.85432">
        <ele>173.17</ele>
        <time>2012-09-05T14:04:19Z</time>
      </trkpt>
      <trkpt lat="45.82404" lon="4.85417">
        <ele>173.66</ele>
        <time>2012-09-05T14:04:27Z</time>
      </trkpt>
      <trkpt lat="45.82463" lon="4.85386">
        <ele>173.17</ele>
        <time>2012-09-05T14:04:41Z</time>
      </trkpt>
      <trkpt lat="45.82467" lon="4.85383">
        <ele>173.66</ele>
        <time>2012-09-05T14:04:42Z</time>
      </trkpt>
      <trkpt lat="45.82538" lon="4.85341">
        <ele>172.69</ele>
        <time>2012-09-05T14:04:58Z</time>
      </trkpt>
      <trkpt lat="45.82542" lon="4.85339">
        <ele>172.69</ele>
        <time>2012-09-05T14:04:59Z</time>
      </trkpt>
      <trkpt lat="45.82591" lon="4.85305">
        <ele>172.21</ele>
        <time>2012-09-05T14:05:12Z</time>
      </trkpt>
      <trkpt lat="45.82647" lon="4.85265">
        <ele>172.21</ele>
        <time>2012-09-05T14:05:26Z</time>
      </trkpt>
      <trkpt lat="45.82651" lon="4.85262">
        <ele>172.21</ele>
        <time>2012-09-05T14:05:27Z</time>
      </trkpt>
      <trkpt lat="45.82659" lon="4.85256">
        <ele>172.21</ele>
        <time>2012-09-05T14:05:29Z</time>
      </trkpt>
      <trkpt lat="45.82663" lon="4.85253">
        <ele>172.21</ele>
        <time>2012-09-05T14:05:30Z</time>
      </trkpt>
      <trkpt lat="45.82667" lon="4.85251">
        <ele>172.21</ele>
        <time>2012-09-05T14:05:31Z</time>
      </trkpt>
      <trkpt lat="45.82671" lon="4.85248">
        <ele>171.73</ele>
        <time>2012-09-05T14:05:32Z</time>
      </trkpt>
      <trkpt lat="45.82675" lon="4.85246">
        <ele>172.21</ele>
        <time>2012-09-05T14:05:33Z</time>
      </trkpt>
      <trkpt lat="45.82727" lon="4.85204">
        <ele>171.73</ele>
        <time>2012-09-05T14:05:46Z</time>
      </trkpt>
      <trkpt lat="45.82783" lon="4.85162">
        <ele>171.73</ele>
        <time>2012-09-05T14:06:00Z</time>
      </trkpt>
      <trkpt lat="45.8284" lon="4.85111">
        <ele>171.73</ele>
        <time>2012-09-05T14:06:15Z</time>
      </trkpt>
      <trkpt lat="45.82894" lon="4.85053">
        <ele>171.73</ele>
        <time>2012-09-05T14:06:31Z</time>
      </trkpt>
      <trkpt lat="45.82898" lon="4.85049">
        <ele>171.73</ele>
        <time>2012-09-05T14:06:32Z</time>
      </trkpt>
      <trkpt lat="45.82952" lon="4.84983">
        <ele>171.73</ele>
        <time>2012-09-05T14:06:49Z</time>
      </trkpt>
      <trkpt lat="45.83017" lon="4.84899">
        <ele>171.73</ele>
        <time>2012-09-05T14:07:10Z</time>
      </trkpt>
      <trkpt lat="45.83054" lon="4.84829">
        <ele>173.17</ele>
        <time>2012-09-05T14:07:25Z</time>
      </trkpt>
      <trkpt lat="45.8309" lon="4.84759">
        <ele>174.14</ele>
        <time>2012-09-05T14:07:43Z</time>
      </trkpt>
      <trkpt lat="45.83118" lon="4.84758">
        <ele>174.62</ele>
        <time>2012-09-05T14:07:55Z</time>
      </trkpt>
      <trkpt lat="45.83166" lon="4.84805">
        <ele>177.02</ele>
        <time>2012-09-05T14:08:14Z</time>
      </trkpt>
      <trkpt lat="45.83207" lon="4.84846">
        <ele>175.58</ele>
        <time>2012-09-05T14:08:27Z</time>
      </trkpt>
      <trkpt lat="45.83228" lon="4.84861">
        <ele>174.62</ele>
        <time>2012-09-05T14:08:35Z</time>
      </trkpt>
      <trkpt lat="45.83229" lon="4.8486">
        <ele>174.14</ele>
        <time>2012-09-05T14:08:36Z</time>
      </trkpt>
      <trkpt lat="45.83232" lon="4.84858">
        <ele>174.14</ele>
        <time>2012-09-05T14:08:48Z</time>
      </trkpt>
      <trkpt lat="45.83244" lon="4.84832">
        <ele>174.14</ele>
        <time>2012-09-05T14:08:56Z</time>
      </trkpt>
      <trkpt lat="45.83258" lon="4.848">
        <ele>172.21</ele>
        <time>2012-09-05T14:09:03Z</time>
      </trkpt>
      <trkpt lat="45.83279" lon="4.84714">
        <ele>171.25</ele>
        <time>2012-09-05T14:09:16Z</time>
      </trkpt>
      <trkpt lat="45.83281" lon="4.84707">
        <ele>171.25</ele>
        <time>2012-09-05T14:09:17Z</time>
      </trkpt>
      <trkpt lat="45.83283" lon="4.84701">
        <ele>170.77</ele>
        <time>2012-09-05T14:09:18Z</time>
      </trkpt>
      <trkpt lat="45.83286" lon="4.84688">
        <ele>170.77</ele>
        <time>2012-09-05T14:09:20Z</time>
      </trkpt>
      <trkpt lat="45.83313" lon="4.84593">
        <ele>171.73</ele>
        <time>2012-09-05T14:09:36Z</time>
      </trkpt>
      <trkpt lat="45.83332" lon="4.84522">
        <ele>172.69</ele>
        <time>2012-09-05T14:09:51Z</time>
      </trkpt>
      <trkpt lat="45.8335" lon="4.84458">
        <ele>172.69</ele>
        <time>2012-09-05T14:10:04Z</time>
      </trkpt>
      <trkpt lat="45.83373" lon="4.84376">
        <ele>172.69</ele>
        <time>2012-09-05T14:10:20Z</time>
      </trkpt>
      <trkpt lat="45.83405" lon="4.84278">
        <ele>173.17</ele>
        <time>2012-09-05T14:10:39Z</time>
      </trkpt>
      <trkpt lat="45.83421" lon="4.84215">
        <ele>172.69</ele>
        <time>2012-09-05T14:10:53Z</time>
      </trkpt>
      <trkpt lat="45.8342" lon="4.8421">
        <ele>172.69</ele>
        <time>2012-09-05T14:11:03Z</time>
      </trkpt>
      <trkpt lat="45.8342" lon="4.84211">
        <ele>172.21</ele>
        <time>2012-09-05T14:11:31Z</time>
      </trkpt>
      <trkpt lat="45.8342" lon="4.84211">
        <ele>173.17</ele>
        <time>2012-09-05T14:11:44Z</time>
      </trkpt>
      <trkpt lat="45.8342" lon="4.8421">
        <ele>172.21</ele>
        <time>2012-09-05T14:11:56Z</time>
      </trkpt>
      <trkpt lat="45.83419" lon="4.84215">
        <ele>172.69</ele>
        <time>2012-09-05T14:12:12Z</time>
      </trkpt>
      <trkpt lat="45.83423" lon="4.84213">
        <ele>172.69</ele>
        <time>2012-09-05T14:12:24Z</time>
      </trkpt>
      <trkpt lat="45.83426" lon="4.84207">
        <ele>173.17</ele>
        <time>2012-09-05T14:12:33Z</time>
      </trkpt>
      <trkpt lat="45.83426" lon="4.84205">
        <ele>172.69</ele>
        <time>2012-09-05T14:12:34Z</time>
      </trkpt>
      <trkpt lat="45.83427" lon="4.84203">
        <ele>172.69</ele>
        <time>2012-09-05T14:12:35Z</time>
      </trkpt>
      <trkpt lat="45.83428" lon="4.842">
        <ele>173.17</ele>
        <time>2012-09-05T14:12:44Z</time>
      </trkpt>
      <trkpt lat="45.83429" lon="4.84198">
        <ele>173.17</ele>
        <time>2012-09-05T14:12:45Z</time>
      </trkpt>
      <trkpt lat="45.8343" lon="4.84196">
        <ele>173.17</ele>
        <time>2012-09-05T14:12:46Z</time>
      </trkpt>
      <trkpt lat="45.83449" lon="4.84136">
        <ele>173.66</ele>
        <time>2012-09-05T14:13:00Z</time>
      </trkpt>
      <trkpt lat="45.8348" lon="4.84049">
        <ele>173.17</ele>
        <time>2012-09-05T14:13:17Z</time>
      </trkpt>
      <trkpt lat="45.83518" lon="4.8396">
        <ele>173.17</ele>
        <time>2012-09-05T14:13:33Z</time>
      </trkpt>
      <trkpt lat="45.83522" lon="4.83949">
        <ele>173.17</ele>
        <time>2012-09-05T14:13:35Z</time>
      </trkpt>
      <trkpt lat="45.83565" lon="4.83866">
        <ele>172.69</ele>
        <time>2012-09-05T14:13:53Z</time>
      </trkpt>
      <trkpt lat="45.83591" lon="4.83823">
        <ele>172.21</ele>
        <time>2012-09-05T14:14:08Z</time>
      </trkpt>
      <trkpt lat="45.83607" lon="4.83799">
        <ele>172.21</ele>
        <time>2012-09-05T14:14:20Z</time>
      </trkpt>
      <trkpt lat="45.83638" lon="4.83748">
        <ele>172.21</ele>
        <time>2012-09-05T14:14:34Z</time>
      </trkpt>
      <trkpt lat="45.83661" lon="4.83713">
        <ele>172.21</ele>
        <time>2012-09-05T14:14:42Z</time>
      </trkpt>
      <trkpt lat="45.83664" lon="4.83709">
        <ele>172.21</ele>
        <time>2012-09-05T14:14:43Z</time>
      </trkpt>
      <trkpt lat="45.83687" lon="4.83671">
        <ele>172.21</ele>
        <time>2012-09-05T14:14:51Z</time>
      </trkpt>
      <trkpt lat="45.83716" lon="4.83623">
        <ele>172.21</ele>
        <time>2012-09-05T14:15:03Z</time>
      </trkpt>
      <trkpt lat="45.83756" lon="4.83566">
        <ele>172.69</ele>
        <time>2012-09-05T14:15:16Z</time>
      </trkpt>
      <trkpt lat="45.83813" lon="4.835">
        <ele>172.69</ele>
        <time>2012-09-05T14:15:33Z</time>
      </trkpt>
      <trkpt lat="45.83817" lon="4.83497">
        <ele>172.69</ele>
        <time>2012-09-05T14:15:34Z</time>
      </trkpt>
      <trkpt lat="45.8388" lon="4.83448">
        <ele>173.17</ele>
        <time>2012-09-05T14:15:50Z</time>
      </trkpt>
      <trkpt lat="45.8395" lon="4.83408">
        <ele>172.69</ele>
        <time>2012-09-05T14:16:07Z</time>
      </trkpt>
      <trkpt lat="45.83982" lon="4.83394">
        <ele>172.69</ele>
        <time>2012-09-05T14:16:17Z</time>
      </trkpt>
      <trkpt lat="45.83982" lon="4.83392">
        <ele>172.69</ele>
        <time>2012-09-05T14:16:18Z</time>
      </trkpt>
      <trkpt lat="45.83982" lon="4.8339">
        <ele>172.69</ele>
        <time>2012-09-05T14:16:19Z</time>
      </trkpt>
      <trkpt lat="45.83983" lon="4.83388">
        <ele>172.69</ele>
        <time>2012-09-05T14:16:20Z</time>
      </trkpt>
      <trkpt lat="45.83982" lon="4.83386">
        <ele>172.21</ele>
        <time>2012-09-05T14:16:21Z</time>
      </trkpt>
      <trkpt lat="45.83981" lon="4.83384">
        <ele>172.21</ele>
        <time>2012-09-05T14:16:22Z</time>
      </trkpt>
      <trkpt lat="45.8398" lon="4.83382">
        <ele>172.21</ele>
        <time>2012-09-05T14:16:23Z</time>
      </trkpt>
      <trkpt lat="45.83978" lon="4.83379">
        <ele>171.73</ele>
        <time>2012-09-05T14:16:24Z</time>
      </trkpt>
      <trkpt lat="45.83978" lon="4.83376">
        <ele>171.73</ele>
        <time>2012-09-05T14:16:25Z</time>
      </trkpt>
      <trkpt lat="45.83978" lon="4.83373">
        <ele>171.25</ele>
        <time>2012-09-05T14:16:26Z</time>
      </trkpt>
      <trkpt lat="45.83979" lon="4.83371">
        <ele>171.25</ele>
        <time>2012-09-05T14:16:27Z</time>
      </trkpt>
      <trkpt lat="45.83981" lon="4.8337">
        <ele>171.73</ele>
        <time>2012-09-05T14:16:28Z</time>
      </trkpt>
      <trkpt lat="45.83984" lon="4.83369">
        <ele>171.73</ele>
        <time>2012-09-05T14:16:29Z</time>
      </trkpt>
      <trkpt lat="45.83987" lon="4.8337">
        <ele>171.73</ele>
        <time>2012-09-05T14:16:30Z</time>
      </trkpt>
      <trkpt lat="45.8399" lon="4.83371">
        <ele>171.73</ele>
        <time>2012-09-05T14:16:31Z</time>
      </trkpt>
      <trkpt lat="45.84034" lon="4.83376">
        <ele>172.21</ele>
        <time>2012-09-05T14:16:45Z</time>
      </trkpt>
      <trkpt lat="45.84068" lon="4.83376">
        <ele>172.21</ele>
        <time>2012-09-05T14:16:53Z</time>
      </trkpt>
      <trkpt lat="45.84072" lon="4.83375">
        <ele>172.21</ele>
        <time>2012-09-05T14:16:54Z</time>
      </trkpt>
      <trkpt lat="45.84114" lon="4.83374">
        <ele>172.21</ele>
        <time>2012-09-05T14:17:03Z</time>
      </trkpt>
      <trkpt lat="45.84153" lon="4.83377">
        <ele>172.21</ele>
        <time>2012-09-05T14:17:13Z</time>
      </trkpt>
      <trkpt lat="45.84157" lon="4.83378">
        <ele>172.21</ele>
        <time>2012-09-05T14:17:14Z</time>
      </trkpt>
      <trkpt lat="45.84221" lon="4.83395">
        <ele>172.21</ele>
        <time>2012-09-05T14:17:29Z</time>
      </trkpt>
      <trkpt lat="45.84295" lon="4.83425">
        <ele>172.21</ele>
        <time>2012-09-05T14:17:46Z</time>
      </trkpt>
      <trkpt lat="45.84356" lon="4.83451">
        <ele>172.21</ele>
        <time>2012-09-05T14:18:00Z</time>
      </trkpt>
      <trkpt lat="45.84373" lon="4.83457">
        <ele>172.21</ele>
        <time>2012-09-05T14:18:04Z</time>
      </trkpt>
      <trkpt lat="45.84378" lon="4.83459">
        <ele>172.21</ele>
        <time>2012-09-05T14:18:05Z</time>
      </trkpt>
      <trkpt lat="45.8442" lon="4.83476">
        <ele>172.21</ele>
        <time>2012-09-05T14:18:15Z</time>
      </trkpt>
      <trkpt lat="45.84468" lon="4.83497">
        <ele>172.21</ele>
        <time>2012-09-05T14:18:28Z</time>
      </trkpt>
      <trkpt lat="45.84494" lon="4.83503">
        <ele>171.73</ele>
        <time>2012-09-05T14:18:38Z</time>
      </trkpt>
      <trkpt lat="45.84513" lon="4.83507">
        <ele>171.25</ele>
        <time>2012-09-05T14:18:49Z</time>
      </trkpt>
      <trkpt lat="45.84514" lon="4.83505">
        <ele>171.73</ele>
        <time>2012-09-05T14:19:02Z</time>
      </trkpt>
      <trkpt lat="45.84516" lon="4.83505">
        <ele>170.77</ele>
        <time>2012-09-05T14:19:31Z</time>
      </trkpt>
      <trkpt lat="45.84515" lon="4.83505">
        <ele>170.77</ele>
        <time>2012-09-05T14:19:59Z</time>
      </trkpt>
      <trkpt lat="45.84511" lon="4.83507">
        <ele>170.77</ele>
        <time>2012-09-05T14:21:23Z</time>
      </trkpt>
      <trkpt lat="45.84511" lon="4.83504">
        <ele>170.77</ele>
        <time>2012-09-05T14:21:24Z</time>
      </trkpt>
      <trkpt lat="45.84509" lon="4.83502">
        <ele>170.77</ele>
        <time>2012-09-05T14:21:58Z</time>
      </trkpt>
      <trkpt lat="45.84513" lon="4.83501">
        <ele>170.77</ele>
        <time>2012-09-05T14:22:14Z</time>
      </trkpt>
      <trkpt lat="45.84522" lon="4.83506">
        <ele>170.77</ele>
        <time>2012-09-05T14:22:19Z</time>
      </trkpt>
      <trkpt lat="45.84562" lon="4.83531">
        <ele>169.81</ele>
        <time>2012-09-05T14:22:32Z</time>
      </trkpt>
      <trkpt lat="45.84615" lon="4.83557">
        <ele>169.33</ele>
        <time>2012-09-05T14:22:46Z</time>
      </trkpt>
      <trkpt lat="45.84664" lon="4.83582">
        <ele>169.33</ele>
        <time>2012-09-05T14:22:59Z</time>
      </trkpt>
      <trkpt lat="45.84725" lon="4.83614">
        <ele>169.33</ele>
        <time>2012-09-05T14:23:14Z</time>
      </trkpt>
      <trkpt lat="45.84795" lon="4.83651">
        <ele>169.33</ele>
        <time>2012-09-05T14:23:31Z</time>
      </trkpt>
      <trkpt lat="45.84873" lon="4.83692">
        <ele>170.29</ele>
        <time>2012-09-05T14:23:50Z</time>
      </trkpt>
      <trkpt lat="45.84939" lon="4.83724">
        <ele>170.29</ele>
        <time>2012-09-05T14:24:06Z</time>
      </trkpt>
      <trkpt lat="45.84976" lon="4.83728">
        <ele>169.81</ele>
        <time>2012-09-05T14:24:17Z</time>
      </trkpt>
      <trkpt lat="45.84978" lon="4.83729">
        <ele>169.81</ele>
        <time>2012-09-05T14:24:18Z</time>
      </trkpt>
      <trkpt lat="45.84979" lon="4.83728">
        <ele>169.81</ele>
        <time>2012-09-05T14:24:19Z</time>
      </trkpt>
      <trkpt lat="45.84979" lon="4.83726">
        <ele>169.33</ele>
        <time>2012-09-05T14:24:20Z</time>
      </trkpt>
      <trkpt lat="45.84977" lon="4.83726">
        <ele>169.33</ele>
        <time>2012-09-05T14:24:21Z</time>
      </trkpt>
      <trkpt lat="45.84976" lon="4.83725">
        <ele>169.33</ele>
        <time>2012-09-05T14:24:22Z</time>
      </trkpt>
      <trkpt lat="45.84974" lon="4.83724">
        <ele>169.33</ele>
        <time>2012-09-05T14:24:23Z</time>
      </trkpt>
      <trkpt lat="45.84973" lon="4.83722">
        <ele>169.33</ele>
        <time>2012-09-05T14:24:24Z</time>
      </trkpt>
      <trkpt lat="45.8497" lon="4.83721">
        <ele>169.33</ele>
        <time>2012-09-05T14:24:25Z</time>
      </trkpt>
      <trkpt lat="45.84969" lon="4.83722">
        <ele>169.33</ele>
        <time>2012-09-05T14:24:26Z</time>
      </trkpt>
      <trkpt lat="45.84969" lon="4.83724">
        <ele>169.33</ele>
        <time>2012-09-05T14:24:27Z</time>
      </trkpt>
      <trkpt lat="45.84971" lon="4.83724">
        <ele>169.33</ele>
        <time>2012-09-05T14:24:38Z</time>
      </trkpt>
      <trkpt lat="45.84971" lon="4.83723">
        <ele>169.81</ele>
        <time>2012-09-05T14:24:58Z</time>
      </trkpt>
      <trkpt lat="45.84972" lon="4.83724">
        <ele>169.33</ele>
        <time>2012-09-05T14:24:59Z</time>
      </trkpt>
      <trkpt lat="45.84973" lon="4.83725">
        <ele>169.33</ele>
        <time>2012-09-05T14:25:00Z</time>
      </trkpt>
      <trkpt lat="45.84987" lon="4.83743">
        <ele>169.81</ele>
        <time>2012-09-05T14:25:07Z</time>
      </trkpt>
      <trkpt lat="45.85031" lon="4.83765">
        <ele>169.81</ele>
        <time>2012-09-05T14:25:21Z</time>
      </trkpt>
      <trkpt lat="45.8509" lon="4.83784">
        <ele>169.81</ele>
        <time>2012-09-05T14:25:36Z</time>
      </trkpt>
      <trkpt lat="45.85102" lon="4.83787">
        <ele>170.29</ele>
        <time>2012-09-05T14:25:39Z</time>
      </trkpt>
      <trkpt lat="45.85106" lon="4.83788">
        <ele>169.81</ele>
        <time>2012-09-05T14:25:40Z</time>
      </trkpt>
      <trkpt lat="45.85155" lon="4.83803">
        <ele>169.81</ele>
        <time>2012-09-05T14:25:52Z</time>
      </trkpt>
      <trkpt lat="45.8516" lon="4.83805">
        <ele>169.81</ele>
        <time>2012-09-05T14:25:53Z</time>
      </trkpt>
      <trkpt lat="45.85173" lon="4.83809">
        <ele>169.81</ele>
        <time>2012-09-05T14:25:56Z</time>
      </trkpt>
      <trkpt lat="45.85191" lon="4.83813">
        <ele>170.29</ele>
        <time>2012-09-05T14:26:00Z</time>
      </trkpt>
      <trkpt lat="45.85195" lon="4.83814">
        <ele>169.81</ele>
        <time>2012-09-05T14:26:01Z</time>
      </trkpt>
      <trkpt lat="45.85255" lon="4.8383">
        <ele>170.29</ele>
        <time>2012-09-05T14:26:14Z</time>
      </trkpt>
      <trkpt lat="45.85281" lon="4.8384">
        <ele>169.81</ele>
        <time>2012-09-05T14:26:20Z</time>
      </trkpt>
      <trkpt lat="45.85317" lon="4.83852">
        <ele>169.81</ele>
        <time>2012-09-05T14:26:28Z</time>
      </trkpt>
      <trkpt lat="45.85322" lon="4.83854">
        <ele>169.81</ele>
        <time>2012-09-05T14:26:29Z</time>
      </trkpt>
      <trkpt lat="45.85344" lon="4.83867">
        <ele>169.33</ele>
        <time>2012-09-05T14:26:34Z</time>
      </trkpt>
      <trkpt lat="45.85401" lon="4.83893">
        <ele>169.81</ele>
        <time>2012-09-05T14:26:47Z</time>
      </trkpt>
      <trkpt lat="45.85467" lon="4.83925">
        <ele>169.81</ele>
        <time>2012-09-05T14:27:02Z</time>
      </trkpt>
      <trkpt lat="45.85479" lon="4.8393">
        <ele>169.81</ele>
        <time>2012-09-05T14:27:05Z</time>
      </trkpt>
      <trkpt lat="45.85512" lon="4.83946">
        <ele>169.33</ele>
        <time>2012-09-05T14:27:13Z</time>
      </trkpt>
      <trkpt lat="45.8559" lon="4.83987">
        <ele>169.81</ele>
        <time>2012-09-05T14:27:31Z</time>
      </trkpt>
      <trkpt lat="45.85602" lon="4.83994">
        <ele>169.81</ele>
        <time>2012-09-05T14:27:34Z</time>
      </trkpt>
      <trkpt lat="45.85663" lon="4.84024">
        <ele>170.29</ele>
        <time>2012-09-05T14:27:48Z</time>
      </trkpt>
      <trkpt lat="45.85671" lon="4.84028">
        <ele>169.81</ele>
        <time>2012-09-05T14:27:50Z</time>
      </trkpt>
      <trkpt lat="45.85733" lon="4.84057">
        <ele>169.81</ele>
        <time>2012-09-05T14:28:05Z</time>
      </trkpt>
      <trkpt lat="45.858" lon="4.84091">
        <ele>169.33</ele>
        <time>2012-09-05T14:28:22Z</time>
      </trkpt>
      <trkpt lat="45.85855" lon="4.84117">
        <ele>166.45</ele>
        <time>2012-09-05T14:28:36Z</time>
      </trkpt>
      <trkpt lat="45.85859" lon="4.84118">
        <ele>171.73</ele>
        <time>2012-09-05T14:28:37Z</time>
      </trkpt>
      <trkpt lat="45.85863" lon="4.8412">
        <ele>167.89</ele>
        <time>2012-09-05T14:28:38Z</time>
      </trkpt>
      <trkpt lat="45.85867" lon="4.84121">
        <ele>171.25</ele>
        <time>2012-09-05T14:28:39Z</time>
      </trkpt>
      <trkpt lat="45.85945" lon="4.8413">
        <ele>170.77</ele>
        <time>2012-09-05T14:28:59Z</time>
      </trkpt>
      <trkpt lat="45.8602" lon="4.84113">
        <ele>170.29</ele>
        <time>2012-09-05T14:29:18Z</time>
      </trkpt>
      <trkpt lat="45.86095" lon="4.84094">
        <ele>172.21</ele>
        <time>2012-09-05T14:29:37Z</time>
      </trkpt>
      <trkpt lat="45.86166" lon="4.84077">
        <ele>170.29</ele>
        <time>2012-09-05T14:29:55Z</time>
      </trkpt>
      <trkpt lat="45.86234" lon="4.8406">
        <ele>170.29</ele>
        <time>2012-09-05T14:30:12Z</time>
      </trkpt>
      <trkpt lat="45.86309" lon="4.84042">
        <ele>170.29</ele>
        <time>2012-09-05T14:30:31Z</time>
      </trkpt>
      <trkpt lat="45.86382" lon="4.84023">
        <ele>170.29</ele>
        <time>2012-09-05T14:30:49Z</time>
      </trkpt>
      <trkpt lat="45.86467" lon="4.83996">
        <ele>169.81</ele>
        <time>2012-09-05T14:31:10Z</time>
      </trkpt>
      <trkpt lat="45.86537" lon="4.83972">
        <ele>170.29</ele>
        <time>2012-09-05T14:31:28Z</time>
      </trkpt>
      <trkpt lat="45.86541" lon="4.83971">
        <ele>170.29</ele>
        <time>2012-09-05T14:31:29Z</time>
      </trkpt>
      <trkpt lat="45.86603" lon="4.83958">
        <ele>170.29</ele>
        <time>2012-09-05T14:31:45Z</time>
      </trkpt>
      <trkpt lat="45.86613" lon="4.83955">
        <ele>170.29</ele>
        <time>2012-09-05T14:31:49Z</time>
      </trkpt>
      <trkpt lat="45.86614" lon="4.83952">
        <ele>169.81</ele>
        <time>2012-09-05T14:31:51Z</time>
      </trkpt>
      <trkpt lat="45.86614" lon="4.83949">
        <ele>169.81</ele>
        <time>2012-09-05T14:31:53Z</time>
      </trkpt>
      <trkpt lat="45.86615" lon="4.83947">
        <ele>169.81</ele>
        <time>2012-09-05T14:31:54Z</time>
      </trkpt>
      <trkpt lat="45.86636" lon="4.83931">
        <ele>168.85</ele>
        <time>2012-09-05T14:32:07Z</time>
      </trkpt>
      <trkpt lat="45.86639" lon="4.83928">
        <ele>168.85</ele>
        <time>2012-09-05T14:32:10Z</time>
      </trkpt>
      <trkpt lat="45.86641" lon="4.83925">
        <ele>168.85</ele>
        <time>2012-09-05T14:32:18Z</time>
      </trkpt>
      <trkpt lat="45.86643" lon="4.83924">
        <ele>168.37</ele>
        <time>2012-09-05T14:32:19Z</time>
      </trkpt>
      <trkpt lat="45.86644" lon="4.83922">
        <ele>168.37</ele>
        <time>2012-09-05T14:32:20Z</time>
      </trkpt>
      <trkpt lat="45.86646" lon="4.8392">
        <ele>168.85</ele>
        <time>2012-09-05T14:32:21Z</time>
      </trkpt>
      <trkpt lat="45.86648" lon="4.83918">
        <ele>168.85</ele>
        <time>2012-09-05T14:32:22Z</time>
      </trkpt>
      <trkpt lat="45.86651" lon="4.83915">
        <ele>168.85</ele>
        <time>2012-09-05T14:32:23Z</time>
      </trkpt>
      <trkpt lat="45.86659" lon="4.83905">
        <ele>168.85</ele>
        <time>2012-09-05T14:32:27Z</time>
      </trkpt>
      <trkpt lat="45.86661" lon="4.83903">
        <ele>168.37</ele>
        <time>2012-09-05T14:32:28Z</time>
      </trkpt>
      <trkpt lat="45.86688" lon="4.83869">
        <ele>168.85</ele>
        <time>2012-09-05T14:32:39Z</time>
      </trkpt>
      <trkpt lat="45.86721" lon="4.83839">
        <ele>168.85</ele>
        <time>2012-09-05T14:32:50Z</time>
      </trkpt>
      <trkpt lat="45.86762" lon="4.83803">
        <ele>168.85</ele>
        <time>2012-09-05T14:33:03Z</time>
      </trkpt>
      <trkpt lat="45.86781" lon="4.83784">
        <ele>168.85</ele>
        <time>2012-09-05T14:33:09Z</time>
      </trkpt>
      <trkpt lat="45.86785" lon="4.83782">
        <ele>168.85</ele>
        <time>2012-09-05T14:33:10Z</time>
      </trkpt>
      <trkpt lat="45.86793" lon="4.83779">
        <ele>168.85</ele>
        <time>2012-09-05T14:33:12Z</time>
      </trkpt>
      <trkpt lat="45.86797" lon="4.83777">
        <ele>168.85</ele>
        <time>2012-09-05T14:33:13Z</time>
      </trkpt>
      <trkpt lat="45.86841" lon="4.83746">
        <ele>168.85</ele>
        <time>2012-09-05T14:33:26Z</time>
      </trkpt>
      <trkpt lat="45.8688" lon="4.83721">
        <ele>168.37</ele>
        <time>2012-09-05T14:33:38Z</time>
      </trkpt>
      <trkpt lat="45.86892" lon="4.83717">
        <ele>168.37</ele>
        <time>2012-09-05T14:33:47Z</time>
      </trkpt>
      <trkpt lat="45.86894" lon="4.83715">
        <ele>168.37</ele>
        <time>2012-09-05T14:33:48Z</time>
      </trkpt>
      <trkpt lat="45.86897" lon="4.83715">
        <ele>168.37</ele>
        <time>2012-09-05T14:33:49Z</time>
      </trkpt>
      <trkpt lat="45.869" lon="4.83715">
        <ele>168.37</ele>
        <time>2012-09-05T14:33:50Z</time>
      </trkpt>
      <trkpt lat="45.86904" lon="4.83715">
        <ele>168.37</ele>
        <time>2012-09-05T14:33:51Z</time>
      </trkpt>
      <trkpt lat="45.86908" lon="4.83715">
        <ele>168.37</ele>
        <time>2012-09-05T14:33:52Z</time>
      </trkpt>
      <trkpt lat="45.86959" lon="4.83704">
        <ele>168.37</ele>
        <time>2012-09-05T14:34:07Z</time>
      </trkpt>
      <trkpt lat="45.87027" lon="4.83703">
        <ele>168.37</ele>
        <time>2012-09-05T14:34:26Z</time>
      </trkpt>
      <trkpt lat="45.8708" lon="4.83704">
        <ele>168.85</ele>
        <time>2012-09-05T14:34:41Z</time>
      </trkpt>
      <trkpt lat="45.87103" lon="4.83705">
        <ele>168.37</ele>
        <time>2012-09-05T14:34:47Z</time>
      </trkpt>
      <trkpt lat="45.87123" lon="4.83712">
        <ele>168.37</ele>
        <time>2012-09-05T14:34:52Z</time>
      </trkpt>
      <trkpt lat="45.87127" lon="4.83713">
        <ele>168.37</ele>
        <time>2012-09-05T14:34:53Z</time>
      </trkpt>
      <trkpt lat="45.87174" lon="4.83723">
        <ele>168.85</ele>
        <time>2012-09-05T14:35:05Z</time>
      </trkpt>
      <trkpt lat="45.87191" lon="4.83725">
        <ele>168.85</ele>
        <time>2012-09-05T14:35:09Z</time>
      </trkpt>
      <trkpt lat="45.87235" lon="4.83724">
        <ele>168.37</ele>
        <time>2012-09-05T14:35:22Z</time>
      </trkpt>
      <trkpt lat="45.87244" lon="4.83724">
        <ele>168.85</ele>
        <time>2012-09-05T14:35:26Z</time>
      </trkpt>
      <trkpt lat="45.87246" lon="4.83725">
        <ele>168.37</ele>
        <time>2012-09-05T14:35:27Z</time>
      </trkpt>
      <trkpt lat="45.87247" lon="4.83726">
        <ele>168.85</ele>
        <time>2012-09-05T14:35:28Z</time>
      </trkpt>
      <trkpt lat="45.8725" lon="4.83727">
        <ele>168.85</ele>
        <time>2012-09-05T14:35:29Z</time>
      </trkpt>
      <trkpt lat="45.87252" lon="4.83727">
        <ele>168.85</ele>
        <time>2012-09-05T14:35:30Z</time>
      </trkpt>
      <trkpt lat="45.87254" lon="4.83727">
        <ele>168.37</ele>
        <time>2012-09-05T14:35:31Z</time>
      </trkpt>
      <trkpt lat="45.87257" lon="4.83728">
        <ele>168.37</ele>
        <time>2012-09-05T14:35:32Z</time>
      </trkpt>
      <trkpt lat="45.873" lon="4.83737">
        <ele>168.85</ele>
        <time>2012-09-05T14:35:46Z</time>
      </trkpt>
      <trkpt lat="45.87351" lon="4.83744">
        <ele>168.85</ele>
        <time>2012-09-05T14:36:01Z</time>
      </trkpt>
      <trkpt lat="45.87386" lon="4.83751">
        <ele>168.85</ele>
        <time>2012-09-05T14:36:13Z</time>
      </trkpt>
      <trkpt lat="45.87417" lon="4.83758">
        <ele>169.33</ele>
        <time>2012-09-05T14:36:24Z</time>
      </trkpt>
      <trkpt lat="45.8742" lon="4.83757">
        <ele>169.33</ele>
        <time>2012-09-05T14:36:25Z</time>
      </trkpt>
      <trkpt lat="45.87423" lon="4.83758">
        <ele>169.33</ele>
        <time>2012-09-05T14:36:26Z</time>
      </trkpt>
      <trkpt lat="45.87426" lon="4.83758">
        <ele>169.33</ele>
        <time>2012-09-05T14:36:27Z</time>
      </trkpt>
      <trkpt lat="45.87428" lon="4.83758">
        <ele>169.33</ele>
        <time>2012-09-05T14:36:28Z</time>
      </trkpt>
      <trkpt lat="45.87457" lon="4.83764">
        <ele>168.85</ele>
        <time>2012-09-05T14:36:39Z</time>
      </trkpt>
      <trkpt lat="45.87502" lon="4.83773">
        <ele>169.33</ele>
        <time>2012-09-05T14:36:53Z</time>
      </trkpt>
      <trkpt lat="45.87791" lon="4.83789">
        <ele>168.37</ele>
        <time>2012-09-05T14:40:47Z</time>
      </trkpt>
      <trkpt lat="45.87793" lon="4.83786">
        <ele>169.33</ele>
        <time>2012-09-05T14:40:49Z</time>
      </trkpt>
      <trkpt lat="45.8779" lon="4.83777">
        <ele>165.96</ele>
        <time>2012-09-05T14:40:54Z</time>
      </trkpt>
      <trkpt lat="45.8779" lon="4.83777">
        <ele>170.29</ele>
        <time>2012-09-05T14:40:55Z</time>
      </trkpt>
      <trkpt lat="45.87787" lon="4.83778">
        <ele>168.85</ele>
        <time>2012-09-05T14:41:24Z</time>
      </trkpt>
      <trkpt lat="45.87792" lon="4.83782">
        <ele>168.37</ele>
        <time>2012-09-05T14:41:52Z</time>
      </trkpt>
      <trkpt lat="45.87791" lon="4.83782">
        <ele>168.37</ele>
        <time>2012-09-05T14:41:57Z</time>
      </trkpt>
      <trkpt lat="45.87792" lon="4.8378">
        <ele>168.37</ele>
        <time>2012-09-05T14:41:59Z</time>
      </trkpt>
      <trkpt lat="45.87798" lon="4.83776">
        <ele>168.85</ele>
        <time>2012-09-05T14:42:03Z</time>
      </trkpt>
      <trkpt lat="45.87813" lon="4.83767">
        <ele>168.85</ele>
        <time>2012-09-05T14:42:09Z</time>
      </trkpt>
      <trkpt lat="45.87855" lon="4.83728">
        <ele>168.37</ele>
        <time>2012-09-05T14:42:23Z</time>
      </trkpt>
      <trkpt lat="45.87896" lon="4.83691">
        <ele>168.85</ele>
        <time>2012-09-05T14:42:36Z</time>
      </trkpt>
      <trkpt lat="45.87929" lon="4.83644">
        <ele>168.85</ele>
        <time>2012-09-05T14:42:49Z</time>
      </trkpt>
      <trkpt lat="45.87943" lon="4.83605">
        <ele>168.37</ele>
        <time>2012-09-05T14:42:59Z</time>
      </trkpt>
      <trkpt lat="45.87946" lon="4.83584">
        <ele>168.37</ele>
        <time>2012-09-05T14:43:05Z</time>
      </trkpt>
      <trkpt lat="45.87969" lon="4.83517">
        <ele>168.85</ele>
        <time>2012-09-05T14:43:20Z</time>
      </trkpt>
      <trkpt lat="45.87985" lon="4.83448">
        <ele>168.85</ele>
        <time>2012-09-05T14:43:33Z</time>
      </trkpt>
      <trkpt lat="45.88004" lon="4.83367">
        <ele>168.85</ele>
        <time>2012-09-05T14:43:48Z</time>
      </trkpt>
      <trkpt lat="45.88014" lon="4.83299">
        <ele>168.37</ele>
        <time>2012-09-05T14:44:01Z</time>
      </trkpt>
      <trkpt lat="45.88025" lon="4.83199">
        <ele>168.37</ele>
        <time>2012-09-05T14:44:18Z</time>
      </trkpt>
      <trkpt lat="45.88032" lon="4.83147">
        <ele>168.37</ele>
        <time>2012-09-05T14:44:30Z</time>
      </trkpt>
      <trkpt lat="45.88032" lon="4.83145">
        <ele>168.37</ele>
        <time>2012-09-05T14:44:31Z</time>
      </trkpt>
      <trkpt lat="45.88033" lon="4.83144">
        <ele>168.37</ele>
        <time>2012-09-05T14:44:32Z</time>
      </trkpt>
      <trkpt lat="45.88037" lon="4.83143">
        <ele>168.37</ele>
        <time>2012-09-05T14:44:35Z</time>
      </trkpt>
      <trkpt lat="45.88041" lon="4.83119">
        <ele>168.37</ele>
        <time>2012-09-05T14:44:46Z</time>
      </trkpt>
      <trkpt lat="45.88041" lon="4.83111">
        <ele>168.37</ele>
        <time>2012-09-05T14:44:48Z</time>
      </trkpt>
      <trkpt lat="45.88049" lon="4.83047">
        <ele>168.85</ele>
        <time>2012-09-05T14:45:02Z</time>
      </trkpt>
      <trkpt lat="45.88057" lon="4.82983">
        <ele>168.37</ele>
        <time>2012-09-05T14:45:14Z</time>
      </trkpt>
      <trkpt lat="45.88057" lon="4.82976">
        <ele>168.37</ele>
        <time>2012-09-05T14:45:15Z</time>
      </trkpt>
      <trkpt lat="45.88064" lon="4.8292">
        <ele>168.37</ele>
        <time>2012-09-05T14:45:24Z</time>
      </trkpt>
      <trkpt lat="45.88065" lon="4.82914">
        <ele>168.37</ele>
        <time>2012-09-05T14:45:25Z</time>
      </trkpt>
      <trkpt lat="45.88068" lon="4.82889">
        <ele>168.85</ele>
        <time>2012-09-05T14:45:29Z</time>
      </trkpt>
      <trkpt lat="45.88074" lon="4.82852">
        <ele>168.85</ele>
        <time>2012-09-05T14:45:35Z</time>
      </trkpt>
      <trkpt lat="45.88075" lon="4.82846">
        <ele>168.85</ele>
        <time>2012-09-05T14:45:36Z</time>
      </trkpt>
      <trkpt lat="45.88076" lon="4.8284">
        <ele>168.85</ele>
        <time>2012-09-05T14:45:37Z</time>
      </trkpt>
      <trkpt lat="45.88077" lon="4.82834">
        <ele>168.85</ele>
        <time>2012-09-05T14:45:38Z</time>
      </trkpt>
      <trkpt lat="45.88079" lon="4.82828">
        <ele>168.85</ele>
        <time>2012-09-05T14:45:39Z</time>
      </trkpt>
      <trkpt lat="45.88089" lon="4.82752">
        <ele>169.33</ele>
        <time>2012-09-05T14:45:53Z</time>
      </trkpt>
      <trkpt lat="45.88094" lon="4.82717">
        <ele>169.33</ele>
        <time>2012-09-05T14:46:03Z</time>
      </trkpt>
      <trkpt lat="45.88108" lon="4.8266">
        <ele>169.33</ele>
        <time>2012-09-05T14:46:14Z</time>
      </trkpt>
      <trkpt lat="45.88131" lon="4.82564">
        <ele>169.81</ele>
        <time>2012-09-05T14:46:31Z</time>
      </trkpt>
      <trkpt lat="45.88136" lon="4.82547">
        <ele>169.33</ele>
        <time>2012-09-05T14:46:34Z</time>
      </trkpt>
      <trkpt lat="45.88138" lon="4.82542">
        <ele>169.81</ele>
        <time>2012-09-05T14:46:35Z</time>
      </trkpt>
      <trkpt lat="45.88141" lon="4.8253">
        <ele>169.33</ele>
        <time>2012-09-05T14:46:37Z</time>
      </trkpt>
      <trkpt lat="45.88142" lon="4.82524">
        <ele>169.33</ele>
        <time>2012-09-05T14:46:38Z</time>
      </trkpt>
      <trkpt lat="45.88159" lon="4.82458">
        <ele>169.81</ele>
        <time>2012-09-05T14:46:51Z</time>
      </trkpt>
      <trkpt lat="45.88177" lon="4.82384">
        <ele>169.33</ele>
        <time>2012-09-05T14:47:04Z</time>
      </trkpt>
      <trkpt lat="45.88178" lon="4.82378">
        <ele>169.81</ele>
        <time>2012-09-05T14:47:05Z</time>
      </trkpt>
      <trkpt lat="45.88201" lon="4.823">
        <ele>169.33</ele>
        <time>2012-09-05T14:47:20Z</time>
      </trkpt>
      <trkpt lat="45.88223" lon="4.82219">
        <ele>169.33</ele>
        <time>2012-09-05T14:47:35Z</time>
      </trkpt>
      <trkpt lat="45.88238" lon="4.82164">
        <ele>169.33</ele>
        <time>2012-09-05T14:47:48Z</time>
      </trkpt>
      <trkpt lat="45.88256" lon="4.82123">
        <ele>169.33</ele>
        <time>2012-09-05T14:47:59Z</time>
      </trkpt>
      <trkpt lat="45.88269" lon="4.82083">
        <ele>169.33</ele>
        <time>2012-09-05T14:48:08Z</time>
      </trkpt>
      <trkpt lat="45.88285" lon="4.82041">
        <ele>169.81</ele>
        <time>2012-09-05T14:48:20Z</time>
      </trkpt>
      <trkpt lat="45.88309" lon="4.81982">
        <ele>169.81</ele>
        <time>2012-09-05T14:48:33Z</time>
      </trkpt>
      <trkpt lat="45.88336" lon="4.81917">
        <ele>171.25</ele>
        <time>2012-09-05T14:48:47Z</time>
      </trkpt>
      <trkpt lat="45.88362" lon="4.81858">
        <ele>169.33</ele>
        <time>2012-09-05T14:49:01Z</time>
      </trkpt>
      <trkpt lat="45.88378" lon="4.81835">
        <ele>169.81</ele>
        <time>2012-09-05T14:49:12Z</time>
      </trkpt>
      <trkpt lat="45.88379" lon="4.81833">
        <ele>169.81</ele>
        <time>2012-09-05T14:49:13Z</time>
      </trkpt>
      <trkpt lat="45.8839" lon="4.81806">
        <ele>169.33</ele>
        <time>2012-09-05T14:49:23Z</time>
      </trkpt>
      <trkpt lat="45.88404" lon="4.81778">
        <ele>169.33</ele>
        <time>2012-09-05T14:49:36Z</time>
      </trkpt>
      <trkpt lat="45.88425" lon="4.81741">
        <ele>169.81</ele>
        <time>2012-09-05T14:49:47Z</time>
      </trkpt>
      <trkpt lat="45.8845" lon="4.81698">
        <ele>169.81</ele>
        <time>2012-09-05T14:49:58Z</time>
      </trkpt>
      <trkpt lat="45.88477" lon="4.81662">
        <ele>169.81</ele>
        <time>2012-09-05T14:50:07Z</time>
      </trkpt>
      <trkpt lat="45.88524" lon="4.81604">
        <ele>169.81</ele>
        <time>2012-09-05T14:50:22Z</time>
      </trkpt>
      <trkpt lat="45.88527" lon="4.816">
        <ele>169.81</ele>
        <time>2012-09-05T14:50:23Z</time>
      </trkpt>
      <trkpt lat="45.88564" lon="4.81554">
        <ele>169.81</ele>
        <time>2012-09-05T14:50:35Z</time>
      </trkpt>
      <trkpt lat="45.88566" lon="4.8155">
        <ele>169.81</ele>
        <time>2012-09-05T14:50:36Z</time>
      </trkpt>
      <trkpt lat="45.88575" lon="4.81538">
        <ele>169.81</ele>
        <time>2012-09-05T14:50:39Z</time>
      </trkpt>
      <trkpt lat="45.88617" lon="4.81485">
        <ele>169.81</ele>
        <time>2012-09-05T14:50:53Z</time>
      </trkpt>
      <trkpt lat="45.8867" lon="4.81416">
        <ele>169.81</ele>
        <time>2012-09-05T14:51:10Z</time>
      </trkpt>
      <trkpt lat="45.88695" lon="4.81384">
        <ele>170.29</ele>
        <time>2012-09-05T14:51:18Z</time>
      </trkpt>
      <trkpt lat="45.88735" lon="4.81333">
        <ele>170.29</ele>
        <time>2012-09-05T14:51:32Z</time>
      </trkpt>
      <trkpt lat="45.88778" lon="4.81283">
        <ele>170.29</ele>
        <time>2012-09-05T14:51:46Z</time>
      </trkpt>
      <trkpt lat="45.88816" lon="4.81241">
        <ele>169.81</ele>
        <time>2012-09-05T14:51:59Z</time>
      </trkpt>
      <trkpt lat="45.88873" lon="4.81189">
        <ele>170.29</ele>
        <time>2012-09-05T14:52:15Z</time>
      </trkpt>
      <trkpt lat="45.88932" lon="4.81143">
        <ele>170.29</ele>
        <time>2012-09-05T14:52:31Z</time>
      </trkpt>
      <trkpt lat="45.88985" lon="4.81104">
        <ele>169.81</ele>
        <time>2012-09-05T14:52:46Z</time>
      </trkpt>
      <trkpt lat="45.89028" lon="4.81071">
        <ele>169.81</ele>
        <time>2012-09-05T14:52:59Z</time>
      </trkpt>
      <trkpt lat="45.89078" lon="4.81035">
        <ele>169.81</ele>
        <time>2012-09-05T14:53:13Z</time>
      </trkpt>
      <trkpt lat="45.89134" lon="4.80994">
        <ele>170.29</ele>
        <time>2012-09-05T14:53:29Z</time>
      </trkpt>
      <trkpt lat="45.89188" lon="4.80953">
        <ele>169.81</ele>
        <time>2012-09-05T14:53:44Z</time>
      </trkpt>
      <trkpt lat="45.89227" lon="4.80923">
        <ele>169.33</ele>
        <time>2012-09-05T14:53:58Z</time>
      </trkpt>
      <trkpt lat="45.89238" lon="4.80913">
        <ele>167.41</ele>
        <time>2012-09-05T14:54:09Z</time>
      </trkpt>
      <trkpt lat="45.89238" lon="4.80914">
        <ele>167.89</ele>
        <time>2012-09-05T14:54:28Z</time>
      </trkpt>
      <trkpt lat="45.89239" lon="4.80912">
        <ele>168.85</ele>
        <time>2012-09-05T14:54:49Z</time>
      </trkpt>
      <trkpt lat="45.89269" lon="4.80891">
        <ele>168.37</ele>
        <time>2012-09-05T14:55:02Z</time>
      </trkpt>
      <trkpt lat="45.893" lon="4.8087">
        <ele>167.89</ele>
        <time>2012-09-05T14:55:13Z</time>
      </trkpt>
      <trkpt lat="45.89347" lon="4.80844">
        <ele>167.89</ele>
        <time>2012-09-05T14:55:27Z</time>
      </trkpt>
      <trkpt lat="45.89391" lon="4.80819">
        <ele>167.89</ele>
        <time>2012-09-05T14:55:40Z</time>
      </trkpt>
      <trkpt lat="45.8941" lon="4.80808">
        <ele>167.89</ele>
        <time>2012-09-05T14:55:49Z</time>
      </trkpt>
      <trkpt lat="45.89412" lon="4.80807">
        <ele>167.89</ele>
        <time>2012-09-05T14:55:50Z</time>
      </trkpt>
      <trkpt lat="45.89414" lon="4.80806">
        <ele>167.89</ele>
        <time>2012-09-05T14:55:51Z</time>
      </trkpt>
      <trkpt lat="45.89418" lon="4.80805">
        <ele>167.89</ele>
        <time>2012-09-05T14:55:54Z</time>
      </trkpt>
      <trkpt lat="45.8944" lon="4.80796">
        <ele>167.41</ele>
        <time>2012-09-05T14:56:06Z</time>
      </trkpt>
      <trkpt lat="45.89441" lon="4.80795">
        <ele>167.41</ele>
        <time>2012-09-05T14:56:07Z</time>
      </trkpt>
      <trkpt lat="45.89442" lon="4.80794">
        <ele>167.89</ele>
        <time>2012-09-05T14:56:08Z</time>
      </trkpt>
      <trkpt lat="45.89444" lon="4.80791">
        <ele>167.89</ele>
        <time>2012-09-05T14:56:21Z</time>
      </trkpt>
      <trkpt lat="45.89445" lon="4.80789">
        <ele>167.41</ele>
        <time>2012-09-05T14:56:38Z</time>
      </trkpt>
      <trkpt lat="45.89449" lon="4.80786">
        <ele>167.89</ele>
        <time>2012-09-05T14:56:43Z</time>
      </trkpt>
      <trkpt lat="45.8945" lon="4.80785">
        <ele>167.89</ele>
        <time>2012-09-05T14:56:44Z</time>
      </trkpt>
      <trkpt lat="45.89452" lon="4.80784">
        <ele>167.41</ele>
        <time>2012-09-05T14:56:45Z</time>
      </trkpt>
      <trkpt lat="45.89458" lon="4.80779">
        <ele>166.93</ele>
        <time>2012-09-05T14:56:59Z</time>
      </trkpt>
      <trkpt lat="45.89459" lon="4.80779">
        <ele>167.89</ele>
        <time>2012-09-05T14:57:16Z</time>
      </trkpt>
      <trkpt lat="45.89459" lon="4.80778">
        <ele>167.89</ele>
        <time>2012-09-05T14:57:44Z</time>
      </trkpt>
      <trkpt lat="45.8946" lon="4.80778">
        <ele>167.89</ele>
        <time>2012-09-05T14:58:15Z</time>
      </trkpt>
      <trkpt lat="45.89474" lon="4.8077">
        <ele>167.89</ele>
        <time>2012-09-05T14:58:27Z</time>
      </trkpt>
      <trkpt lat="45.89495" lon="4.80758">
        <ele>167.89</ele>
        <time>2012-09-05T14:58:39Z</time>
      </trkpt>
      <trkpt lat="45.89509" lon="4.80753">
        <ele>168.85</ele>
        <time>2012-09-05T14:58:51Z</time>
      </trkpt>
      <trkpt lat="45.89509" lon="4.80753">
        <ele>163.08</ele>
        <time>2012-09-05T14:59:04Z</time>
      </trkpt>
      <trkpt lat="45.89509" lon="4.80753">
        <ele>172.21</ele>
        <time>2012-09-05T14:59:05Z</time>
      </trkpt>
      <trkpt lat="45.89509" lon="4.80753">
        <ele>168.37</ele>
        <time>2012-09-05T14:59:06Z</time>
      </trkpt>
      <trkpt lat="45.89511" lon="4.80754">
        <ele>167.89</ele>
        <time>2012-09-05T14:59:33Z</time>
      </trkpt>
      <trkpt lat="45.89511" lon="4.80754">
        <ele>169.81</ele>
        <time>2012-09-05T14:59:57Z</time>
      </trkpt>
      <trkpt lat="45.89511" lon="4.80754">
        <ele>165.96</ele>
        <time>2012-09-05T14:59:59Z</time>
      </trkpt>
      <trkpt lat="45.89511" lon="4.80754">
        <ele>169.81</ele>
        <time>2012-09-05T15:00:00Z</time>
      </trkpt>
      <trkpt lat="45.89514" lon="4.80751">
        <ele>167.89</ele>
        <time>2012-09-05T15:00:12Z</time>
      </trkpt>
      <trkpt lat="45.89515" lon="4.8075">
        <ele>168.37</ele>
        <time>2012-09-05T15:00:13Z</time>
      </trkpt>
      <trkpt lat="45.89518" lon="4.80748">
        <ele>168.37</ele>
        <time>2012-09-05T15:00:15Z</time>
      </trkpt>
      <trkpt lat="45.8952" lon="4.80747">
        <ele>168.37</ele>
        <time>2012-09-05T15:00:16Z</time>
      </trkpt>
      <trkpt lat="45.89522" lon="4.80746">
        <ele>168.37</ele>
        <time>2012-09-05T15:00:17Z</time>
      </trkpt>
      <trkpt lat="45.89525" lon="4.80744">
        <ele>168.37</ele>
        <time>2012-09-05T15:00:18Z</time>
      </trkpt>
      <trkpt lat="45.89528" lon="4.80742">
        <ele>167.89</ele>
        <time>2012-09-05T15:00:19Z</time>
      </trkpt>
      <trkpt lat="45.8953" lon="4.8074">
        <ele>167.89</ele>
        <time>2012-09-05T15:00:20Z</time>
      </trkpt>
      <trkpt lat="45.89534" lon="4.80738">
        <ele>167.89</ele>
        <time>2012-09-05T15:00:21Z</time>
      </trkpt>
      <trkpt lat="45.89575" lon="4.8072">
        <ele>168.37</ele>
        <time>2012-09-05T15:00:32Z</time>
      </trkpt>
      <trkpt lat="45.89579" lon="4.80718">
        <ele>168.37</ele>
        <time>2012-09-05T15:00:33Z</time>
      </trkpt>
      <trkpt lat="45.89627" lon="4.80709">
        <ele>168.85</ele>
        <time>2012-09-05T15:00:45Z</time>
      </trkpt>
      <trkpt lat="45.89669" lon="4.80696">
        <ele>169.33</ele>
        <time>2012-09-05T15:00:57Z</time>
      </trkpt>
      <trkpt lat="45.89709" lon="4.80674">
        <ele>168.37</ele>
        <time>2012-09-05T15:01:08Z</time>
      </trkpt>
      <trkpt lat="45.89712" lon="4.8067">
        <ele>168.37</ele>
        <time>2012-09-05T15:01:18Z</time>
      </trkpt>
      <trkpt lat="45.89713" lon="4.80668">
        <ele>168.37</ele>
        <time>2012-09-05T15:01:42Z</time>
      </trkpt>
      <trkpt lat="45.89714" lon="4.80668">
        <ele>168.85</ele>
        <time>2012-09-05T15:01:51Z</time>
      </trkpt>
      <trkpt lat="45.89715" lon="4.80667">
        <ele>168.85</ele>
        <time>2012-09-05T15:01:52Z</time>
      </trkpt>
      <trkpt lat="45.89717" lon="4.80666">
        <ele>168.85</ele>
        <time>2012-09-05T15:01:53Z</time>
      </trkpt>
      <trkpt lat="45.89719" lon="4.80665">
        <ele>168.85</ele>
        <time>2012-09-05T15:01:54Z</time>
      </trkpt>
      <trkpt lat="45.89722" lon="4.80663">
        <ele>168.37</ele>
        <time>2012-09-05T15:01:55Z</time>
      </trkpt>
      <trkpt lat="45.89725" lon="4.80661">
        <ele>168.85</ele>
        <time>2012-09-05T15:01:56Z</time>
      </trkpt>
      <trkpt lat="45.89743" lon="4.80647">
        <ele>168.37</ele>
        <time>2012-09-05T15:02:01Z</time>
      </trkpt>
      <trkpt lat="45.89747" lon="4.80643">
        <ele>168.37</ele>
        <time>2012-09-05T15:02:02Z</time>
      </trkpt>
      <trkpt lat="45.8975" lon="4.80639">
        <ele>168.85</ele>
        <time>2012-09-05T15:02:03Z</time>
      </trkpt>
      <trkpt lat="45.89755" lon="4.80635">
        <ele>168.85</ele>
        <time>2012-09-05T15:02:04Z</time>
      </trkpt>
      <trkpt lat="45.89759" lon="4.80632">
        <ele>168.85</ele>
        <time>2012-09-05T15:02:05Z</time>
      </trkpt>
      <trkpt lat="45.89773" lon="4.80619">
        <ele>168.37</ele>
        <time>2012-09-05T15:02:09Z</time>
      </trkpt>
      <trkpt lat="45.89782" lon="4.80611">
        <ele>168.37</ele>
        <time>2012-09-05T15:02:11Z</time>
      </trkpt>
      <trkpt lat="45.89786" lon="4.80607">
        <ele>168.37</ele>
        <time>2012-09-05T15:02:12Z</time>
      </trkpt>
      <trkpt lat="45.8979" lon="4.80604">
        <ele>168.85</ele>
        <time>2012-09-05T15:02:13Z</time>
      </trkpt>
      <trkpt lat="45.89793" lon="4.80601">
        <ele>168.85</ele>
        <time>2012-09-05T15:02:14Z</time>
      </trkpt>
      <trkpt lat="45.89798" lon="4.80597">
        <ele>168.85</ele>
        <time>2012-09-05T15:02:15Z</time>
      </trkpt>
      <trkpt lat="45.89802" lon="4.80593">
        <ele>168.37</ele>
        <time>2012-09-05T15:02:16Z</time>
      </trkpt>
      <trkpt lat="45.89807" lon="4.8059">
        <ele>168.85</ele>
        <time>2012-09-05T15:02:17Z</time>
      </trkpt>
      <trkpt lat="45.8987" lon="4.80553">
        <ele>168.85</ele>
        <time>2012-09-05T15:02:30Z</time>
      </trkpt>
      <trkpt lat="45.89875" lon="4.80551">
        <ele>168.85</ele>
        <time>2012-09-05T15:02:31Z</time>
      </trkpt>
      <trkpt lat="45.89895" lon="4.80538">
        <ele>168.37</ele>
        <time>2012-09-05T15:02:35Z</time>
      </trkpt>
      <trkpt lat="45.899" lon="4.80535">
        <ele>168.37</ele>
        <time>2012-09-05T15:02:36Z</time>
      </trkpt>
      <trkpt lat="45.89921" lon="4.80522">
        <ele>168.37</ele>
        <time>2012-09-05T15:02:41Z</time>
      </trkpt>
      <trkpt lat="45.89926" lon="4.8052">
        <ele>168.85</ele>
        <time>2012-09-05T15:02:42Z</time>
      </trkpt>
      <trkpt lat="45.89931" lon="4.80519">
        <ele>168.85</ele>
        <time>2012-09-05T15:02:43Z</time>
      </trkpt>
      <trkpt lat="45.89935" lon="4.80518">
        <ele>168.37</ele>
        <time>2012-09-05T15:02:44Z</time>
      </trkpt>
      <trkpt lat="45.8994" lon="4.80517">
        <ele>168.37</ele>
        <time>2012-09-05T15:02:45Z</time>
      </trkpt>
      <trkpt lat="45.89945" lon="4.80516">
        <ele>168.37</ele>
        <time>2012-09-05T15:02:46Z</time>
      </trkpt>
      <trkpt lat="45.89949" lon="4.80516">
        <ele>168.37</ele>
        <time>2012-09-05T15:02:47Z</time>
      </trkpt>
      <trkpt lat="45.89953" lon="4.80514">
        <ele>168.37</ele>
        <time>2012-09-05T15:02:48Z</time>
      </trkpt>
      <trkpt lat="45.89957" lon="4.80513">
        <ele>168.37</ele>
        <time>2012-09-05T15:02:49Z</time>
      </trkpt>
      <trkpt lat="45.89961" lon="4.80513">
        <ele>168.37</ele>
        <time>2012-09-05T15:02:50Z</time>
      </trkpt>
      <trkpt lat="45.90011" lon="4.80509">
        <ele>168.85</ele>
        <time>2012-09-05T15:03:02Z</time>
      </trkpt>
      <trkpt lat="45.9005" lon="4.80515">
        <ele>168.37</ele>
        <time>2012-09-05T15:03:12Z</time>
      </trkpt>
      <trkpt lat="45.90072" lon="4.80515">
        <ele>168.37</ele>
        <time>2012-09-05T15:03:17Z</time>
      </trkpt>
      <trkpt lat="45.9012" lon="4.80527">
        <ele>168.85</ele>
        <time>2012-09-05T15:03:29Z</time>
      </trkpt>
      <trkpt lat="45.90164" lon="4.80541">
        <ele>168.85</ele>
        <time>2012-09-05T15:03:40Z</time>
      </trkpt>
      <trkpt lat="45.90215" lon="4.80566">
        <ele>168.85</ele>
        <time>2012-09-05T15:03:54Z</time>
      </trkpt>
      <trkpt lat="45.90252" lon="4.80593">
        <ele>168.85</ele>
        <time>2012-09-05T15:04:05Z</time>
      </trkpt>
      <trkpt lat="45.90298" lon="4.80629">
        <ele>168.85</ele>
        <time>2012-09-05T15:04:19Z</time>
      </trkpt>
      <trkpt lat="45.90336" lon="4.80669">
        <ele>168.85</ele>
        <time>2012-09-05T15:04:32Z</time>
      </trkpt>
      <trkpt lat="45.90353" lon="4.80691">
        <ele>168.37</ele>
        <time>2012-09-05T15:04:40Z</time>
      </trkpt>
      <trkpt lat="45.90357" lon="4.80696">
        <ele>168.37</ele>
        <time>2012-09-05T15:04:41Z</time>
      </trkpt>
      <trkpt lat="45.90361" lon="4.807">
        <ele>168.37</ele>
        <time>2012-09-05T15:04:42Z</time>
      </trkpt>
      <trkpt lat="45.90364" lon="4.80704">
        <ele>168.37</ele>
        <time>2012-09-05T15:04:43Z</time>
      </trkpt>
      <trkpt lat="45.90367" lon="4.80709">
        <ele>168.37</ele>
        <time>2012-09-05T15:04:44Z</time>
      </trkpt>
      <trkpt lat="45.9037" lon="4.80714">
        <ele>168.37</ele>
        <time>2012-09-05T15:04:45Z</time>
      </trkpt>
      <trkpt lat="45.90373" lon="4.80718">
        <ele>168.37</ele>
        <time>2012-09-05T15:04:46Z</time>
      </trkpt>
      <trkpt lat="45.90376" lon="4.80723">
        <ele>168.37</ele>
        <time>2012-09-05T15:04:47Z</time>
      </trkpt>
      <trkpt lat="45.90407" lon="4.80778">
        <ele>168.37</ele>
        <time>2012-09-05T15:05:00Z</time>
      </trkpt>
      <trkpt lat="45.90431" lon="4.80824">
        <ele>168.37</ele>
        <time>2012-09-05T15:05:11Z</time>
      </trkpt>
      <trkpt lat="45.90446" lon="4.80857">
        <ele>168.37</ele>
        <time>2012-09-05T15:05:18Z</time>
      </trkpt>
      <trkpt lat="45.90449" lon="4.80862">
        <ele>168.37</ele>
        <time>2012-09-05T15:05:19Z</time>
      </trkpt>
      <trkpt lat="45.90486" lon="4.80932">
        <ele>168.37</ele>
        <time>2012-09-05T15:05:32Z</time>
      </trkpt>
      <trkpt lat="45.90506" lon="4.80958">
        <ele>168.37</ele>
        <time>2012-09-05T15:05:38Z</time>
      </trkpt>
      <trkpt lat="45.90557" lon="4.81016">
        <ele>167.89</ele>
        <time>2012-09-05T15:05:53Z</time>
      </trkpt>
      <trkpt lat="45.90571" lon="4.81037">
        <ele>168.85</ele>
        <time>2012-09-05T15:06:01Z</time>
      </trkpt>
      <trkpt lat="45.90573" lon="4.81038">
        <ele>168.85</ele>
        <time>2012-09-05T15:06:02Z</time>
      </trkpt>
      <trkpt lat="45.90575" lon="4.81041">
        <ele>168.85</ele>
        <time>2012-09-05T15:06:03Z</time>
      </trkpt>
      <trkpt lat="45.90576" lon="4.81043">
        <ele>168.85</ele>
        <time>2012-09-05T15:06:04Z</time>
      </trkpt>
      <trkpt lat="45.90578" lon="4.81046">
        <ele>168.85</ele>
        <time>2012-09-05T15:06:05Z</time>
      </trkpt>
      <trkpt lat="45.9058" lon="4.81048">
        <ele>169.33</ele>
        <time>2012-09-05T15:06:06Z</time>
      </trkpt>
      <trkpt lat="45.90582" lon="4.81049">
        <ele>169.33</ele>
        <time>2012-09-05T15:06:07Z</time>
      </trkpt>
      <trkpt lat="45.90584" lon="4.81051">
        <ele>169.33</ele>
        <time>2012-09-05T15:06:08Z</time>
      </trkpt>
      <trkpt lat="45.90586" lon="4.81054">
        <ele>169.33</ele>
        <time>2012-09-05T15:06:09Z</time>
      </trkpt>
      <trkpt lat="45.90589" lon="4.81056">
        <ele>169.33</ele>
        <time>2012-09-05T15:06:10Z</time>
      </trkpt>
      <trkpt lat="45.90619" lon="4.81085">
        <ele>169.33</ele>
        <time>2012-09-05T15:06:22Z</time>
      </trkpt>
      <trkpt lat="45.90645" lon="4.81113">
        <ele>169.33</ele>
        <time>2012-09-05T15:06:35Z</time>
      </trkpt>
      <trkpt lat="45.90653" lon="4.81117">
        <ele>169.33</ele>
        <time>2012-09-05T15:06:40Z</time>
      </trkpt>
      <trkpt lat="45.90675" lon="4.81136">
        <ele>169.33</ele>
        <time>2012-09-05T15:06:52Z</time>
      </trkpt>
      <trkpt lat="45.90713" lon="4.81159">
        <ele>169.33</ele>
        <time>2012-09-05T15:07:04Z</time>
      </trkpt>
      <trkpt lat="45.9075" lon="4.8118">
        <ele>169.33</ele>
        <time>2012-09-05T15:07:16Z</time>
      </trkpt>
      <trkpt lat="45.90751" lon="4.81178">
        <ele>169.33</ele>
        <time>2012-09-05T15:07:17Z</time>
      </trkpt>
      <trkpt lat="45.9075" lon="4.81177">
        <ele>169.33</ele>
        <time>2012-09-05T15:07:18Z</time>
      </trkpt>
      <trkpt lat="45.90748" lon="4.81176">
        <ele>169.33</ele>
        <time>2012-09-05T15:07:19Z</time>
      </trkpt>
      <trkpt lat="45.90746" lon="4.81175">
        <ele>169.33</ele>
        <time>2012-09-05T15:07:20Z</time>
      </trkpt>
      <trkpt lat="45.9074" lon="4.81175">
        <ele>169.33</ele>
        <time>2012-09-05T15:07:32Z</time>
      </trkpt>
      <trkpt lat="45.90739" lon="4.81175">
        <ele>169.33</ele>
        <time>2012-09-05T15:08:06Z</time>
      </trkpt>
      <trkpt lat="45.90738" lon="4.81174">
        <ele>169.33</ele>
        <time>2012-09-05T15:08:38Z</time>
      </trkpt>
      <trkpt lat="45.9074" lon="4.81177">
        <ele>169.81</ele>
        <time>2012-09-05T15:08:56Z</time>
      </trkpt>
      <trkpt lat="45.90743" lon="4.81176">
        <ele>169.33</ele>
        <time>2012-09-05T15:08:58Z</time>
      </trkpt>
      <trkpt lat="45.90745" lon="4.81176">
        <ele>169.33</ele>
        <time>2012-09-05T15:08:59Z</time>
      </trkpt>
      <trkpt lat="45.90748" lon="4.81176">
        <ele>169.33</ele>
        <time>2012-09-05T15:09:00Z</time>
      </trkpt>
      <trkpt lat="45.90773" lon="4.81189">
        <ele>169.33</ele>
        <time>2012-09-05T15:09:11Z</time>
      </trkpt>
      <trkpt lat="45.90798" lon="4.81197">
        <ele>169.81</ele>
        <time>2012-09-05T15:09:22Z</time>
      </trkpt>
      <trkpt lat="45.90855" lon="4.81215">
        <ele>169.81</ele>
        <time>2012-09-05T15:09:36Z</time>
      </trkpt>
      <trkpt lat="45.90912" lon="4.81229">
        <ele>169.81</ele>
        <time>2012-09-05T15:09:50Z</time>
      </trkpt>
      <trkpt lat="45.90957" lon="4.81241">
        <ele>169.81</ele>
        <time>2012-09-05T15:10:02Z</time>
      </trkpt>
      <trkpt lat="45.90996" lon="4.81247">
        <ele>169.33</ele>
        <time>2012-09-05T15:10:11Z</time>
      </trkpt>
      <trkpt lat="45.91" lon="4.81246">
        <ele>169.33</ele>
        <time>2012-09-05T15:10:12Z</time>
      </trkpt>
      <trkpt lat="45.91032" lon="4.81212">
        <ele>169.81</ele>
        <time>2012-09-05T15:10:23Z</time>
      </trkpt>
      <trkpt lat="45.91073" lon="4.81178">
        <ele>169.81</ele>
        <time>2012-09-05T15:10:35Z</time>
      </trkpt>
      <trkpt lat="45.91081" lon="4.81175">
        <ele>169.81</ele>
        <time>2012-09-05T15:10:37Z</time>
      </trkpt>
      <trkpt lat="45.91128" lon="4.81171">
        <ele>169.81</ele>
        <time>2012-09-05T15:10:48Z</time>
      </trkpt>
      <trkpt lat="45.91189" lon="4.81161">
        <ele>170.29</ele>
        <time>2012-09-05T15:11:03Z</time>
      </trkpt>
      <trkpt lat="45.91222" lon="4.81158">
        <ele>169.81</ele>
        <time>2012-09-05T15:11:15Z</time>
      </trkpt>
      <trkpt lat="45.91224" lon="4.81159">
        <ele>169.81</ele>
        <time>2012-09-05T15:11:16Z</time>
      </trkpt>
      <trkpt lat="45.91252" lon="4.81156">
        <ele>169.81</ele>
        <time>2012-09-05T15:11:28Z</time>
      </trkpt>
      <trkpt lat="45.91267" lon="4.8116">
        <ele>169.81</ele>
        <time>2012-09-05T15:11:37Z</time>
      </trkpt>
      <trkpt lat="45.91269" lon="4.8116">
        <ele>169.81</ele>
        <time>2012-09-05T15:11:38Z</time>
      </trkpt>
      <trkpt lat="45.91286" lon="4.81158">
        <ele>169.81</ele>
        <time>2012-09-05T15:11:52Z</time>
      </trkpt>
      <trkpt lat="45.91287" lon="4.81158">
        <ele>169.81</ele>
        <time>2012-09-05T15:11:53Z</time>
      </trkpt>
      <trkpt lat="45.91288" lon="4.81159">
        <ele>169.81</ele>
        <time>2012-09-05T15:11:54Z</time>
      </trkpt>
      <trkpt lat="45.9129" lon="4.81159">
        <ele>169.81</ele>
        <time>2012-09-05T15:11:55Z</time>
      </trkpt>
      <trkpt lat="45.91291" lon="4.81159">
        <ele>169.81</ele>
        <time>2012-09-05T15:11:56Z</time>
      </trkpt>
      <trkpt lat="45.91293" lon="4.8116">
        <ele>169.81</ele>
        <time>2012-09-05T15:11:57Z</time>
      </trkpt>
      <trkpt lat="45.91316" lon="4.81161">
        <ele>169.81</ele>
        <time>2012-09-05T15:12:10Z</time>
      </trkpt>
      <trkpt lat="45.91364" lon="4.81162">
        <ele>169.81</ele>
        <time>2012-09-05T15:12:24Z</time>
      </trkpt>
      <trkpt lat="45.91372" lon="4.81163">
        <ele>169.81</ele>
        <time>2012-09-05T15:12:26Z</time>
      </trkpt>
      <trkpt lat="45.91417" lon="4.81188">
        <ele>169.81</ele>
        <time>2012-09-05T15:12:39Z</time>
      </trkpt>
      <trkpt lat="45.91417" lon="4.8119">
        <ele>169.81</ele>
        <time>2012-09-05T15:12:40Z</time>
      </trkpt>
      <trkpt lat="45.91418" lon="4.81192">
        <ele>169.81</ele>
        <time>2012-09-05T15:12:41Z</time>
      </trkpt>
      <trkpt lat="45.9142" lon="4.81193">
        <ele>169.81</ele>
        <time>2012-09-05T15:12:42Z</time>
      </trkpt>
      <trkpt lat="45.91422" lon="4.81194">
        <ele>169.81</ele>
        <time>2012-09-05T15:12:43Z</time>
      </trkpt>
      <trkpt lat="45.91425" lon="4.81195">
        <ele>169.81</ele>
        <time>2012-09-05T15:12:44Z</time>
      </trkpt>
      <trkpt lat="45.91427" lon="4.81196">
        <ele>169.81</ele>
        <time>2012-09-05T15:12:45Z</time>
      </trkpt>
      <trkpt lat="45.91431" lon="4.81198">
        <ele>169.81</ele>
        <time>2012-09-05T15:12:46Z</time>
      </trkpt>
      <trkpt lat="45.91469" lon="4.81214">
        <ele>171.25</ele>
        <time>2012-09-05T15:12:57Z</time>
      </trkpt>
      <trkpt lat="45.91518" lon="4.81214">
        <ele>169.81</ele>
        <time>2012-09-05T15:13:10Z</time>
      </trkpt>
      <trkpt lat="45.91556" lon="4.81212">
        <ele>169.81</ele>
        <time>2012-09-05T15:13:21Z</time>
      </trkpt>
      <trkpt lat="45.91627" lon="4.81211">
        <ele>169.81</ele>
        <time>2012-09-05T15:13:38Z</time>
      </trkpt>
      <trkpt lat="45.91689" lon="4.81204">
        <ele>169.81</ele>
        <time>2012-09-05T15:13:53Z</time>
      </trkpt>
      <trkpt lat="45.91709" lon="4.81199">
        <ele>169.81</ele>
        <time>2012-09-05T15:13:58Z</time>
      </trkpt>
      <trkpt lat="45.91736" lon="4.81195">
        <ele>169.33</ele>
        <time>2012-09-05T15:14:04Z</time>
      </trkpt>
      <trkpt lat="45.91741" lon="4.81195">
        <ele>169.33</ele>
        <time>2012-09-05T15:14:05Z</time>
      </trkpt>
      <trkpt lat="45.91745" lon="4.81194">
        <ele>169.33</ele>
        <time>2012-09-05T15:14:06Z</time>
      </trkpt>
      <trkpt lat="45.91788" lon="4.81184">
        <ele>169.33</ele>
        <time>2012-09-05T15:14:16Z</time>
      </trkpt>
      <trkpt lat="45.91828" lon="4.81177">
        <ele>169.81</ele>
        <time>2012-09-05T15:14:25Z</time>
      </trkpt>
      <trkpt lat="45.91832" lon="4.81177">
        <ele>169.81</ele>
        <time>2012-09-05T15:14:26Z</time>
      </trkpt>
      <trkpt lat="45.91875" lon="4.81167">
        <ele>169.81</ele>
        <time>2012-09-05T15:14:39Z</time>
      </trkpt>
      <trkpt lat="45.91911" lon="4.81152">
        <ele>170.29</ele>
        <time>2012-09-05T15:14:51Z</time>
      </trkpt>
      <trkpt lat="45.91913" lon="4.81151">
        <ele>169.81</ele>
        <time>2012-09-05T15:14:52Z</time>
      </trkpt>
      <trkpt lat="45.91915" lon="4.8115">
        <ele>169.81</ele>
        <time>2012-09-05T15:14:53Z</time>
      </trkpt>
      <trkpt lat="45.91917" lon="4.81149">
        <ele>169.81</ele>
        <time>2012-09-05T15:14:54Z</time>
      </trkpt>
      <trkpt lat="45.9192" lon="4.81148">
        <ele>169.81</ele>
        <time>2012-09-05T15:14:55Z</time>
      </trkpt>
      <trkpt lat="45.91922" lon="4.81147">
        <ele>169.81</ele>
        <time>2012-09-05T15:14:56Z</time>
      </trkpt>
      <trkpt lat="45.91954" lon="4.81132">
        <ele>169.81</ele>
        <time>2012-09-05T15:15:08Z</time>
      </trkpt>
      <trkpt lat="45.92004" lon="4.81101">
        <ele>169.81</ele>
        <time>2012-09-05T15:15:23Z</time>
      </trkpt>
      <trkpt lat="45.92045" lon="4.81066">
        <ele>170.29</ele>
        <time>2012-09-05T15:15:37Z</time>
      </trkpt>
      <trkpt lat="45.92079" lon="4.81037">
        <ele>170.29</ele>
        <time>2012-09-05T15:15:50Z</time>
      </trkpt>
      <trkpt lat="45.92111" lon="4.81016">
        <ele>170.29</ele>
        <time>2012-09-05T15:16:02Z</time>
      </trkpt>
      <trkpt lat="45.92138" lon="4.80981">
        <ele>170.29</ele>
        <time>2012-09-05T15:16:14Z</time>
      </trkpt>
      <trkpt lat="45.92168" lon="4.80949">
        <ele>170.77</ele>
        <time>2012-09-05T15:16:27Z</time>
      </trkpt>
      <trkpt lat="45.92193" lon="4.80899">
        <ele>170.29</ele>
        <time>2012-09-05T15:16:43Z</time>
      </trkpt>
      <trkpt lat="45.922" lon="4.8089">
        <ele>170.77</ele>
        <time>2012-09-05T15:16:46Z</time>
      </trkpt>
      <trkpt lat="45.92202" lon="4.80884">
        <ele>170.29</ele>
        <time>2012-09-05T15:16:48Z</time>
      </trkpt>
      <trkpt lat="45.92204" lon="4.80883">
        <ele>170.77</ele>
        <time>2012-09-05T15:16:49Z</time>
      </trkpt>
      <trkpt lat="45.92204" lon="4.80882">
        <ele>170.29</ele>
        <time>2012-09-05T15:16:56Z</time>
      </trkpt>
      <trkpt lat="45.92205" lon="4.8088">
        <ele>170.29</ele>
        <time>2012-09-05T15:16:57Z</time>
      </trkpt>
      <trkpt lat="45.92206" lon="4.80879">
        <ele>170.29</ele>
        <time>2012-09-05T15:16:58Z</time>
      </trkpt>
      <trkpt lat="45.92208" lon="4.80877">
        <ele>171.25</ele>
        <time>2012-09-05T15:16:59Z</time>
      </trkpt>
      <trkpt lat="45.9221" lon="4.80875">
        <ele>170.29</ele>
        <time>2012-09-05T15:17:00Z</time>
      </trkpt>
      <trkpt lat="45.92211" lon="4.80872">
        <ele>170.29</ele>
        <time>2012-09-05T15:17:01Z</time>
      </trkpt>
      <trkpt lat="45.92213" lon="4.8087">
        <ele>170.29</ele>
        <time>2012-09-05T15:17:02Z</time>
      </trkpt>
      <trkpt lat="45.92214" lon="4.80867">
        <ele>170.29</ele>
        <time>2012-09-05T15:17:03Z</time>
      </trkpt>
      <trkpt lat="45.92216" lon="4.80864">
        <ele>170.29</ele>
        <time>2012-09-05T15:17:04Z</time>
      </trkpt>
      <trkpt lat="45.92219" lon="4.80861">
        <ele>170.29</ele>
        <time>2012-09-05T15:17:05Z</time>
      </trkpt>
      <trkpt lat="45.92221" lon="4.80858">
        <ele>170.29</ele>
        <time>2012-09-05T15:17:06Z</time>
      </trkpt>
      <trkpt lat="45.92223" lon="4.80855">
        <ele>170.29</ele>
        <time>2012-09-05T15:17:07Z</time>
      </trkpt>
      <trkpt lat="45.92225" lon="4.80852">
        <ele>170.29</ele>
        <time>2012-09-05T15:17:08Z</time>
      </trkpt>
      <trkpt lat="45.92227" lon="4.80849">
        <ele>170.29</ele>
        <time>2012-09-05T15:17:09Z</time>
      </trkpt>
      <trkpt lat="45.92229" lon="4.80845">
        <ele>170.29</ele>
        <time>2012-09-05T15:17:10Z</time>
      </trkpt>
      <trkpt lat="45.92231" lon="4.80842">
        <ele>169.81</ele>
        <time>2012-09-05T15:17:11Z</time>
      </trkpt>
      <trkpt lat="45.92257" lon="4.80779">
        <ele>169.81</ele>
        <time>2012-09-05T15:17:25Z</time>
      </trkpt>
      <trkpt lat="45.92276" lon="4.80719">
        <ele>169.81</ele>
        <time>2012-09-05T15:17:38Z</time>
      </trkpt>
      <trkpt lat="45.92293" lon="4.80655">
        <ele>169.81</ele>
        <time>2012-09-05T15:17:51Z</time>
      </trkpt>
      <trkpt lat="45.92305" lon="4.80602">
        <ele>169.81</ele>
        <time>2012-09-05T15:18:02Z</time>
      </trkpt>
      <trkpt lat="45.92308" lon="4.80567">
        <ele>169.81</ele>
        <time>2012-09-05T15:18:09Z</time>
      </trkpt>
      <trkpt lat="45.92309" lon="4.80564">
        <ele>169.81</ele>
        <time>2012-09-05T15:18:10Z</time>
      </trkpt>
      <trkpt lat="45.9231" lon="4.8056">
        <ele>169.81</ele>
        <time>2012-09-05T15:18:11Z</time>
      </trkpt>
      <trkpt lat="45.92311" lon="4.80556">
        <ele>169.81</ele>
        <time>2012-09-05T15:18:12Z</time>
      </trkpt>
      <trkpt lat="45.92311" lon="4.80553">
        <ele>169.81</ele>
        <time>2012-09-05T15:18:13Z</time>
      </trkpt>
      <trkpt lat="45.92312" lon="4.8055">
        <ele>169.81</ele>
        <time>2012-09-05T15:18:14Z</time>
      </trkpt>
      <trkpt lat="45.92313" lon="4.80547">
        <ele>169.81</ele>
        <time>2012-09-05T15:18:15Z</time>
      </trkpt>
      <trkpt lat="45.92324" lon="4.8049">
        <ele>169.81</ele>
        <time>2012-09-05T15:18:28Z</time>
      </trkpt>
      <trkpt lat="45.92333" lon="4.80424">
        <ele>170.29</ele>
        <time>2012-09-05T15:18:41Z</time>
      </trkpt>
      <trkpt lat="45.92333" lon="4.80419">
        <ele>170.29</ele>
        <time>2012-09-05T15:18:42Z</time>
      </trkpt>
      <trkpt lat="45.92345" lon="4.80352">
        <ele>170.29</ele>
        <time>2012-09-05T15:18:54Z</time>
      </trkpt>
      <trkpt lat="45.92359" lon="4.80281">
        <ele>170.29</ele>
        <time>2012-09-05T15:19:07Z</time>
      </trkpt>
      <trkpt lat="45.92361" lon="4.80269">
        <ele>169.81</ele>
        <time>2012-09-05T15:19:09Z</time>
      </trkpt>
      <trkpt lat="45.92362" lon="4.80264">
        <ele>170.29</ele>
        <time>2012-09-05T15:19:10Z</time>
      </trkpt>
      <trkpt lat="45.92365" lon="4.80245">
        <ele>169.81</ele>
        <time>2012-09-05T15:19:13Z</time>
      </trkpt>
      <trkpt lat="45.92366" lon="4.80239">
        <ele>170.29</ele>
        <time>2012-09-05T15:19:14Z</time>
      </trkpt>
      <trkpt lat="45.92367" lon="4.80233">
        <ele>169.81</ele>
        <time>2012-09-05T15:19:15Z</time>
      </trkpt>
      <trkpt lat="45.92376" lon="4.80162">
        <ele>170.29</ele>
        <time>2012-09-05T15:19:27Z</time>
      </trkpt>
      <trkpt lat="45.92376" lon="4.80056">
        <ele>170.77</ele>
        <time>2012-09-05T15:19:44Z</time>
      </trkpt>
      <trkpt lat="45.92373" lon="4.80019">
        <ele>170.29</ele>
        <time>2012-09-05T15:19:50Z</time>
      </trkpt>
      <trkpt lat="45.92367" lon="4.7992">
        <ele>171.25</ele>
        <time>2012-09-05T15:20:07Z</time>
      </trkpt>
      <trkpt lat="45.92361" lon="4.79825">
        <ele>170.29</ele>
        <time>2012-09-05T15:20:23Z</time>
      </trkpt>
      <trkpt lat="45.9236" lon="4.79812">
        <ele>169.81</ele>
        <time>2012-09-05T15:20:25Z</time>
      </trkpt>
      <trkpt lat="45.92355" lon="4.79759">
        <ele>169.81</ele>
        <time>2012-09-05T15:20:34Z</time>
      </trkpt>
      <trkpt lat="45.92349" lon="4.79684">
        <ele>170.29</ele>
        <time>2012-09-05T15:20:47Z</time>
      </trkpt>
      <trkpt lat="45.92346" lon="4.79665">
        <ele>170.29</ele>
        <time>2012-09-05T15:20:51Z</time>
      </trkpt>
      <trkpt lat="45.92339" lon="4.79605">
        <ele>170.29</ele>
        <time>2012-09-05T15:21:02Z</time>
      </trkpt>
      <trkpt lat="45.9233" lon="4.79517">
        <ele>170.29</ele>
        <time>2012-09-05T15:21:18Z</time>
      </trkpt>
      <trkpt lat="45.92322" lon="4.79463">
        <ele>169.81</ele>
        <time>2012-09-05T15:21:28Z</time>
      </trkpt>
      <trkpt lat="45.92321" lon="4.79457">
        <ele>169.81</ele>
        <time>2012-09-05T15:21:29Z</time>
      </trkpt>
      <trkpt lat="45.92321" lon="4.79451">
        <ele>169.81</ele>
        <time>2012-09-05T15:21:30Z</time>
      </trkpt>
      <trkpt lat="45.92316" lon="4.79377">
        <ele>170.77</ele>
        <time>2012-09-05T15:21:43Z</time>
      </trkpt>
      <trkpt lat="45.92315" lon="4.79372">
        <ele>167.41</ele>
        <time>2012-09-05T15:21:44Z</time>
      </trkpt>
      <trkpt lat="45.92315" lon="4.79367">
        <ele>172.21</ele>
        <time>2012-09-05T15:21:45Z</time>
      </trkpt>
      <trkpt lat="45.92315" lon="4.79354">
        <ele>169.33</ele>
        <time>2012-09-05T15:21:48Z</time>
      </trkpt>
      <trkpt lat="45.92315" lon="4.79325">
        <ele>170.29</ele>
        <time>2012-09-05T15:22:01Z</time>
      </trkpt>
      <trkpt lat="45.92315" lon="4.79323">
        <ele>170.77</ele>
        <time>2012-09-05T15:22:30Z</time>
      </trkpt>
      <trkpt lat="45.92316" lon="4.7932">
        <ele>172.21</ele>
        <time>2012-09-05T15:22:56Z</time>
      </trkpt>
      <trkpt lat="45.92316" lon="4.79319">
        <ele>171.25</ele>
        <time>2012-09-05T15:23:02Z</time>
      </trkpt>
      <trkpt lat="45.92315" lon="4.79317">
        <ele>170.77</ele>
        <time>2012-09-05T15:23:29Z</time>
      </trkpt>
      <trkpt lat="45.92315" lon="4.79316">
        <ele>170.77</ele>
        <time>2012-09-05T15:23:57Z</time>
      </trkpt>
      <trkpt lat="45.92315" lon="4.79316">
        <ele>171.73</ele>
        <time>2012-09-05T15:24:18Z</time>
      </trkpt>
      <trkpt lat="45.92315" lon="4.79314">
        <ele>170.77</ele>
        <time>2012-09-05T15:24:44Z</time>
      </trkpt>
      <trkpt lat="45.92315" lon="4.79313">
        <ele>171.25</ele>
        <time>2012-09-05T15:24:45Z</time>
      </trkpt>
      <trkpt lat="45.92315" lon="4.79311">
        <ele>170.77</ele>
        <time>2012-09-05T15:24:46Z</time>
      </trkpt>
      <trkpt lat="45.92315" lon="4.79308">
        <ele>171.25</ele>
        <time>2012-09-05T15:24:47Z</time>
      </trkpt>
      <trkpt lat="45.92316" lon="4.79304">
        <ele>171.25</ele>
        <time>2012-09-05T15:24:48Z</time>
      </trkpt>
      <trkpt lat="45.92316" lon="4.79301">
        <ele>171.25</ele>
        <time>2012-09-05T15:24:49Z</time>
      </trkpt>
      <trkpt lat="45.92316" lon="4.79297">
        <ele>171.25</ele>
        <time>2012-09-05T15:24:50Z</time>
      </trkpt>
      <trkpt lat="45.92322" lon="4.79244">
        <ele>171.25</ele>
        <time>2012-09-05T15:25:02Z</time>
      </trkpt>
      <trkpt lat="45.92326" lon="4.79231">
        <ele>171.25</ele>
        <time>2012-09-05T15:25:05Z</time>
      </trkpt>
      <trkpt lat="45.92344" lon="4.7918">
        <ele>171.25</ele>
        <time>2012-09-05T15:25:15Z</time>
      </trkpt>
      <trkpt lat="45.92366" lon="4.79132">
        <ele>171.25</ele>
        <time>2012-09-05T15:25:26Z</time>
      </trkpt>
      <trkpt lat="45.92369" lon="4.7913">
        <ele>170.77</ele>
        <time>2012-09-05T15:25:29Z</time>
      </trkpt>
      <trkpt lat="45.9237" lon="4.79128">
        <ele>170.77</ele>
        <time>2012-09-05T15:25:30Z</time>
      </trkpt>
      <trkpt lat="45.92371" lon="4.79126">
        <ele>170.77</ele>
        <time>2012-09-05T15:25:31Z</time>
      </trkpt>
      <trkpt lat="45.92372" lon="4.79123">
        <ele>170.77</ele>
        <time>2012-09-05T15:25:32Z</time>
      </trkpt>
      <trkpt lat="45.92374" lon="4.7912">
        <ele>170.77</ele>
        <time>2012-09-05T15:25:33Z</time>
      </trkpt>
      <trkpt lat="45.92375" lon="4.79116">
        <ele>170.77</ele>
        <time>2012-09-05T15:25:34Z</time>
      </trkpt>
      <trkpt lat="45.92377" lon="4.79113">
        <ele>171.25</ele>
        <time>2012-09-05T15:25:35Z</time>
      </trkpt>
      <trkpt lat="45.9238" lon="4.79109">
        <ele>170.77</ele>
        <time>2012-09-05T15:25:36Z</time>
      </trkpt>
      <trkpt lat="45.92382" lon="4.79105">
        <ele>170.77</ele>
        <time>2012-09-05T15:25:37Z</time>
      </trkpt>
      <trkpt lat="45.92416" lon="4.79055">
        <ele>170.77</ele>
        <time>2012-09-05T15:25:50Z</time>
      </trkpt>
      <trkpt lat="45.92459" lon="4.78994">
        <ele>170.77</ele>
        <time>2012-09-05T15:26:05Z</time>
      </trkpt>
      <trkpt lat="45.92516" lon="4.78941">
        <ele>170.77</ele>
        <time>2012-09-05T15:26:21Z</time>
      </trkpt>
      <trkpt lat="45.92555" lon="4.78915">
        <ele>170.29</ele>
        <time>2012-09-05T15:26:34Z</time>
      </trkpt>
      <trkpt lat="45.92569" lon="4.7891">
        <ele>170.29</ele>
        <time>2012-09-05T15:26:43Z</time>
      </trkpt>
      <trkpt lat="45.92571" lon="4.78911">
        <ele>170.29</ele>
        <time>2012-09-05T15:26:44Z</time>
      </trkpt>
      <trkpt lat="45.92573" lon="4.78911">
        <ele>170.29</ele>
        <time>2012-09-05T15:26:46Z</time>
      </trkpt>
      <trkpt lat="45.92575" lon="4.78911">
        <ele>170.29</ele>
        <time>2012-09-05T15:26:47Z</time>
      </trkpt>
      <trkpt lat="45.92577" lon="4.7891">
        <ele>170.77</ele>
        <time>2012-09-05T15:26:48Z</time>
      </trkpt>
      <trkpt lat="45.92579" lon="4.7891">
        <ele>170.77</ele>
        <time>2012-09-05T15:26:49Z</time>
      </trkpt>
      <trkpt lat="45.9258" lon="4.78909">
        <ele>170.29</ele>
        <time>2012-09-05T15:26:50Z</time>
      </trkpt>
      <trkpt lat="45.92582" lon="4.78908">
        <ele>170.29</ele>
        <time>2012-09-05T15:26:51Z</time>
      </trkpt>
      <trkpt lat="45.92584" lon="4.78907">
        <ele>170.29</ele>
        <time>2012-09-05T15:26:52Z</time>
      </trkpt>
      <trkpt lat="45.92603" lon="4.78896">
        <ele>170.29</ele>
        <time>2012-09-05T15:27:03Z</time>
      </trkpt>
      <trkpt lat="45.9263" lon="4.78879">
        <ele>170.29</ele>
        <time>2012-09-05T15:27:13Z</time>
      </trkpt>
      <trkpt lat="45.92672" lon="4.78854">
        <ele>169.81</ele>
        <time>2012-09-05T15:27:25Z</time>
      </trkpt>
      <trkpt lat="45.92707" lon="4.7883">
        <ele>169.81</ele>
        <time>2012-09-05T15:27:36Z</time>
      </trkpt>
      <trkpt lat="45.92748" lon="4.78802">
        <ele>169.81</ele>
        <time>2012-09-05T15:27:50Z</time>
      </trkpt>
      <trkpt lat="45.92776" lon="4.78781">
        <ele>169.81</ele>
        <time>2012-09-05T15:28:00Z</time>
      </trkpt>
      <trkpt lat="45.92807" lon="4.78758">
        <ele>169.81</ele>
        <time>2012-09-05T15:28:10Z</time>
      </trkpt>
      <trkpt lat="45.92846" lon="4.78727">
        <ele>169.81</ele>
        <time>2012-09-05T15:28:22Z</time>
      </trkpt>
      <trkpt lat="45.9289" lon="4.78702">
        <ele>169.33</ele>
        <time>2012-09-05T15:28:34Z</time>
      </trkpt>
      <trkpt lat="45.92934" lon="4.78672">
        <ele>169.81</ele>
        <time>2012-09-05T15:28:46Z</time>
      </trkpt>
      <trkpt lat="45.9297" lon="4.78645">
        <ele>169.81</ele>
        <time>2012-09-05T15:28:56Z</time>
      </trkpt>
      <trkpt lat="45.92974" lon="4.78643">
        <ele>169.81</ele>
        <time>2012-09-05T15:28:57Z</time>
      </trkpt>
      <trkpt lat="45.9302" lon="4.78603">
        <ele>169.81</ele>
        <time>2012-09-05T15:29:11Z</time>
      </trkpt>
      <trkpt lat="45.93054" lon="4.78575">
        <ele>169.81</ele>
        <time>2012-09-05T15:29:22Z</time>
      </trkpt>
      <trkpt lat="45.93096" lon="4.78547">
        <ele>169.33</ele>
        <time>2012-09-05T15:29:34Z</time>
      </trkpt>
      <trkpt lat="45.93144" lon="4.78515">
        <ele>169.33</ele>
        <time>2012-09-05T15:29:47Z</time>
      </trkpt>
      <trkpt lat="45.93181" lon="4.78485">
        <ele>169.33</ele>
        <time>2012-09-05T15:30:00Z</time>
      </trkpt>
      <trkpt lat="45.93216" lon="4.78461">
        <ele>169.33</ele>
        <time>2012-09-05T15:30:12Z</time>
      </trkpt>
      <trkpt lat="45.93271" lon="4.78423">
        <ele>168.85</ele>
        <time>2012-09-05T15:30:27Z</time>
      </trkpt>
      <trkpt lat="45.93315" lon="4.78395">
        <ele>168.85</ele>
        <time>2012-09-05T15:30:39Z</time>
      </trkpt>
      <trkpt lat="45.93365" lon="4.7836">
        <ele>169.33</ele>
        <time>2012-09-05T15:30:53Z</time>
      </trkpt>
      <trkpt lat="45.93408" lon="4.78332">
        <ele>170.29</ele>
        <time>2012-09-05T15:31:05Z</time>
      </trkpt>
      <trkpt lat="45.93456" lon="4.783">
        <ele>169.81</ele>
        <time>2012-09-05T15:31:19Z</time>
      </trkpt>
      <trkpt lat="45.93504" lon="4.78254">
        <ele>169.81</ele>
        <time>2012-09-05T15:31:34Z</time>
      </trkpt>
      <trkpt lat="45.93547" lon="4.78212">
        <ele>169.33</ele>
        <time>2012-09-05T15:31:49Z</time>
      </trkpt>
      <trkpt lat="45.93583" lon="4.78188">
        <ele>168.85</ele>
        <time>2012-09-05T15:32:03Z</time>
      </trkpt>
      <trkpt lat="45.93634" lon="4.78161">
        <ele>169.33</ele>
        <time>2012-09-05T15:32:18Z</time>
      </trkpt>
      <trkpt lat="45.93687" lon="4.78125">
        <ele>169.33</ele>
        <time>2012-09-05T15:32:33Z</time>
      </trkpt>
      <trkpt lat="45.93711" lon="4.78102">
        <ele>169.81</ele>
        <time>2012-09-05T15:32:40Z</time>
      </trkpt>
      <trkpt lat="45.93714" lon="4.78099">
        <ele>169.33</ele>
        <time>2012-09-05T15:32:41Z</time>
      </trkpt>
      <trkpt lat="45.93717" lon="4.78095">
        <ele>169.33</ele>
        <time>2012-09-05T15:32:42Z</time>
      </trkpt>
      <trkpt lat="45.93726" lon="4.78084">
        <ele>169.81</ele>
        <time>2012-09-05T15:32:45Z</time>
      </trkpt>
      <trkpt lat="45.93777" lon="4.78019">
        <ele>169.33</ele>
        <time>2012-09-05T15:33:02Z</time>
      </trkpt>
      <trkpt lat="45.93816" lon="4.77972">
        <ele>169.81</ele>
        <time>2012-09-05T15:33:15Z</time>
      </trkpt>
      <trkpt lat="45.93855" lon="4.77915">
        <ele>169.33</ele>
        <time>2012-09-05T15:33:30Z</time>
      </trkpt>
      <trkpt lat="45.93879" lon="4.77878">
        <ele>170.77</ele>
        <time>2012-09-05T15:33:41Z</time>
      </trkpt>
      <trkpt lat="45.93881" lon="4.77873">
        <ele>171.25</ele>
        <time>2012-09-05T15:33:43Z</time>
      </trkpt>
      <trkpt lat="45.93889" lon="4.77857">
        <ele>172.69</ele>
        <time>2012-09-05T15:33:56Z</time>
      </trkpt>
      <trkpt lat="45.9389" lon="4.77858">
        <ele>172.21</ele>
        <time>2012-09-05T15:34:25Z</time>
      </trkpt>
      <trkpt lat="45.93889" lon="4.77858">
        <ele>172.21</ele>
        <time>2012-09-05T15:34:52Z</time>
      </trkpt>
      <trkpt lat="45.93893" lon="4.77849">
        <ele>172.21</ele>
        <time>2012-09-05T15:35:17Z</time>
      </trkpt>
      <trkpt lat="45.93907" lon="4.778">
        <ele>171.73</ele>
        <time>2012-09-05T15:35:30Z</time>
      </trkpt>
      <trkpt lat="45.93909" lon="4.77794">
        <ele>171.25</ele>
        <time>2012-09-05T15:35:40Z</time>
      </trkpt>
      <trkpt lat="45.93912" lon="4.77794">
        <ele>171.25</ele>
        <time>2012-09-05T15:36:00Z</time>
      </trkpt>
      <trkpt lat="45.93913" lon="4.77795">
        <ele>171.25</ele>
        <time>2012-09-05T15:36:01Z</time>
      </trkpt>
      <trkpt lat="45.93915" lon="4.77795">
        <ele>171.25</ele>
        <time>2012-09-05T15:36:02Z</time>
      </trkpt>
      <trkpt lat="45.93916" lon="4.77793">
        <ele>171.25</ele>
        <time>2012-09-05T15:36:03Z</time>
      </trkpt>
      <trkpt lat="45.93917" lon="4.77792">
        <ele>171.25</ele>
        <time>2012-09-05T15:36:04Z</time>
      </trkpt>
      <trkpt lat="45.93918" lon="4.7779">
        <ele>171.25</ele>
        <time>2012-09-05T15:36:05Z</time>
      </trkpt>
      <trkpt lat="45.93919" lon="4.77789">
        <ele>171.25</ele>
        <time>2012-09-05T15:36:06Z</time>
      </trkpt>
      <trkpt lat="45.9392" lon="4.77788">
        <ele>171.25</ele>
        <time>2012-09-05T15:36:07Z</time>
      </trkpt>
      <trkpt lat="45.93921" lon="4.77786">
        <ele>171.25</ele>
        <time>2012-09-05T15:36:08Z</time>
      </trkpt>
      <trkpt lat="45.93922" lon="4.77786">
        <ele>170.77</ele>
        <time>2012-09-05T15:36:09Z</time>
      </trkpt>
      <trkpt lat="45.93924" lon="4.77783">
        <ele>170.77</ele>
        <time>2012-09-05T15:36:13Z</time>
      </trkpt>
      <trkpt lat="45.93925" lon="4.77782">
        <ele>170.77</ele>
        <time>2012-09-05T15:36:14Z</time>
      </trkpt>
      <trkpt lat="45.93926" lon="4.7778">
        <ele>170.77</ele>
        <time>2012-09-05T15:36:15Z</time>
      </trkpt>
      <trkpt lat="45.93927" lon="4.77778">
        <ele>170.29</ele>
        <time>2012-09-05T15:36:16Z</time>
      </trkpt>
      <trkpt lat="45.93929" lon="4.77775">
        <ele>170.77</ele>
        <time>2012-09-05T15:36:17Z</time>
      </trkpt>
      <trkpt lat="45.93948" lon="4.77724">
        <ele>170.29</ele>
        <time>2012-09-05T15:36:30Z</time>
      </trkpt>
      <trkpt lat="45.93969" lon="4.77658">
        <ele>171.25</ele>
        <time>2012-09-05T15:36:44Z</time>
      </trkpt>
      <trkpt lat="45.93983" lon="4.77585">
        <ele>171.25</ele>
        <time>2012-09-05T15:37:00Z</time>
      </trkpt>
      <trkpt lat="45.93985" lon="4.77582">
        <ele>170.77</ele>
        <time>2012-09-05T15:37:01Z</time>
      </trkpt>
      <trkpt lat="45.93986" lon="4.77578">
        <ele>171.25</ele>
        <time>2012-09-05T15:37:02Z</time>
      </trkpt>
      <trkpt lat="45.93986" lon="4.77574">
        <ele>170.77</ele>
        <time>2012-09-05T15:37:03Z</time>
      </trkpt>
      <trkpt lat="45.93988" lon="4.77569">
        <ele>171.25</ele>
        <time>2012-09-05T15:37:04Z</time>
      </trkpt>
      <trkpt lat="45.93989" lon="4.77566">
        <ele>170.77</ele>
        <time>2012-09-05T15:37:05Z</time>
      </trkpt>
      <trkpt lat="45.93996" lon="4.77518">
        <ele>171.25</ele>
        <time>2012-09-05T15:37:15Z</time>
      </trkpt>
      <trkpt lat="45.93997" lon="4.77512">
        <ele>171.25</ele>
        <time>2012-09-05T15:37:16Z</time>
      </trkpt>
      <trkpt lat="45.94005" lon="4.7746">
        <ele>170.77</ele>
        <time>2012-09-05T15:37:27Z</time>
      </trkpt>
      <trkpt lat="45.9401" lon="4.77407">
        <ele>171.25</ele>
        <time>2012-09-05T15:37:40Z</time>
      </trkpt>
      <trkpt lat="45.94016" lon="4.77339">
        <ele>171.73</ele>
        <time>2012-09-05T15:37:55Z</time>
      </trkpt>
      <trkpt lat="45.94019" lon="4.77286">
        <ele>172.21</ele>
        <time>2012-09-05T15:38:08Z</time>
      </trkpt>
      <trkpt lat="45.94021" lon="4.77269">
        <ele>172.21</ele>
        <time>2012-09-05T15:38:18Z</time>
      </trkpt>
      <trkpt lat="45.94021" lon="4.77264">
        <ele>172.69</ele>
        <time>2012-09-05T15:38:21Z</time>
      </trkpt>
      <trkpt lat="45.94022" lon="4.77262">
        <ele>172.21</ele>
        <time>2012-09-05T15:38:22Z</time>
      </trkpt>
      <trkpt lat="45.94022" lon="4.77259">
        <ele>172.69</ele>
        <time>2012-09-05T15:38:23Z</time>
      </trkpt>
      <trkpt lat="45.94022" lon="4.77256">
        <ele>172.69</ele>
        <time>2012-09-05T15:38:24Z</time>
      </trkpt>
      <trkpt lat="45.94022" lon="4.77252">
        <ele>172.69</ele>
        <time>2012-09-05T15:38:25Z</time>
      </trkpt>
      <trkpt lat="45.94027" lon="4.77204">
        <ele>172.21</ele>
        <time>2012-09-05T15:38:39Z</time>
      </trkpt>
      <trkpt lat="45.94036" lon="4.77137">
        <ele>171.73</ele>
        <time>2012-09-05T15:38:52Z</time>
      </trkpt>
      <trkpt lat="45.94033" lon="4.77072">
        <ele>171.73</ele>
        <time>2012-09-05T15:39:05Z</time>
      </trkpt>
      <trkpt lat="45.94038" lon="4.77029">
        <ele>171.73</ele>
        <time>2012-09-05T15:39:15Z</time>
      </trkpt>
      <trkpt lat="45.94043" lon="4.77003">
        <ele>171.73</ele>
        <time>2012-09-05T15:39:21Z</time>
      </trkpt>
      <trkpt lat="45.94044" lon="4.77">
        <ele>172.21</ele>
        <time>2012-09-05T15:39:22Z</time>
      </trkpt>
      <trkpt lat="45.94044" lon="4.76996">
        <ele>172.21</ele>
        <time>2012-09-05T15:39:23Z</time>
      </trkpt>
      <trkpt lat="45.94044" lon="4.76993">
        <ele>172.21</ele>
        <time>2012-09-05T15:39:24Z</time>
      </trkpt>
      <trkpt lat="45.94043" lon="4.7699">
        <ele>172.21</ele>
        <time>2012-09-05T15:39:25Z</time>
      </trkpt>
      <trkpt lat="45.94042" lon="4.76988">
        <ele>172.21</ele>
        <time>2012-09-05T15:39:26Z</time>
      </trkpt>
      <trkpt lat="45.94041" lon="4.76986">
        <ele>172.21</ele>
        <time>2012-09-05T15:39:27Z</time>
      </trkpt>
      <trkpt lat="45.9404" lon="4.76985">
        <ele>171.73</ele>
        <time>2012-09-05T15:39:28Z</time>
      </trkpt>
      <trkpt lat="45.94038" lon="4.76985">
        <ele>171.73</ele>
        <time>2012-09-05T15:39:29Z</time>
      </trkpt>
      <trkpt lat="45.94037" lon="4.76984">
        <ele>171.73</ele>
        <time>2012-09-05T15:39:30Z</time>
      </trkpt>
      <trkpt lat="45.94035" lon="4.76983">
        <ele>171.73</ele>
        <time>2012-09-05T15:39:31Z</time>
      </trkpt>
      <trkpt lat="45.94034" lon="4.76981">
        <ele>171.25</ele>
        <time>2012-09-05T15:39:32Z</time>
      </trkpt>
      <trkpt lat="45.94033" lon="4.76979">
        <ele>171.25</ele>
        <time>2012-09-05T15:39:33Z</time>
      </trkpt>
      <trkpt lat="45.94033" lon="4.76976">
        <ele>171.25</ele>
        <time>2012-09-05T15:39:34Z</time>
      </trkpt>
      <trkpt lat="45.94033" lon="4.76974">
        <ele>171.25</ele>
        <time>2012-09-05T15:39:35Z</time>
      </trkpt>
      <trkpt lat="45.94033" lon="4.76973">
        <ele>171.25</ele>
        <time>2012-09-05T15:39:36Z</time>
      </trkpt>
      <trkpt lat="45.94038" lon="4.76959">
        <ele>171.73</ele>
        <time>2012-09-05T15:39:42Z</time>
      </trkpt>
      <trkpt lat="45.94038" lon="4.76957">
        <ele>171.73</ele>
        <time>2012-09-05T15:39:43Z</time>
      </trkpt>
      <trkpt lat="45.94037" lon="4.76951">
        <ele>171.25</ele>
        <time>2012-09-05T15:39:50Z</time>
      </trkpt>
      <trkpt lat="45.94036" lon="4.76949">
        <ele>171.73</ele>
        <time>2012-09-05T15:39:51Z</time>
      </trkpt>
      <trkpt lat="45.94035" lon="4.76939">
        <ele>171.25</ele>
        <time>2012-09-05T15:39:54Z</time>
      </trkpt>
      <trkpt lat="45.94036" lon="4.76936">
        <ele>171.25</ele>
        <time>2012-09-05T15:39:55Z</time>
      </trkpt>
      <trkpt lat="45.94038" lon="4.76934">
        <ele>171.25</ele>
        <time>2012-09-05T15:39:56Z</time>
      </trkpt>
      <trkpt lat="45.94039" lon="4.76931">
        <ele>171.25</ele>
        <time>2012-09-05T15:39:57Z</time>
      </trkpt>
      <trkpt lat="45.94039" lon="4.76928">
        <ele>171.25</ele>
        <time>2012-09-05T15:39:58Z</time>
      </trkpt>
      <trkpt lat="45.94039" lon="4.76924">
        <ele>171.25</ele>
        <time>2012-09-05T15:39:59Z</time>
      </trkpt>
      <trkpt lat="45.94039" lon="4.7692">
        <ele>171.25</ele>
        <time>2012-09-05T15:40:00Z</time>
      </trkpt>
      <trkpt lat="45.94038" lon="4.76915">
        <ele>171.25</ele>
        <time>2012-09-05T15:40:01Z</time>
      </trkpt>
      <trkpt lat="45.94036" lon="4.7691">
        <ele>171.25</ele>
        <time>2012-09-05T15:40:02Z</time>
      </trkpt>
      <trkpt lat="45.9403" lon="4.76893">
        <ele>170.77</ele>
        <time>2012-09-05T15:40:09Z</time>
      </trkpt>
      <trkpt lat="45.94023" lon="4.76885">
        <ele>170.77</ele>
        <time>2012-09-05T15:40:15Z</time>
      </trkpt>
      <trkpt lat="45.9402" lon="4.76883">
        <ele>170.77</ele>
        <time>2012-09-05T15:40:16Z</time>
      </trkpt>
      <trkpt lat="45.94016" lon="4.76882">
        <ele>170.77</ele>
        <time>2012-09-05T15:40:17Z</time>
      </trkpt>
      <trkpt lat="45.94013" lon="4.76883">
        <ele>170.77</ele>
        <time>2012-09-05T15:40:18Z</time>
      </trkpt>
      <trkpt lat="45.9401" lon="4.76884">
        <ele>170.77</ele>
        <time>2012-09-05T15:40:19Z</time>
      </trkpt>
      <trkpt lat="45.93986" lon="4.76884">
        <ele>170.29</ele>
        <time>2012-09-05T15:40:28Z</time>
      </trkpt>
      <trkpt lat="45.93984" lon="4.76883">
        <ele>170.29</ele>
        <time>2012-09-05T15:40:29Z</time>
      </trkpt>
      <trkpt lat="45.93982" lon="4.76883">
        <ele>170.29</ele>
        <time>2012-09-05T15:40:30Z</time>
      </trkpt>
      <trkpt lat="45.9398" lon="4.76884">
        <ele>170.29</ele>
        <time>2012-09-05T15:40:31Z</time>
      </trkpt>
      <trkpt lat="45.93978" lon="4.76887">
        <ele>170.29</ele>
        <time>2012-09-05T15:40:32Z</time>
      </trkpt>
      <trkpt lat="45.93977" lon="4.76889">
        <ele>170.29</ele>
        <time>2012-09-05T15:40:33Z</time>
      </trkpt>
      <trkpt lat="45.93969" lon="4.76903">
        <ele>170.29</ele>
        <time>2012-09-05T15:40:43Z</time>
      </trkpt>
      <trkpt lat="45.93969" lon="4.76902">
        <ele>170.29</ele>
        <time>2012-09-05T15:40:59Z</time>
      </trkpt>
      <trkpt lat="45.93969" lon="4.76902">
        <ele>170.29</ele>
        <time>2012-09-05T15:41:27Z</time>
      </trkpt>
      <trkpt lat="45.93969" lon="4.76901">
        <ele>170.29</ele>
        <time>2012-09-05T15:41:59Z</time>
      </trkpt>
      <trkpt lat="45.93969" lon="4.76901">
        <ele>170.29</ele>
        <time>2012-09-05T15:42:32Z</time>
      </trkpt>
      <trkpt lat="45.9397" lon="4.76903">
        <ele>170.29</ele>
        <time>2012-09-05T15:43:03Z</time>
      </trkpt>
      <trkpt lat="45.93972" lon="4.76903">
        <ele>170.29</ele>
        <time>2012-09-05T15:43:36Z</time>
      </trkpt>
      <trkpt lat="45.93973" lon="4.76904">
        <ele>170.29</ele>
        <time>2012-09-05T15:44:06Z</time>
      </trkpt>
      <trkpt lat="45.93973" lon="4.76903">
        <ele>170.29</ele>
        <time>2012-09-05T15:44:35Z</time>
      </trkpt>
      <trkpt lat="45.93973" lon="4.76904">
        <ele>170.29</ele>
        <time>2012-09-05T15:45:03Z</time>
      </trkpt>
      <trkpt lat="45.93973" lon="4.76905">
        <ele>170.29</ele>
        <time>2012-09-05T15:45:33Z</time>
      </trkpt>
      <trkpt lat="45.93973" lon="4.76904">
        <ele>170.29</ele>
        <time>2012-09-05T15:46:04Z</time>
      </trkpt>
      <trkpt lat="45.93973" lon="4.76904">
        <ele>170.77</ele>
        <time>2012-09-05T15:46:35Z</time>
      </trkpt>
      <trkpt lat="45.93973" lon="4.76905">
        <ele>170.29</ele>
        <time>2012-09-05T15:47:02Z</time>
      </trkpt>
      <trkpt lat="45.93973" lon="4.76905">
        <ele>170.29</ele>
        <time>2012-09-05T15:47:36Z</time>
      </trkpt>
      <trkpt lat="45.93974" lon="4.76902">
        <ele>170.29</ele>
        <time>2012-09-05T15:47:43Z</time>
      </trkpt>
      <trkpt lat="45.93971" lon="4.76897">
        <ele>170.29</ele>
        <time>2012-09-05T15:47:57Z</time>
      </trkpt>
      <trkpt lat="45.9397" lon="4.76897">
        <ele>170.29</ele>
        <time>2012-09-05T15:48:08Z</time>
      </trkpt>
      <trkpt lat="45.93967" lon="4.76895">
        <ele>170.29</ele>
        <time>2012-09-05T15:48:12Z</time>
      </trkpt>
      <trkpt lat="45.93966" lon="4.76893">
        <ele>170.29</ele>
        <time>2012-09-05T15:48:13Z</time>
      </trkpt>
      <trkpt lat="45.93966" lon="4.76891">
        <ele>170.29</ele>
        <time>2012-09-05T15:48:14Z</time>
      </trkpt>
      <trkpt lat="45.9396" lon="4.7688">
        <ele>170.29</ele>
        <time>2012-09-05T15:48:19Z</time>
      </trkpt>
      <trkpt lat="45.93958" lon="4.76877">
        <ele>170.29</ele>
        <time>2012-09-05T15:48:20Z</time>
      </trkpt>
      <trkpt lat="45.93957" lon="4.76875">
        <ele>170.29</ele>
        <time>2012-09-05T15:48:21Z</time>
      </trkpt>
      <trkpt lat="45.93955" lon="4.76873">
        <ele>170.29</ele>
        <time>2012-09-05T15:48:22Z</time>
      </trkpt>
      <trkpt lat="45.93953" lon="4.76871">
        <ele>170.29</ele>
        <time>2012-09-05T15:48:23Z</time>
      </trkpt>
      <trkpt lat="45.93952" lon="4.76869">
        <ele>169.81</ele>
        <time>2012-09-05T15:48:24Z</time>
      </trkpt>
      <trkpt lat="45.9395" lon="4.76867">
        <ele>170.29</ele>
        <time>2012-09-05T15:48:25Z</time>
      </trkpt>
      <trkpt lat="45.9393" lon="4.76839">
        <ele>169.81</ele>
        <time>2012-09-05T15:48:37Z</time>
      </trkpt>
      <trkpt lat="45.93909" lon="4.76806">
        <ele>169.81</ele>
        <time>2012-09-05T15:48:48Z</time>
      </trkpt>
      <trkpt lat="45.93886" lon="4.7677">
        <ele>169.81</ele>
        <time>2012-09-05T15:49:01Z</time>
      </trkpt>
      <trkpt lat="45.93862" lon="4.76728">
        <ele>169.81</ele>
        <time>2012-09-05T15:49:15Z</time>
      </trkpt>
      <trkpt lat="45.93861" lon="4.76724">
        <ele>169.81</ele>
        <time>2012-09-05T15:49:16Z</time>
      </trkpt>
      <trkpt lat="45.93862" lon="4.7672">
        <ele>169.81</ele>
        <time>2012-09-05T15:49:17Z</time>
      </trkpt>
      <trkpt lat="45.93864" lon="4.76716">
        <ele>169.81</ele>
        <time>2012-09-05T15:49:18Z</time>
      </trkpt>
      <trkpt lat="45.93865" lon="4.76713">
        <ele>170.29</ele>
        <time>2012-09-05T15:49:19Z</time>
      </trkpt>
      <trkpt lat="45.93866" lon="4.76709">
        <ele>170.77</ele>
        <time>2012-09-05T15:49:20Z</time>
      </trkpt>
      <trkpt lat="45.93867" lon="4.76707">
        <ele>170.77</ele>
        <time>2012-09-05T15:49:21Z</time>
      </trkpt>
      <trkpt lat="45.93872" lon="4.76691">
        <ele>171.73</ele>
        <time>2012-09-05T15:49:31Z</time>
      </trkpt>
      <trkpt lat="45.93872" lon="4.76689">
        <ele>171.73</ele>
        <time>2012-09-05T15:49:32Z</time>
      </trkpt>
      <trkpt lat="45.93872" lon="4.76687">
        <ele>171.73</ele>
        <time>2012-09-05T15:49:33Z</time>
      </trkpt>
      <trkpt lat="45.93872" lon="4.76679">
        <ele>171.73</ele>
        <time>2012-09-05T15:49:48Z</time>
      </trkpt>
      <trkpt lat="45.93873" lon="4.76673">
        <ele>171.25</ele>
        <time>2012-09-05T15:50:04Z</time>
      </trkpt>
      <trkpt lat="45.93872" lon="4.76671">
        <ele>171.25</ele>
        <time>2012-09-05T15:50:05Z</time>
      </trkpt>
      <trkpt lat="45.9387" lon="4.76671">
        <ele>171.25</ele>
        <time>2012-09-05T15:50:06Z</time>
      </trkpt>
      <trkpt lat="45.93869" lon="4.76672">
        <ele>171.25</ele>
        <time>2012-09-05T15:50:07Z</time>
      </trkpt>
      <trkpt lat="45.93872" lon="4.76696">
        <ele>171.25</ele>
        <time>2012-09-05T15:50:18Z</time>
      </trkpt>
      <trkpt lat="45.93868" lon="4.76708">
        <ele>170.77</ele>
        <time>2012-09-05T15:50:30Z</time>
      </trkpt>
      <trkpt lat="45.93861" lon="4.76734">
        <ele>169.81</ele>
        <time>2012-09-05T15:50:38Z</time>
      </trkpt>
      <trkpt lat="45.93861" lon="4.76736">
        <ele>169.81</ele>
        <time>2012-09-05T15:50:39Z</time>
      </trkpt>
      <trkpt lat="45.9386" lon="4.76738">
        <ele>169.81</ele>
        <time>2012-09-05T15:50:40Z</time>
      </trkpt>
      <trkpt lat="45.9386" lon="4.76741">
        <ele>169.81</ele>
        <time>2012-09-05T15:50:52Z</time>
      </trkpt>
      <trkpt lat="45.93861" lon="4.76741">
        <ele>169.81</ele>
        <time>2012-09-05T15:51:23Z</time>
      </trkpt>
      <trkpt lat="45.93862" lon="4.76741">
        <ele>164.52</ele>
        <time>2012-09-05T15:51:46Z</time>
      </trkpt>
      <trkpt lat="45.93862" lon="4.76741">
        <ele>170.29</ele>
        <time>2012-09-05T15:51:47Z</time>
      </trkpt>
      <trkpt lat="45.93861" lon="4.76741">
        <ele>170.29</ele>
        <time>2012-09-05T15:52:09Z</time>
      </trkpt>
    </trkseg>
  </trk>
</gpx>